Provisional Data: Pine Creek near Telescope, PA


Please select a monitoring station.
Please select start date.
Please select start date.

Toggle Unit: C/F Toggle Unit: C/F
Sample Time Temperature (C) Temperature (F) Specific Conductivity (mS/cm) pH   Turbidity (NTU+) DO (mg/L)
8/9/2021 12:00:00 AM 16.77 62.186 0.089 7.05 0.85 8.95
8/9/2021 12:15:00 AM 16.71 62.078 0.084 7.06 1.4 8.97
8/9/2021 12:30:00 AM 16.65 61.97 0.089 7.08 0.82 8.98
8/9/2021 12:45:00 AM 16.59 61.862 0.089 7.09 0.77 9
8/9/2021 1:00:00 AM 16.54 61.772 0.089 7.04 0.81 9
8/9/2021 1:15:00 AM 16.48 61.664 0.087 7.07 1.43 9.01
8/9/2021 1:30:00 AM 16.42 61.556 0.09 7.08 0.79 9.02
8/9/2021 1:45:00 AM 16.36 61.448 0.09 7.08 0.81 9.04
8/9/2021 2:00:00 AM 16.31 61.358 0.085 7.05 1.55 9.05
8/9/2021 2:15:00 AM 16.25 61.25 0.09 7.08 0.74 9.07
8/9/2021 2:30:00 AM 16.2 61.16 0.09 7.07 0.78 9.08
8/9/2021 2:45:00 AM 16.14 61.052 0.09 7.08 0.77 9.09
8/9/2021 3:00:00 AM 16.09 60.962 0.087 7.05 1.4 9.1
8/9/2021 3:15:00 AM 16.03 60.854 0.09 7.08 0.76 9.12
8/9/2021 3:30:00 AM 15.98 60.764 0.09 7.08 0.77 9.13
8/9/2021 3:45:00 AM 15.94 60.692 0.09 7.07 0.74 9.14
8/9/2021 4:00:00 AM 15.89 60.602 0.09 7.07 0.86 9.15
8/9/2021 4:15:00 AM 15.85 60.53 0.086 7.04 1.49 9.16
8/9/2021 4:30:00 AM 15.81 60.458 0.087 7.05 1.5 9.17
8/9/2021 4:45:00 AM 15.77 60.386 0.091 7.07 0.82 9.18
8/9/2021 5:00:00 AM 15.74 60.332 0.091 7.05 0.84 9.19
8/9/2021 5:15:00 AM 15.7 60.26 0.091 7.07 0.85 9.2
8/9/2021 5:30:00 AM 15.66 60.188 0.091 7.04 0.78 9.21
8/9/2021 5:45:00 AM 15.63 60.134 0.086 7.04 1.42 9.22
8/9/2021 6:00:00 AM 15.59 60.062 0.091 7.07 0.83 9.23
8/9/2021 6:15:00 AM 15.55 59.99 0.091 7.07 0.78 9.24
8/9/2021 6:30:00 AM 15.51 59.918 0.091 7.06 0.76 9.27
8/9/2021 6:45:00 AM 15.48 59.864 0.087 7.04 1.46 9.31
8/9/2021 7:00:00 AM 15.45 59.81 0.091 7.08 0.84 9.37
8/9/2021 7:15:00 AM 15.43 59.774 0.091 7.1 0.92 9.45
8/9/2021 7:30:00 AM 15.41 59.738 0.091 7.14 0.82 9.53
8/9/2021 7:45:00 AM 15.4 59.72 0.091 7.16 0.84 9.62
8/9/2021 8:00:00 AM 15.39 59.702 0.09 7.19 0.81 9.75
8/9/2021 8:15:00 AM 15.4 59.72 0.09 7.23 0.84 9.88
8/9/2021 8:30:00 AM 15.39 59.702 0.09 7.2 0.83 9.95
8/9/2021 8:45:00 AM 15.39 59.702 0.09 7.27 0.81 10.02
8/9/2021 9:00:00 AM 15.45 59.81 0.09 7.33 0.81 10.16
8/9/2021 9:15:00 AM 15.48 59.864 0.085 7.33 1.46 10.24
8/9/2021 9:30:00 AM 15.52 59.936 0.089 7.42 0.86 10.34
8/9/2021 9:45:00 AM 15.65 60.17 0.084 7.49 1.52 10.5
8/9/2021 10:00:00 AM 15.76 60.368 0.089 7.6 0.8 10.58
8/9/2021 10:15:00 AM 15.93 60.674 0.089 7.67 0.81 10.62
8/9/2021 10:30:00 AM 16.1 60.98 0.088 7.73 0.83 10.63
8/9/2021 10:45:00 AM 16.29 61.322 0.088 7.79 0.84 10.63
8/9/2021 11:00:00 AM 16.46 61.628 0.088 7.79 0.85 10.63
8/9/2021 11:15:00 AM 16.63 61.934 0.083 7.84 1.46 10.62
8/9/2021 11:30:00 AM 16.73 62.114 0.088 7.88 0.85 10.58
8/9/2021 11:45:00 AM 16.8 62.24 0.088 7.87 0.85 10.53
8/9/2021 12:00:00 PM 16.79 62.222 0.088 7.87 0.88 10.48
8/9/2021 12:15:00 PM 16.81 62.258 0.088 7.86 0.78 10.45
8/9/2021 12:30:00 PM 17.09 62.762 0.082 7.94 1.54 10.5
8/9/2021 12:45:00 PM 17.34 63.212 0.087 8.04 0.81 10.5
8/9/2021 1:00:00 PM 17.56 63.608 0.087 8.08 0.84 10.47
8/9/2021 1:15:00 PM 17.76 63.968 0.087 8.12 0.81 10.44
8/9/2021 1:30:00 PM 17.9 64.22 0.087 8.09 0.83 10.36
8/9/2021 1:45:00 PM 18.09 64.562 0.087 8.14 0.88 10.32
8/9/2021 2:00:00 PM 18.26 64.868 0.082 8.08 1.45 10.25
8/9/2021 2:15:00 PM 18.35 65.03 0.086 8.07 0.87 10.16
8/9/2021 2:30:00 PM 18.38 65.084 0.086 8.01 0.9 10.08
8/9/2021 2:45:00 PM 18.47 65.246 0.084 7.98 1.54 10.05
8/9/2021 3:00:00 PM 18.52 65.336 0.086 7.97 0.93 9.97
8/9/2021 3:15:00 PM 18.57 65.426 0.086 7.88 0.9 9.87
8/9/2021 3:30:00 PM 18.64 65.552 0.086 7.88 0.94 9.84
8/9/2021 3:45:00 PM 18.71 65.67799 0.086 7.86 0.91 9.81
8/9/2021 4:00:00 PM 18.75 65.75 0.086 7.84 0.87 9.78
8/9/2021 4:15:00 PM 18.77 65.786 0.086 7.8 0.91 9.74
8/9/2021 4:30:00 PM 18.79 65.82201 0.081 7.71 1.54 9.66
8/9/2021 4:45:00 PM 18.78 65.804 0.086 7.69 0.87 9.59
8/9/2021 5:00:00 PM 18.78 65.804 0.081 7.62 1.47 9.57
8/9/2021 5:15:00 PM 18.78 65.804 0.086 7.63 0.85 9.53
8/9/2021 5:30:00 PM 18.78 65.804 0.081 7.55 1.55 9.47
8/9/2021 5:45:00 PM 18.77 65.786 0.086 7.54 0.83 9.41
8/9/2021 6:00:00 PM 18.76 65.768 0.086 7.5 0.89 9.34
8/9/2021 6:15:00 PM 18.73 65.714 0.086 7.46 0.91 9.29
8/9/2021 6:30:00 PM 18.71 65.67799 0.086 7.43 0.88 9.25
8/9/2021 6:45:00 PM 18.68 65.624 0.082 7.36 1.51 9.19
8/9/2021 7:00:00 PM 18.64 65.552 0.087 7.35 0.83 9.14
8/9/2021 7:15:00 PM 18.6 65.48 0.087 7.32 0.83 9.08
8/9/2021 7:30:00 PM 18.55 65.39 0.087 7.28 0.81 9.02
8/9/2021 7:45:00 PM 18.49 65.282 0.087 7.25 0.85 8.96
8/9/2021 8:00:00 PM 18.43 65.174 0.088 7.22 0.71 8.89
8/9/2021 8:15:00 PM 18.37 65.066 0.088 7.18 0.83 8.82
8/9/2021 8:30:00 PM 18.31 64.958 0.088 7.17 0.87 8.77
8/9/2021 8:45:00 PM 18.25 64.85 0.088 7.15 0.87 8.73
8/9/2021 9:00:00 PM 18.18 64.724 0.089 7.14 0.88 8.71
8/9/2021 9:15:00 PM 18.11 64.598 0.083 7.09 1.65 8.7
8/9/2021 9:30:00 PM 18.04 64.472 0.089 7.12 1.02 8.7
8/9/2021 9:45:00 PM 17.98 64.364 0.089 7.11 0.96 8.69
8/9/2021 10:00:00 PM 17.91 64.238 0.089 7.1 0.81 8.7
8/9/2021 10:15:00 PM 17.84 64.112 0.085 7.07 1.53 8.71
8/9/2021 10:30:00 PM 17.78 64.004 0.09 7.09 0.78 8.72
8/9/2021 10:45:00 PM 17.73 63.914 0.09 7.09 0.75 8.73
8/9/2021 11:00:00 PM 17.67 63.806 0.085 7.06 1.44 8.73
8/9/2021 11:15:00 PM 17.61 63.698 0.085 7.04 1.56 8.74
8/9/2021 11:30:00 PM 17.55 63.59 0.09 7.07 0.76 8.75
8/9/2021 11:45:00 PM 17.49 63.482 0.09 7.07 0.78 8.76
8/10/2021 12:00:00 AM 17.43 63.374 0.09 7.07 0.71 8.77
8/10/2021 12:15:00 AM 17.37 63.266 0.086 7.04 1.45 8.78
8/10/2021 12:30:00 AM 17.31 63.158 0.091 7.07 0.82 8.79
8/10/2021 12:45:00 AM 17.25 63.05 0.091 7.07 0.72 8.8
8/10/2021 1:00:00 AM 17.19 62.942 0.091 7.07 0.79 8.82
8/10/2021 1:15:00 AM 17.13 62.834 0.091 7.07 0.81 8.83
8/10/2021 1:30:00 AM 17.07 62.726 0.091 7.06 0.78 8.85
8/10/2021 1:45:00 AM 17.01 62.618 0.091 7.06 0.78 8.86
8/10/2021 2:00:00 AM 16.95 62.51 0.087 7.03 1.48 8.87
8/10/2021 2:15:00 AM 16.89 62.402 0.091 7.06 0.76 8.88
8/10/2021 2:30:00 AM 16.84 62.312 0.086 7.03 1.42 8.9
8/10/2021 2:45:00 AM 16.78 62.204 0.091 7.06 0.78 8.9
8/10/2021 3:00:00 AM 16.73 62.114 0.091 7.06 0.71 8.91
8/10/2021 3:15:00 AM 16.68 62.024 0.092 7.07 0.69 8.93
8/10/2021 3:30:00 AM 16.63 61.934 0.092 7.06 0.82 8.94
8/10/2021 3:45:00 AM 16.58 61.844 0.092 7.06 0.74 8.95
8/10/2021 4:00:00 AM 16.53 61.754 0.088 7.03 1.59 8.96
8/10/2021 4:15:00 AM 16.49 61.682 0.092 7.06 0.67 8.97
8/10/2021 4:30:00 AM 16.44 61.592 0.092 7.07 0.68 8.98
8/10/2021 4:45:00 AM 16.4 61.52 0.092 7.06 0.75 8.99
8/10/2021 5:00:00 AM 16.36 61.448 0.088 7.05 1.49 9.01
8/10/2021 5:15:00 AM 16.31 61.358 0.092 7.07 0.73 9.02
8/10/2021 5:30:00 AM 16.27 61.286 0.092 7.07 0.72 9.02
8/10/2021 5:45:00 AM 16.23 61.214 0.092 7.06 0.77 9.04
8/10/2021 6:00:00 AM 16.2 61.16 0.09 7.04 1.39 9.04
8/10/2021 6:15:00 AM 16.16 61.088 0.09 7.03 1.49 9.05
8/10/2021 6:30:00 AM 16.12 61.016 0.092 7.07 0.73 9.08
8/10/2021 6:45:00 AM 16.09 60.962 0.092 7.07 0.7 9.13
8/10/2021 7:00:00 AM 16.05 60.89 0.092 7.08 0.87 9.18
8/10/2021 7:15:00 AM 16.01 60.818 0.088 7.07 1.67 9.25
8/10/2021 7:30:00 AM 16 60.8 0.092 7.13 0.84 9.41
8/10/2021 7:45:00 AM 16.01 60.818 0.088 7.14 1.45 9.55
8/10/2021 8:00:00 AM 16.01 60.818 0.092 7.19 0.83 9.64
8/10/2021 8:15:00 AM 16.01 60.818 0.09 7.17 1.55 9.73
8/10/2021 8:30:00 AM 16.02 60.836 0.092 7.23 0.8 9.77
8/10/2021 8:45:00 AM 16.04 60.872 0.086 7.23 1.47 9.85
8/10/2021 9:00:00 AM 16.06 60.908 0.091 7.29 0.84 9.92
8/10/2021 9:15:00 AM 16.09 60.962 0.086 7.3 1.46 9.99
8/10/2021 9:30:00 AM 16.12 61.016 0.087 7.33 1.82 10.02
8/10/2021 9:45:00 AM 16.21 61.178 0.091 7.45 0.84 10.16
8/10/2021 10:00:00 AM 16.35 61.43 0.09 7.55 0.78 10.3
8/10/2021 10:15:00 AM 16.49 61.682 0.09 7.63 0.83 10.39
8/10/2021 10:30:00 AM 16.67 62.006 0.09 7.7 0.77 10.44
8/10/2021 10:45:00 AM 16.79 62.222 0.087 7.72 1.54 10.46
8/10/2021 11:00:00 AM 16.83 62.294 0.089 7.73 0.81 10.38
8/10/2021 11:15:00 AM 16.84 62.312 0.089 7.69 0.83 10.29
8/10/2021 11:30:00 AM 16.96 62.528 0.087 7.76 1.57 10.38
8/10/2021 11:45:00 AM 17.11 62.798 0.089 7.89 0.88 10.43
8/10/2021 12:00:00 PM 17.22 62.996 0.087 7.9 1.6 10.45
8/10/2021 12:15:00 PM 17.3 63.14 0.085 7.93 1.53 10.45
8/10/2021 12:30:00 PM 17.42 63.356 0.088 7.99 0.84 10.43
8/10/2021 12:45:00 PM 17.54 63.572 0.088 8.06 0.82 10.44
8/10/2021 1:00:00 PM 17.77 63.986 0.088 8.12 0.88 10.44
8/10/2021 1:15:00 PM 17.89 64.202 0.088 8.05 0.94 10.35
8/10/2021 1:30:00 PM 17.88 64.184 0.088 7.95 0.87 10.19
8/10/2021 1:45:00 PM 17.93 64.274 0.088 7.86 0.88 10.04
8/10/2021 2:00:00 PM 18.01 64.418 0.088 7.84 0.85 9.98
8/10/2021 2:15:00 PM 18.01 64.418 0.088 7.64 0.85 9.7
8/10/2021 2:30:00 PM 18.08 64.544 0.088 7.67 0.83 9.77
8/10/2021 2:45:00 PM 18.16 64.688 0.088 7.78 0.89 9.92
8/10/2021 3:00:00 PM 18.17 64.706 0.082 7.71 1.54 9.87
8/10/2021 3:15:00 PM 18.19 64.742 0.088 7.77 0.81 9.9
8/10/2021 3:30:00 PM 18.23 64.814 0.088 7.83 0.83 9.96
8/10/2021 3:45:00 PM 18.25 64.85 0.088 7.83 0.82 9.96
8/10/2021 4:00:00 PM 18.26 64.868 0.088 7.81 0.8 9.9
8/10/2021 4:15:00 PM 18.25 64.85 0.088 7.73 0.86 9.81
8/10/2021 4:30:00 PM 18.24 64.832 0.088 7.67 0.81 9.74
8/10/2021 4:45:00 PM 18.25 64.85 0.088 7.68 0.89 9.76
8/10/2021 5:00:00 PM 18.23 64.814 0.088 7.58 0.89 9.6
8/10/2021 5:15:00 PM 18.21 64.778 0.086 7.52 1.58 9.6
8/10/2021 5:30:00 PM 18.22 64.796 0.088 7.55 0.86 9.58
8/10/2021 5:45:00 PM 18.22 64.796 0.088 7.55 0.85 9.57
8/10/2021 6:00:00 PM 18.21 64.778 0.084 7.45 1.62 9.46
8/10/2021 6:15:00 PM 18.19 64.742 0.088 7.43 0.82 9.38
8/10/2021 6:30:00 PM 18.19 64.742 0.088 7.4 0.8 9.32
8/10/2021 6:45:00 PM 18.18 64.724 0.082 7.32 1.72 9.23
8/10/2021 7:00:00 PM 18.17 64.706 0.088 7.33 0.82 9.19
8/10/2021 7:15:00 PM 18.15 64.67 0.084 7.27 1.46 9.17
8/10/2021 7:30:00 PM 18.12 64.616 0.087 7.24 1.54 9.1
8/10/2021 7:45:00 PM 18.08 64.544 0.089 7.24 0.84 9.01
8/10/2021 8:00:00 PM 18.05 64.49 0.089 7.21 0.84 8.92
8/10/2021 8:15:00 PM 18.01 64.418 0.089 7.17 0.79 8.85
8/10/2021 8:30:00 PM 17.97 64.346 0.089 7.16 0.83 8.79
8/10/2021 8:45:00 PM 17.94 64.292 0.09 7.14 0.89 8.75
8/10/2021 9:00:00 PM 17.9 64.22 0.09 7.12 0.89 8.72
8/10/2021 9:15:00 PM 17.85 64.13 0.09 7.11 0.9 8.71
8/10/2021 9:30:00 PM 17.81 64.058 0.09 7.1 0.89 8.71
8/10/2021 9:45:00 PM 17.79 64.022 0.086 7.06 1.49 8.69
8/10/2021 10:00:00 PM 17.76 63.968 0.091 7.09 0.81 8.69
8/10/2021 10:15:00 PM 17.73 63.914 0.091 7.09 0.77 8.7
8/10/2021 10:30:00 PM 17.7 63.86 0.091 7.08 0.78 8.69
8/10/2021 10:45:00 PM 17.67 63.806 0.091 7.08 0.77 8.7
8/10/2021 11:00:00 PM 17.64 63.752 0.091 7.03 0.74 8.7
8/10/2021 11:15:00 PM 17.62 63.716 0.091 7.09 0.71 8.7
8/10/2021 11:30:00 PM 17.57 63.626 0.091 7.07 0.7 8.71
8/10/2021 11:45:00 PM 17.54 63.572 0.089 7.07 1.45 8.71
8/11/2021 12:00:00 AM 17.51 63.518 0.091 7.03 0.71 8.71
8/11/2021 12:15:00 AM 17.48 63.464 0.091 7.07 0.73 8.72
8/11/2021 12:30:00 AM 17.45 63.41 0.091 7.08 0.71 8.73
8/11/2021 12:45:00 AM 17.42 63.356 0.092 7.09 0.7 8.73
8/11/2021 1:00:00 AM 17.39 63.302 0.088 7.06 1.67 8.74
8/11/2021 1:15:00 AM 17.36 63.248 0.092 7.09 0.67 8.74
8/11/2021 1:30:00 AM 17.33 63.194 0.092 7.09 0.62 8.75
8/11/2021 1:45:00 AM 17.3 63.14 0.092 7.08 0.69 8.75
8/11/2021 2:00:00 AM 17.27 63.086 0.09 7.05 1.33 8.76
8/11/2021 2:15:00 AM 17.24 63.032 0.092 7.07 0.73 8.76
8/11/2021 2:30:00 AM 17.21 62.978 0.092 7.07 0.63 8.77
8/11/2021 2:45:00 AM 17.18 62.924 0.086 7.04 1.35 8.78
8/11/2021 3:00:00 AM 17.15 62.87 0.092 7.07 0.69 8.78
8/11/2021 3:15:00 AM 17.13 62.834 0.087 7.04 1.28 8.79
8/11/2021 3:30:00 AM 17.1 62.78 0.092 7.06 0.69 8.8
8/11/2021 3:45:00 AM 17.07 62.726 0.092 7.06 0.71 8.8
8/11/2021 4:00:00 AM 17.04 62.672 0.09 7.03 1.5 8.8
8/11/2021 4:15:00 AM 17.01 62.618 0.087 7.02 1.4 8.81
8/11/2021 4:30:00 AM 16.98 62.564 0.087 7.02 1.44 8.82
8/11/2021 4:45:00 AM 16.96 62.528 0.093 7.04 0.64 8.82
8/11/2021 5:00:00 AM 16.94 62.492 0.089 7.01 1.4 8.82
8/11/2021 5:15:00 AM 16.91 62.438 0.09 7 1.37 8.83
8/11/2021 5:30:00 AM 16.89 62.402 0.093 7.03 0.76 8.84
8/11/2021 5:45:00 AM 16.86 62.348 0.093 6.97 0.7 8.84
8/11/2021 6:00:00 AM 16.84 62.312 0.093 7.03 0.75 8.85
8/11/2021 6:15:00 AM 16.82 62.276 0.093 7.03 0.72 8.86
8/11/2021 6:30:00 AM 16.8 62.24 0.09 7.01 1.44 8.87
8/11/2021 6:45:00 AM 16.78 62.204 0.092 7.04 0.7 8.9
8/11/2021 7:00:00 AM 16.77 62.186 0.087 7.02 1.5 8.95
8/11/2021 7:15:00 AM 16.76 62.168 0.092 7.06 0.78 9.02
8/11/2021 7:30:00 AM 16.75 62.15 0.092 7.08 0.72 9.08
8/11/2021 7:45:00 AM 16.75 62.15 0.092 7.09 0.79 9.14
8/11/2021 8:00:00 AM 16.75 62.15 0.092 7.11 0.8 9.18
8/11/2021 8:15:00 AM 16.75 62.15 0.09 7.1 2.1 9.24
8/11/2021 8:30:00 AM 16.78 62.204 0.092 7.17 0.8 9.39
8/11/2021 8:45:00 AM 16.8 62.24 0.092 7.21 0.78 9.49
8/11/2021 9:00:00 AM 16.82 62.276 0.091 7.23 0.92 9.56
8/11/2021 9:15:00 AM 16.87 62.366 0.091 7.28 0.8 9.66
8/11/2021 9:30:00 AM 16.92 62.456 0.091 7.32 0.89 9.76
8/11/2021 9:45:00 AM 16.98 62.564 0.091 7.4 0.79 9.89
8/11/2021 10:00:00 AM 17.05 62.69 0.091 7.44 0.8 9.93
8/11/2021 10:15:00 AM 17.1 62.78 0.09 7.47 0.78 9.96
8/11/2021 10:30:00 AM 17.16 62.888 0.09 7.49 0.85 9.97
8/11/2021 10:45:00 AM 17.21 62.978 0.09 7.49 0.8 9.93
8/11/2021 11:00:00 AM 17.29 63.122 0.09 7.55 0.86 10.02
8/11/2021 11:15:00 AM 17.33 63.194 0.084 7.52 1.44 10
8/11/2021 11:30:00 AM 17.42 63.356 0.084 7.58 1.54 10.07
8/11/2021 11:45:00 AM 17.46 63.428 0.09 7.59 0.83 10.01
8/11/2021 12:00:00 PM 17.46 63.428 0.09 7.54 0.87 9.91
8/11/2021 12:15:00 PM 17.49 63.482 0.088 7.51 1.51 9.87
8/11/2021 12:30:00 PM 17.57 63.626 0.09 7.6 0.82 9.98
8/11/2021 12:45:00 PM 17.63 63.734 0.088 7.59 1.59 9.98
8/11/2021 1:00:00 PM 17.68 63.824 0.09 7.63 0.81 9.98
8/11/2021 1:15:00 PM 17.72 63.896 0.085 7.61 1.6 9.98
8/11/2021 1:30:00 PM 17.86 64.148 0.09 7.71 0.81 10.05
8/11/2021 1:45:00 PM 17.96 64.328 0.089 7.75 0.89 10.08
8/11/2021 2:00:00 PM 18.16 64.688 0.089 7.83 0.84 10.1
8/11/2021 2:15:00 PM 18.27 64.886 0.089 7.83 0.82 10.07
8/11/2021 2:30:00 PM 18.32 64.976 0.083 7.75 1.69 9.99
8/11/2021 2:45:00 PM 18.43 65.174 0.089 7.77 0.78 9.91
8/11/2021 3:00:00 PM 18.55 65.39 0.089 7.76 0.86 9.84
8/11/2021 3:15:00 PM 18.7 65.66 0.089 7.76 0.83 9.78
8/11/2021 3:30:00 PM 18.83 65.894 0.085 7.72 1.52 9.74
8/11/2021 3:45:00 PM 18.98 66.164 0.089 7.73 0.81 9.67
8/11/2021 4:00:00 PM 19.15 66.47 0.089 7.72 0.82 9.6
8/11/2021 4:15:00 PM 19.25 66.65 0.087 7.67 1.42 9.56
8/11/2021 4:30:00 PM 19.37 66.866 0.085 7.65 1.44 9.51
8/11/2021 4:45:00 PM 19.44 66.992 0.088 7.66 0.83 9.45
8/11/2021 5:00:00 PM 19.46 67.028 0.089 7.57 0.83 9.28
8/11/2021 5:15:00 PM 19.46 67.028 0.089 7.5 0.82 9.18
8/11/2021 5:30:00 PM 19.47 67.046 0.089 7.43 0.82 9.16
8/11/2021 5:45:00 PM 19.48 67.064 0.089 7.47 0.8 9.16
8/11/2021 6:00:00 PM 19.45 67.01 0.089 7.45 0.83 9.14
8/11/2021 6:15:00 PM 19.4 66.92 0.089 7.41 0.79 9.06
8/11/2021 6:30:00 PM 19.35 66.83 0.089 7.39 0.82 9.03
8/11/2021 6:45:00 PM 19.32 66.776 0.083 7.36 1.51 9.05
8/11/2021 7:00:00 PM 19.28 66.704 0.089 7.34 0.76 8.95
8/11/2021 7:15:00 PM 19.22 66.596 0.089 7.28 0.71 8.83
8/11/2021 7:30:00 PM 19.16 66.488 0.09 7.24 0.75 8.72
8/11/2021 7:45:00 PM 19.1 66.38 0.09 7.21 0.75 8.64
8/11/2021 8:00:00 PM 19.05 66.29 0.084 7.15 1.37 8.57
8/11/2021 8:15:00 PM 18.99 66.182 0.085 7.12 1.48 8.53
8/11/2021 8:30:00 PM 18.93 66.074 0.091 7.14 0.8 8.5
8/11/2021 8:45:00 PM 18.87 65.966 0.086 7.1 1.47 8.48
8/11/2021 9:00:00 PM 18.81 65.858 0.091 7.12 0.78 8.47
8/11/2021 9:15:00 PM 18.75 65.75 0.091 7.1 0.77 8.46
8/11/2021 9:30:00 PM 18.69 65.642 0.091 7.11 0.75 8.47
8/11/2021 9:45:00 PM 18.64 65.552 0.091 7.1 0.68 8.47
8/11/2021 10:00:00 PM 18.58 65.444 0.091 7.1 0.8 8.47
8/11/2021 10:15:00 PM 18.52 65.336 0.092 7.09 0.69 8.48
8/11/2021 10:30:00 PM 18.46 65.228 0.092 7.08 0.71 8.49
8/11/2021 10:45:00 PM 18.41 65.138 0.092 7.09 0.71 8.49
8/11/2021 11:00:00 PM 18.35 65.03 0.092 7.09 0.73 8.5
8/11/2021 11:15:00 PM 18.29 64.922 0.092 7.08 0.66 8.51
8/11/2021 11:30:00 PM 18.24 64.832 0.092 7.09 0.65 8.52
8/11/2021 11:45:00 PM 18.18 64.724 0.092 7.08 0.66 8.53
8/12/2021 12:00:00 AM 18.13 64.634 0.092 7.07 0.71 8.55
8/12/2021 12:15:00 AM 18.08 64.544 0.09 7.05 1.41 8.55
8/12/2021 12:30:00 AM 18.03 64.454 0.092 7.07 0.72 8.56
8/12/2021 12:45:00 AM 17.98 64.364 0.092 7.07 0.67 8.58
8/12/2021 1:00:00 AM 17.93 64.274 0.093 7.07 0.67 8.59
8/12/2021 1:15:00 AM 17.88 64.184 0.093 7.07 0.62 8.6
8/12/2021 1:30:00 AM 17.82 64.076 0.093 7.07 0.7 8.62
8/12/2021 1:45:00 AM 17.77 63.986 0.093 7.06 0.87 8.62
8/12/2021 2:00:00 AM 17.71 63.878 0.093 7.07 0.95 8.63
8/12/2021 2:15:00 AM 17.65 63.77 0.093 7.06 0.88 8.65
8/12/2021 2:30:00 AM 17.6 63.68 0.093 7.06 0.67 8.66
8/12/2021 2:45:00 AM 17.54 63.572 0.093 7.07 0.66 8.67
8/12/2021 3:00:00 AM 17.48 63.464 0.093 7.06 0.72 8.68
8/12/2021 3:15:00 AM 17.43 63.374 0.093 7.06 0.7 8.69
8/12/2021 3:30:00 AM 17.37 63.266 0.093 7.05 0.66 8.7
8/12/2021 3:45:00 AM 17.32 63.176 0.093 7.06 0.65 8.72
8/12/2021 4:00:00 AM 17.26 63.068 0.093 7.06 0.63 8.73
8/12/2021 4:15:00 AM 17.22 62.996 0.093 7.06 1.51 8.73
8/12/2021 4:30:00 AM 17.18 62.924 0.091 7.03 1.49 8.74
8/12/2021 4:45:00 AM 17.13 62.834 0.093 7.05 0.6 8.76
8/12/2021 5:00:00 AM 17.08 62.744 0.088 7.03 1.32 8.77
8/12/2021 5:15:00 AM 17.03 62.654 0.093 7.04 0.65 8.78
8/12/2021 5:30:00 AM 16.99 62.582 0.091 7.03 1.44 8.79
8/12/2021 5:45:00 AM 16.94 62.492 0.094 7.06 0.67 8.8
8/12/2021 6:00:00 AM 16.91 62.438 0.094 7.06 0.76 8.81
8/12/2021 6:15:00 AM 16.89 62.402 0.094 7.06 0.77 8.82
8/12/2021 6:30:00 AM 16.85 62.33 0.094 7.06 0.74 8.85
8/12/2021 6:45:00 AM 16.82 62.276 0.091 7.05 1.44 8.9
8/12/2021 7:00:00 AM 16.81 62.258 0.094 7.09 0.77 8.95
8/12/2021 7:15:00 AM 16.79 62.222 0.094 7.09 0.79 9.01
8/12/2021 7:30:00 AM 16.79 62.222 0.092 7.09 1.5 9.07
8/12/2021 7:45:00 AM 16.78 62.204 0.087 7.11 1.77 9.16
8/12/2021 8:00:00 AM 16.79 62.222 0.093 7.15 0.88 9.25
8/12/2021 8:15:00 AM 16.8 62.24 0.093 7.18 1.1 9.36
8/12/2021 8:30:00 AM 16.82 62.276 0.093 7.2 1.14 9.44
8/12/2021 8:45:00 AM 16.86 62.348 0.093 7.23 1 9.52
8/12/2021 9:00:00 AM 16.92 62.456 0.093 7.29 0.85 9.64
8/12/2021 9:15:00 AM 16.98 62.564 0.092 7.34 0.81 9.74
8/12/2021 9:30:00 AM 17 62.6 0.092 7.34 0.83 9.74
8/12/2021 9:45:00 AM 17.03 62.654 0.092 7.36 0.75 9.75
8/12/2021 10:00:00 AM 17.05 62.69 0.092 7.37 0.86 9.78
8/12/2021 10:15:00 AM 17.09 62.762 0.087 7.37 1.54 9.78
8/12/2021 10:30:00 AM 17.23 63.014 0.092 7.47 0.8 9.93
8/12/2021 10:45:00 AM 17.32 63.176 0.092 7.48 0.81 9.87
8/12/2021 11:00:00 AM 17.36 63.248 0.091 7.39 1.04 9.62
8/12/2021 11:15:00 AM 17.35 63.23 0.091 7.37 0.95 9.62
8/12/2021 11:30:00 AM 17.48 63.464 0.086 7.44 1.57 9.83
8/12/2021 11:45:00 AM 17.61 63.698 0.088 7.5 1.64 9.94
8/12/2021 12:00:00 PM 17.72 63.896 0.085 7.53 1.68 9.96
8/12/2021 12:15:00 PM 17.79 64.022 0.09 7.57 0.86 9.95
8/12/2021 12:30:00 PM 17.81 64.058 0.086 7.49 1.66 9.82
8/12/2021 12:45:00 PM 17.79 64.022 0.09 7.42 1.28 9.52
8/12/2021 1:00:00 PM 17.77 63.986 0.089 7.31 1.66 9.31
8/12/2021 1:15:00 PM 17.77 63.986 0.089 7.26 1.56 9.16
8/12/2021 1:30:00 PM 17.76 63.968 0.091 7.26 0.93 9.09
8/12/2021 1:45:00 PM 17.74 63.932 0.091 7.24 0.91 9.07
8/12/2021 2:00:00 PM 17.71 63.878 0.091 7.23 0.89 9.08
8/12/2021 2:15:00 PM 17.68 63.824 0.091 7.24 0.89 9.16
8/12/2021 2:30:00 PM 17.82 64.076 0.091 7.36 0.89 9.47
8/12/2021 2:45:00 PM 17.97 64.346 0.091 7.42 0.88 9.69
8/12/2021 3:00:00 PM 18.05 64.49 0.085 7.49 1.42 9.77
8/12/2021 3:15:00 PM 18.13 64.634 0.09 7.55 0.89 9.79
8/12/2021 3:30:00 PM 18.23 64.814 0.09 7.55 0.85 9.71
8/12/2021 3:45:00 PM 18.33 64.994 0.09 7.52 0.79 9.6
8/12/2021 4:00:00 PM 18.43 65.174 0.09 7.48 0.84 9.48
8/12/2021 4:15:00 PM 18.55 65.39 0.09 7.47 0.82 9.4
8/12/2021 4:30:00 PM 18.68 65.624 0.09 7.44 0.82 9.33
8/12/2021 4:45:00 PM 18.77 65.786 0.084 7.32 1.65 9.13
8/12/2021 5:00:00 PM 18.84 65.912 0.09 7.33 0.9 9.16
8/12/2021 5:15:00 PM 18.86 65.948 0.09 7.38 0.87 9.21
8/12/2021 5:30:00 PM 18.84 65.912 0.09 7.36 0.93 9.19
8/12/2021 5:45:00 PM 18.8 65.84 0.09 7.33 0.9 9.12
8/12/2021 6:00:00 PM 18.76 65.768 0.09 7.33 0.91 9.14
8/12/2021 6:15:00 PM 18.74 65.732 0.084 7.29 1.58 9.11
8/12/2021 6:30:00 PM 18.7 65.66 0.09 7.27 0.84 9.02
8/12/2021 6:45:00 PM 18.67 65.606 0.09 7.25 0.87 8.98
8/12/2021 7:00:00 PM 18.63 65.534 0.09 7.2 1.08 8.87
8/12/2021 7:15:00 PM 18.59 65.462 0.091 7.17 0.9 8.77
8/12/2021 7:30:00 PM 18.54 65.372 0.087 7.1 1.54 8.71
8/12/2021 7:45:00 PM 18.49 65.282 0.091 7.11 0.83 8.66
8/12/2021 8:00:00 PM 18.44 65.192 0.091 7.08 0.82 8.62
8/12/2021 8:15:00 PM 18.38 65.084 0.086 7.04 1.85 8.6
8/12/2021 8:30:00 PM 18.34 65.012 0.092 7.06 0.92 8.58
8/12/2021 8:45:00 PM 18.3 64.94 0.092 7.06 0.87 8.57
8/12/2021 9:00:00 PM 18.27 64.886 0.092 7.05 0.96 8.57
8/12/2021 9:15:00 PM 18.25 64.85 0.092 7.05 0.89 8.57
8/12/2021 9:30:00 PM 18.22 64.796 0.09 7.01 1.65 8.56
8/12/2021 9:45:00 PM 18.18 64.724 0.092 7.03 0.83 8.56
8/12/2021 10:00:00 PM 18.15 64.67 0.092 7.02 0.88 8.56
8/12/2021 10:15:00 PM 18.11 64.598 0.092 7.02 0.81 8.56
8/12/2021 10:30:00 PM 18.09 64.562 0.092 7.01 0.75 8.56
8/12/2021 10:45:00 PM 18.06 64.508 0.092 7.02 0.76 8.57
8/12/2021 11:00:00 PM 18.02 64.436 0.09 6.99 1.46 8.57
8/12/2021 11:15:00 PM 17.99 64.382 0.092 7.01 0.74 8.58
8/12/2021 11:30:00 PM 17.95 64.31 0.092 7.01 0.72 8.59
8/12/2021 11:45:00 PM 17.91 64.238 0.092 7 0.72 8.6
8/13/2021 12:00:00 AM 17.87 64.166 0.092 7.02 0.92 8.62
8/13/2021 12:15:00 AM 17.82 64.076 0.091 7.01 1.42 8.63
8/13/2021 12:30:00 AM 17.78 64.004 0.093 7.03 0.69 8.65
8/13/2021 12:45:00 AM 17.73 63.914 0.093 7.04 0.8 8.66
8/13/2021 1:00:00 AM 17.68 63.824 0.091 7.02 1.89 8.67
8/13/2021 1:15:00 AM 17.64 63.752 0.093 7.05 0.73 8.67
8/13/2021 1:30:00 AM 17.59 63.662 0.093 7.05 0.75 8.69
8/13/2021 1:45:00 AM 17.55 63.59 0.093 7.05 0.73 8.7
8/13/2021 2:00:00 AM 17.5 63.5 0.093 7.05 0.74 8.71
8/13/2021 2:15:00 AM 17.46 63.428 0.087 7.03 1.44 8.71
8/13/2021 2:30:00 AM 17.41 63.338 0.087 7.03 1.49 8.72
8/13/2021 2:45:00 AM 17.37 63.266 0.093 7.03 0.68 8.73
8/13/2021 3:00:00 AM 17.34 63.212 0.093 7.06 0.68 8.73
8/13/2021 3:15:00 AM 17.3 63.14 0.093 7.06 0.79 8.75
8/13/2021 3:30:00 AM 17.26 63.068 0.093 7.05 0.72 8.75
8/13/2021 3:45:00 AM 17.22 62.996 0.093 7.06 0.78 8.76
8/13/2021 4:00:00 AM 17.18 62.924 0.089 7.04 1.43 8.77
8/13/2021 4:15:00 AM 17.15 62.87 0.089 7.03 1.41 8.78
8/13/2021 4:30:00 AM 17.12 62.816 0.093 7.07 0.7 8.78
8/13/2021 4:45:00 AM 17.08 62.744 0.088 7.04 1.52 8.8
8/13/2021 5:00:00 AM 17.05 62.69 0.087 7.04 1.39 8.8
8/13/2021 5:15:00 AM 17.01 62.618 0.093 7.07 0.83 8.81
8/13/2021 5:30:00 AM 16.98 62.564 0.093 7.06 0.76 8.82
8/13/2021 5:45:00 AM 16.95 62.51 0.087 7.05 1.47 8.83
8/13/2021 6:00:00 AM 16.91 62.438 0.093 7.08 0.72 8.84
8/13/2021 6:15:00 AM 16.88 62.384 0.093 7.08 0.85 8.85
8/13/2021 6:30:00 AM 16.85 62.33 0.093 7.07 0.96 8.87
8/13/2021 6:45:00 AM 16.82 62.276 0.093 7.08 0.95 8.9
8/13/2021 7:00:00 AM 16.79 62.222 0.087 7.07 1.69 8.94
8/13/2021 7:15:00 AM 16.76 62.168 0.093 7.1 1.03 8.99
8/13/2021 7:30:00 AM 16.74 62.132 0.089 7.09 1.8 9.07
8/13/2021 7:45:00 AM 16.74 62.132 0.093 7.14 0.89 9.18
8/13/2021 8:00:00 AM 16.73 62.114 0.091 7.14 1.61 9.25
8/13/2021 8:15:00 AM 16.73 62.114 0.093 7.18 0.9 9.31
8/13/2021 8:30:00 AM 16.77 62.186 0.093 7.23 0.84 9.48
8/13/2021 8:45:00 AM 16.82 62.276 0.087 7.24 1.8 9.57
8/13/2021 9:00:00 AM 16.82 62.276 0.092 7.27 0.84 9.56
8/13/2021 9:15:00 AM 16.82 62.276 0.087 7.23 1.75 9.59
8/13/2021 9:30:00 AM 16.83 62.294 0.092 7.29 0.84 9.63
8/13/2021 9:45:00 AM 16.9 62.42 0.092 7.33 0.79 9.72
8/13/2021 10:00:00 AM 17.03 62.654 0.086 7.36 1.44 9.85
8/13/2021 10:15:00 AM 17.11 62.798 0.092 7.42 0.8 9.9
8/13/2021 10:30:00 AM 17.3 63.14 0.087 7.43 1.48 9.93
8/13/2021 10:45:00 AM 17.47 63.446 0.091 7.48 0.78 9.93
8/13/2021 11:00:00 AM 17.69 63.842 0.091 7.52 0.82 9.93
8/13/2021 11:15:00 AM 17.88 64.184 0.091 7.53 0.75 9.95
8/13/2021 11:30:00 AM 17.99 64.382 0.086 7.51 1.46 9.93
8/13/2021 11:45:00 AM 18.1 64.58 0.089 7.52 1.51 9.93
8/13/2021 12:00:00 PM 18.31 64.958 0.091 7.61 0.84 9.91
8/13/2021 12:15:00 PM 18.47 65.246 0.091 7.62 0.8 9.88
8/13/2021 12:30:00 PM 18.6 65.48 0.091 7.61 0.79 9.86
8/13/2021 12:45:00 PM 18.43 65.174 0.091 7.52 0.81 9.72
8/13/2021 1:00:00 PM 18.6 65.48 0.087 7.56 1.48 9.79
8/13/2021 1:15:00 PM 18.53 65.354 0.089 7.46 1.45 9.57
8/13/2021 1:30:00 PM 18.56 65.408 0.091 7.47 0.83 9.52
8/13/2021 1:45:00 PM 18.65 65.57 0.088 7.45 1.51 9.51
8/13/2021 2:00:00 PM 18.76 65.768 0.09 7.51 0.74 9.55
8/13/2021 2:15:00 PM 18.94 66.092 0.09 7.59 0.78 9.65
8/13/2021 2:30:00 PM 19 66.2 0.09 7.57 0.84 9.6
8/13/2021 2:45:00 PM 19.04 66.272 0.09 7.56 0.85 9.58
8/13/2021 3:00:00 PM 19.1 66.38 0.084 7.5 1.59 9.45
8/13/2021 3:15:00 PM 19.06 66.308 0.09 7.44 0.89 9.25
8/13/2021 3:30:00 PM 19.04 66.272 0.09 7.41 0.84 9.18
8/13/2021 3:45:00 PM 19.03 66.254 0.091 7.38 0.81 9.08
8/13/2021 4:00:00 PM 19 66.2 0.09 7.27 1.01 8.9
8/13/2021 4:15:00 PM 18.97 66.146 0.083 7.25 1.93 8.89
8/13/2021 4:30:00 PM 18.97 66.146 0.083 7.29 2.09 9.08
8/13/2021 4:45:00 PM 18.97 66.146 0.089 7.37 1.17 9.22
8/13/2021 5:00:00 PM 18.92 66.056 0.085 7.35 1.78 9.25
8/13/2021 5:15:00 PM 18.88 65.984 0.089 7.36 1.13 9.21
8/13/2021 5:30:00 PM 18.88 65.984 0.088 7.35 2.22 9.15
8/13/2021 5:45:00 PM 18.93 66.074 0.085 7.29 3 9.09
8/13/2021 6:00:00 PM 18.69 65.642 0.086 7.09 61.74 9
8/13/2021 6:15:00 PM 18.73 65.714 0.093 7.11 49.98 8.87
8/13/2021 6:30:00 PM 19.01 66.218 0.085 7.09 56.75 8.76
8/13/2021 6:45:00 PM 19.16 66.488 0.079 7.03 63.85 8.71
8/13/2021 7:00:00 PM 19.21 66.578 0.076 7.02 66.23 8.68
8/13/2021 7:15:00 PM 19.21 66.578 0.075 7 57.6 8.67
8/13/2021 7:30:00 PM 19.18 66.524 0.069 6.95 45.16 8.66
8/13/2021 7:45:00 PM 19.14 66.452 0.072 6.96 41.24 8.65
8/13/2021 8:00:00 PM 19.09 66.362 0.072 6.95 35.21 8.64
8/13/2021 8:15:00 PM 19.03 66.254 0.071 6.93 31.35 8.64
8/13/2021 8:30:00 PM 18.97 66.146 0.071 6.91 28.73 8.64
8/13/2021 8:45:00 PM 18.9 66.02 0.07 6.89 27.8 8.64
8/13/2021 9:00:00 PM 18.84 65.912 0.069 6.86 25.92 8.64
8/13/2021 9:15:00 PM 18.78 65.804 0.072 6.85 25.77 8.65
8/13/2021 9:30:00 PM 18.72 65.696 0.073 6.88 26.89 8.66
8/13/2021 9:45:00 PM 18.67 65.606 0.073 6.89 27.3 8.66
8/13/2021 10:00:00 PM 18.61 65.498 0.074 6.89 27.03 8.67
8/13/2021 10:15:00 PM 18.56 65.408 0.075 6.89 27.15 8.68
8/13/2021 10:30:00 PM 18.5 65.3 0.075 6.89 26.87 8.67
8/13/2021 10:45:00 PM 18.46 65.228 0.076 6.89 26.65 8.68
8/13/2021 11:00:00 PM 18.41 65.138 0.077 6.91 25.06 8.68
8/13/2021 11:15:00 PM 18.37 65.066 0.074 6.89 22.98 8.68
8/13/2021 11:30:00 PM 18.33 64.994 0.077 6.91 21.93 8.69
8/13/2021 11:45:00 PM 18.3 64.94 0.079 6.97 21.51 8.71
8/14/2021 12:00:00 AM 18.26 64.868 0.079 6.98 19.84 8.71
8/14/2021 12:15:00 AM 18.23 64.814 0.08 7 19.71 8.72
8/14/2021 12:30:00 AM 18.19 64.742 0.08 7.01 18.08 8.73
8/14/2021 12:45:00 AM 18.15 64.67 0.077 7 16.32 8.73
8/14/2021 1:00:00 AM 18.11 64.598 0.081 7.03 15.67 8.74
8/14/2021 1:15:00 AM 18.06 64.508 0.082 7.01 14.26 8.75
8/14/2021 1:30:00 AM 18.02 64.436 0.082 7.04 13.34 8.76
8/14/2021 1:45:00 AM 17.98 64.364 0.082 7.04 12.47 8.77
8/14/2021 2:00:00 AM 17.93 64.274 0.083 7.05 11.64 8.78
8/14/2021 2:15:00 AM 17.89 64.202 0.083 7.04 10.75 8.8
8/14/2021 2:30:00 AM 17.84 64.112 0.083 7.04 10.19 8.8
8/14/2021 2:45:00 AM 17.8 64.04 0.083 7.05 9.43 8.82
8/14/2021 3:00:00 AM 17.76 63.968 0.079 7.03 8.97 8.83
8/14/2021 3:15:00 AM 17.71 63.878 0.084 7.04 8.36 8.84
8/14/2021 3:30:00 AM 17.67 63.806 0.084 7.04 7.78 8.85
8/14/2021 3:45:00 AM 17.63 63.734 0.08 7 7.67 8.86
8/14/2021 4:00:00 AM 17.6 63.68 0.085 7.04 6.65 8.87
8/14/2021 4:15:00 AM 17.56 63.608 0.085 7.02 6.22 8.88
8/14/2021 4:30:00 AM 17.53 63.554 0.085 7.03 6.26 8.88
8/14/2021 4:45:00 AM 17.5 63.5 0.081 7.01 6.34 8.88
8/14/2021 5:00:00 AM 17.47 63.446 0.086 7.04 5.47 8.89
8/14/2021 5:15:00 AM 17.45 63.41 0.086 7.04 4.96 8.89
8/14/2021 5:30:00 AM 17.43 63.374 0.086 7.03 4.95 8.89
8/14/2021 5:45:00 AM 17.41 63.338 0.081 7.01 5.41 8.9
8/14/2021 6:00:00 AM 17.38 63.284 0.082 7.01 5.2 8.9
8/14/2021 6:15:00 AM 17.36 63.248 0.087 7.03 4.32 8.9
8/14/2021 6:30:00 AM 17.34 63.212 0.087 7.04 4.21 8.91
8/14/2021 6:45:00 AM 17.32 63.176 0.087 7.04 4.12 8.93
8/14/2021 7:00:00 AM 17.3 63.14 0.083 7.02 4.61 8.95
8/14/2021 7:15:00 AM 17.29 63.122 0.088 7.04 3.77 8.98
8/14/2021 7:30:00 AM 17.27 63.086 0.088 7.04 3.69 8.97
8/14/2021 7:45:00 AM 17.25 63.05 0.083 7.05 4.49 8.98
8/14/2021 8:00:00 AM 17.22 62.996 0.088 7.1 3.63 9.01
8/14/2021 8:15:00 AM 17.16 62.888 0.088 7.12 3.53 9.03
8/14/2021 8:30:00 AM 17.11 62.798 0.088 7.11 3.65 9.04
8/14/2021 8:45:00 AM 17.08 62.744 0.088 7.12 3.25 9.09
8/14/2021 9:00:00 AM 17.06 62.708 0.083 7.12 4.09 9.13
8/14/2021 9:15:00 AM 17.03 62.654 0.088 7.14 3.04 9.15
8/14/2021 9:30:00 AM 17.01 62.618 0.088 7.16 2.93 9.17
8/14/2021 9:45:00 AM 17 62.6 0.088 7.18 2.79 9.24
8/14/2021 10:00:00 AM 16.98 62.564 0.088 7.2 2.69 9.25
8/14/2021 10:15:00 AM 17.02 62.636 0.088 7.24 2.75 9.38
8/14/2021 10:30:00 AM 17.05 62.69 0.088 7.27 2.63 9.45
8/14/2021 10:45:00 AM 17.07 62.726 0.088 7.3 2.52 9.49
8/14/2021 11:00:00 AM 17.12 62.816 0.088 7.29 2.52 9.53
8/14/2021 11:15:00 AM 17.17 62.906 0.083 7.32 3.09 9.57
8/14/2021 11:30:00 AM 17.32 63.176 0.088 7.38 2.37 9.64
8/14/2021 11:45:00 AM 17.47 63.446 0.083 7.38 3.09 9.66
8/14/2021 12:00:00 PM 17.6 63.68 0.088 7.43 2.34 9.65
8/14/2021 12:15:00 PM 17.75 63.95 0.088 7.4 2.13 9.62
8/14/2021 12:30:00 PM 17.86 64.148 0.088 7.43 2.17 9.59
8/14/2021 12:45:00 PM 17.98 64.364 0.086 7.41 2.85 9.55
8/14/2021 1:00:00 PM 18.06 64.508 0.083 7.38 2.81 9.5
8/14/2021 1:15:00 PM 18.21 64.778 0.088 7.44 2.23 9.48
8/14/2021 1:30:00 PM 18.32 64.976 0.088 7.42 2.03 9.42
8/14/2021 1:45:00 PM 18.43 65.174 0.088 7.41 1.97 9.36
8/14/2021 2:00:00 PM 18.52 65.336 0.086 7.37 2.8 9.31
8/14/2021 2:15:00 PM 18.63 65.534 0.088 7.4 1.93 9.26
8/14/2021 2:30:00 PM 18.7 65.66 0.084 7.35 2.72 9.22
8/14/2021 2:45:00 PM 18.77 65.786 0.088 7.37 1.88 9.18
8/14/2021 3:00:00 PM 18.84 65.912 0.089 7.37 1.9 9.13
8/14/2021 3:15:00 PM 18.88 65.984 0.089 7.35 1.9 9.1
8/14/2021 3:30:00 PM 18.91 66.038 0.089 7.34 2.09 9.07
8/14/2021 3:45:00 PM 18.95 66.11 0.089 7.33 1.99 9.05
8/14/2021 4:00:00 PM 18.98 66.164 0.087 7.29 2.62 9
8/14/2021 4:15:00 PM 19 66.2 0.089 7.31 1.75 8.97
8/14/2021 4:30:00 PM 19.02 66.236 0.089 7.29 1.74 8.93
8/14/2021 4:45:00 PM 18.98 66.164 0.089 7.28 1.92 8.91
8/14/2021 5:00:00 PM 18.96 66.128 0.084 7.24 2.64 8.89
8/14/2021 5:15:00 PM 18.95 66.11 0.089 7.27 1.71 8.9
8/14/2021 5:30:00 PM 18.96 66.128 0.089 7.26 4.15 8.85
8/14/2021 5:45:00 PM 18.95 66.11 0.09 7.23 3.56 8.82
8/14/2021 6:00:00 PM 18.94 66.092 0.085 7.21 3.1 8.82
8/14/2021 6:15:00 PM 18.9 66.02 0.09 7.23 1.91 8.8
8/14/2021 6:30:00 PM 18.87 65.966 0.09 7.23 1.78 8.79
8/14/2021 6:45:00 PM 18.82 65.876 0.09 7.21 1.9 8.78
8/14/2021 7:00:00 PM 18.77 65.786 0.09 7.2 1.79 8.76
8/14/2021 7:15:00 PM 18.72 65.696 0.09 7.18 1.82 8.75
8/14/2021 7:30:00 PM 18.64 65.552 0.085 7.16 2.51 8.73
8/14/2021 7:45:00 PM 18.56 65.408 0.09 7.17 1.77 8.72
8/14/2021 8:00:00 PM 18.47 65.246 0.091 7.15 1.73 8.7
8/14/2021 8:15:00 PM 18.38 65.084 0.091 7.14 1.71 8.69
8/14/2021 8:30:00 PM 18.28 64.904 0.091 7.13 1.8 8.7
8/14/2021 8:45:00 PM 18.2 64.76 0.091 7.12 1.68 8.69
8/14/2021 9:00:00 PM 18.11 64.598 0.091 7.12 1.54 8.7
8/14/2021 9:15:00 PM 18.02 64.436 0.091 7.11 1.66 8.72
8/14/2021 9:30:00 PM 17.93 64.274 0.091 7.11 1.72 8.74
8/14/2021 9:45:00 PM 17.84 64.112 0.085 7.08 2.79 8.76
8/14/2021 10:00:00 PM 17.75 63.95 0.091 7.1 1.72 8.78
8/14/2021 10:15:00 PM 17.65 63.77 0.092 7.1 1.53 8.79
8/14/2021 10:30:00 PM 17.56 63.608 0.092 7.09 1.55 8.81
8/14/2021 10:45:00 PM 17.46 63.428 0.092 7.1 1.43 8.84
8/14/2021 11:00:00 PM 17.36 63.248 0.092 7.1 1.37 8.86
8/14/2021 11:15:00 PM 17.26 63.068 0.092 7.1 1.37 8.88
8/14/2021 11:30:00 PM 17.16 62.888 0.092 7.1 1.38 8.9
8/14/2021 11:45:00 PM 17.06 62.708 0.092 7.04 1.34 8.92
8/15/2021 12:00:00 AM 16.96 62.528 0.092 7.09 1.35 8.95
8/15/2021 12:15:00 AM 16.87 62.366 0.092 7.1 1.24 8.96
8/15/2021 12:30:00 AM 16.78 62.204 0.092 7.1 1.3 8.98
8/15/2021 12:45:00 AM 16.69 62.042 0.092 7.1 1.29 9.01
8/15/2021 1:00:00 AM 16.59 61.862 0.092 7.09 1.27 9.02
8/15/2021 1:15:00 AM 16.5 61.7 0.088 7.07 2.28 9.04
8/15/2021 1:30:00 AM 16.41 61.538 0.093 7.09 1.32 9.06
8/15/2021 1:45:00 AM 16.32 61.376 0.09 7.07 2.1 9.07
8/15/2021 2:00:00 AM 16.22 61.196 0.093 7.1 1.27 9.1
8/15/2021 2:15:00 AM 16.13 61.034 0.093 7.07 1.2 9.12
8/15/2021 2:30:00 AM 16.04 60.872 0.093 7.1 1.19 9.14
8/15/2021 2:45:00 AM 15.95 60.71 0.091 7.06 2.24 9.16
8/15/2021 3:00:00 AM 15.86 60.548 0.093 7.1 1.2 9.19
8/15/2021 3:15:00 AM 15.77 60.386 0.093 7.09 1.18 9.21
8/15/2021 3:30:00 AM 15.68 60.224 0.093 7.09 1.16 9.23
8/15/2021 3:45:00 AM 15.6 60.08 0.091 7.07 2.13 9.25
8/15/2021 4:00:00 AM 15.51 59.918 0.087 7.07 2.07 9.26
8/15/2021 4:15:00 AM 15.43 59.774 0.093 7.09 1.11 9.28
8/15/2021 4:30:00 AM 15.35 59.63 0.093 7.09 1.14 9.3
8/15/2021 4:45:00 AM 15.27 59.486 0.093 7.1 1.19 9.32
8/15/2021 5:00:00 AM 15.19 59.342 0.093 7.1 1.11 9.34
8/15/2021 5:15:00 AM 15.12 59.216 0.093 7.1 1.13 9.36
8/15/2021 5:30:00 AM 15.06 59.108 0.093 7.1 1.09 9.38
8/15/2021 5:45:00 AM 14.99 58.982 0.093 7.1 1.19 9.4
8/15/2021 6:00:00 AM 14.92 58.856 0.093 7.1 1.14 9.41
8/15/2021 6:15:00 AM 14.86 58.748 0.088 7.08 2.08 9.43
8/15/2021 6:30:00 AM 14.79 58.622 0.088 7.08 2.16 9.46
8/15/2021 6:45:00 AM 14.73 58.514 0.093 7.11 1.25 9.51
8/15/2021 7:00:00 AM 14.67 58.406 0.093 7.13 1.2 9.56
8/15/2021 7:15:00 AM 14.61 58.298 0.093 7.14 1.19 9.62
8/15/2021 7:30:00 AM 14.57 58.226 0.093 7.16 1.19 9.69
8/15/2021 7:45:00 AM 14.55 58.19 0.087 7.15 2.23 9.76
8/15/2021 8:00:00 AM 14.52 58.136 0.093 7.17 1.31 9.82
8/15/2021 8:15:00 AM 14.5 58.1 0.088 7.17 2.02 9.84
8/15/2021 8:30:00 AM 14.5 58.1 0.091 7.18 2.14 9.86
8/15/2021 8:45:00 AM 14.52 58.136 0.093 7.24 1.19 9.9
8/15/2021 9:00:00 AM 14.54 58.172 0.093 7.25 1.16 9.95
8/15/2021 9:15:00 AM 14.56 58.208 0.088 7.24 1.97 9.99
8/15/2021 9:30:00 AM 14.58 58.244 0.093 7.28 1.04 10.04
8/15/2021 9:45:00 AM 14.65 58.37 0.093 7.31 1.04 10.09
8/15/2021 10:00:00 AM 14.71 58.478 0.093 7.34 0.99 10.14
8/15/2021 10:15:00 AM 14.8 58.64 0.093 7.37 1.09 10.18
8/15/2021 10:30:00 AM 14.91 58.838 0.093 7.38 0.97 10.21
8/15/2021 10:45:00 AM 15.03 59.054 0.093 7.41 0.98 10.21
8/15/2021 11:00:00 AM 15.21 59.378 0.092 7.44 1 10.21
8/15/2021 11:15:00 AM 15.32 59.576 0.092 7.44 1.01 10.2
8/15/2021 11:30:00 AM 15.43 59.774 0.092 7.45 1.01 10.19
8/15/2021 11:45:00 AM 15.52 59.936 0.092 7.45 1.05 10.17
8/15/2021 12:00:00 PM 15.65 60.17 0.092 7.48 1.02 10.16
8/15/2021 12:15:00 PM 15.87 60.566 0.092 7.5 0.98 10.14
8/15/2021 12:30:00 PM 16.03 60.854 0.086 7.46 1.9 10.12
8/15/2021 12:45:00 PM 16.15 61.07 0.092 7.51 1 10.11
8/15/2021 1:00:00 PM 16.39 61.502 0.092 7.53 0.99 10.06
8/15/2021 1:15:00 PM 16.54 61.772 0.092 7.52 0.98 10.02
8/15/2021 1:30:00 PM 16.66 61.988 0.092 7.51 1.01 9.98
8/15/2021 1:45:00 PM 16.82 62.276 0.092 7.52 1 9.93
8/15/2021 2:00:00 PM 16.92 62.456 0.092 7.52 1.04 9.88
8/15/2021 2:15:00 PM 17.03 62.654 0.092 7.49 1.05 9.85
8/15/2021 2:30:00 PM 17.1 62.78 0.088 7.48 2.05 9.8
8/15/2021 2:45:00 PM 17.15 62.87 0.089 7.45 1.99 9.73
8/15/2021 3:00:00 PM 17.21 62.978 0.085 7.43 2.09 9.69
8/15/2021 3:15:00 PM 17.28 63.104 0.086 7.41 2.16 9.64
8/15/2021 3:30:00 PM 17.32 63.176 0.092 7.44 1.13 9.63
8/15/2021 3:45:00 PM 17.37 63.266 0.092 7.44 1.09 9.62
8/15/2021 4:00:00 PM 17.38 63.284 0.086 7.38 2.01 9.57
8/15/2021 4:15:00 PM 17.43 63.374 0.092 7.42 1 9.55
8/15/2021 4:30:00 PM 17.48 63.464 0.086 7.37 2.04 9.53
8/15/2021 4:45:00 PM 17.52 63.536 0.092 7.39 1.07 9.49
8/15/2021 5:00:00 PM 17.53 63.554 0.087 7.34 1.91 9.44
8/15/2021 5:15:00 PM 17.5 63.5 0.092 7.35 1.09 9.38
8/15/2021 5:30:00 PM 17.48 63.464 0.092 7.33 1.09 9.37
8/15/2021 5:45:00 PM 17.47 63.446 0.092 7.32 1.08 9.34
8/15/2021 6:00:00 PM 17.45 63.41 0.087 7.27 2.3 9.31
8/15/2021 6:15:00 PM 17.42 63.356 0.092 7.29 1.03 9.27
8/15/2021 6:30:00 PM 17.39 63.302 0.092 7.28 1.11 9.24
8/15/2021 6:45:00 PM 17.38 63.284 0.092 7.27 1.04 9.25
8/15/2021 7:00:00 PM 17.35 63.23 0.087 7.23 2.02 9.21
8/15/2021 7:15:00 PM 17.33 63.194 0.092 7.25 1.17 9.19
8/15/2021 7:30:00 PM 17.29 63.122 0.093 7.24 1.21 9.15
8/15/2021 7:45:00 PM 17.25 63.05 0.093 7.22 1.3 9.09
8/15/2021 8:00:00 PM 17.19 62.942 0.093 7.19 1.25 9.04
8/15/2021 8:15:00 PM 17.13 62.834 0.093 7.18 1.25 9
8/15/2021 8:30:00 PM 17.06 62.708 0.093 7.17 1.17 8.98
8/15/2021 8:45:00 PM 16.99 62.582 0.088 7.13 1.96 8.96
8/15/2021 9:00:00 PM 16.92 62.456 0.093 7.15 1.04 8.96
8/15/2021 9:15:00 PM 16.85 62.33 0.088 7.12 2 8.96
8/15/2021 9:30:00 PM 16.79 62.222 0.094 7.13 1.11 8.97
8/15/2021 9:45:00 PM 16.73 62.114 0.094 7.14 1.02 8.97
8/15/2021 10:00:00 PM 16.67 62.006 0.094 7.13 1.04 8.99
8/15/2021 10:15:00 PM 16.61 61.898 0.09 7.1 1.88 9
8/15/2021 10:30:00 PM 16.55 61.79 0.092 7.11 1.89 9.01
8/15/2021 10:45:00 PM 16.5 61.7 0.092 7.11 2 9.01
8/15/2021 11:00:00 PM 16.44 61.592 0.089 7.1 1.86 9.02
8/15/2021 11:15:00 PM 16.38 61.484 0.094 7.11 0.94 9.03
8/15/2021 11:30:00 PM 16.32 61.376 0.09 7.09 1.97 9.05
8/15/2021 11:45:00 PM 16.26 61.268 0.094 7.11 0.92 9.06
8/16/2021 12:00:00 AM 16.2 61.16 0.094 7.1 0.91 9.07
8/16/2021 12:15:00 AM 16.13 61.034 0.094 7.11 1.06 9.09
8/16/2021 12:30:00 AM 16.06 60.908 0.094 7.1 0.94 9.1
8/16/2021 12:45:00 AM 16 60.8 0.095 7.12 1.05 9.12
8/16/2021 1:00:00 AM 15.93 60.674 0.095 7.1 1.28 9.13
8/16/2021 1:15:00 AM 15.86 60.548 0.095 7.11 1.1 9.15
8/16/2021 1:30:00 AM 15.79 60.422 0.09 7.08 1.89 9.16
8/16/2021 1:45:00 AM 15.72 60.296 0.095 7.1 0.93 9.18
8/16/2021 2:00:00 AM 15.65 60.17 0.095 7.1 0.85 9.2
8/16/2021 2:15:00 AM 15.58 60.044 0.095 7.1 0.86 9.21
8/16/2021 2:30:00 AM 15.51 59.918 0.095 7.11 0.95 9.23
8/16/2021 2:45:00 AM 15.45 59.81 0.093 7.08 2.1 9.24
8/16/2021 3:00:00 AM 15.38 59.684 0.095 7.1 1.18 9.26
8/16/2021 3:15:00 AM 15.32 59.576 0.09 7.08 1.97 9.28
8/16/2021 3:30:00 AM 15.27 59.486 0.095 7.1 0.89 9.29
8/16/2021 3:45:00 AM 15.22 59.396 0.093 7.08 1.85 9.3
8/16/2021 4:00:00 AM 15.16 59.288 0.095 7.11 0.85 9.31
8/16/2021 4:15:00 AM 15.11 59.198 0.095 7.1 0.91 9.33
8/16/2021 4:30:00 AM 15.06 59.108 0.093 7.09 1.79 9.34
8/16/2021 4:45:00 AM 15.02 59.036 0.089 7.08 1.88 9.35
8/16/2021 5:00:00 AM 14.98 58.964 0.095 7.11 0.81 9.36
8/16/2021 5:15:00 AM 14.93 58.874 0.095 7.11 0.89 9.37
8/16/2021 5:30:00 AM 14.9 58.82 0.095 7.12 0.86 9.38
8/16/2021 5:45:00 AM 14.86 58.748 0.095 7.12 0.87 9.39
8/16/2021 6:00:00 AM 14.83 58.694 0.095 7.06 0.87 9.4
8/16/2021 6:15:00 AM 14.8 58.64 0.095 7.12 0.88 9.41
8/16/2021 6:30:00 AM 14.77 58.586 0.095 7.12 0.91 9.43
8/16/2021 6:45:00 AM 14.74 58.532 0.095 7.13 0.93 9.45
8/16/2021 7:00:00 AM 14.72 58.496 0.095 7.13 0.94 9.46
8/16/2021 7:15:00 AM 14.7 58.46 0.095 7.13 0.94 9.48
8/16/2021 7:30:00 AM 14.68 58.424 0.095 7.14 0.94 9.52
8/16/2021 7:45:00 AM 14.67 58.406 0.093 7.13 1.8 9.56
8/16/2021 8:00:00 AM 14.66 58.388 0.095 7.16 0.82 9.59
8/16/2021 8:15:00 AM 14.66 58.388 0.095 7.17 0.88 9.64
8/16/2021 8:30:00 AM 14.67 58.406 0.095 7.19 0.8 9.7
8/16/2021 8:45:00 AM 14.68 58.424 0.095 7.2 0.81 9.75
8/16/2021 9:00:00 AM 14.69 58.442 0.095 7.21 0.79 9.78
8/16/2021 9:15:00 AM 14.71 58.478 0.093 7.2 1.9 9.83
8/16/2021 9:30:00 AM 14.74 58.532 0.095 7.22 0.86 9.88
8/16/2021 9:45:00 AM 14.78 58.604 0.092 7.25 1.75 9.94
8/16/2021 10:00:00 AM 14.84 58.712 0.094 7.29 0.86 10
8/16/2021 10:15:00 AM 14.9 58.82 0.094 7.31 0.84 10.04
8/16/2021 10:30:00 AM 14.97 58.946 0.094 7.34 0.83 10.1
8/16/2021 10:45:00 AM 15.05 59.09 0.09 7.34 1.81 10.13
8/16/2021 11:00:00 AM 15.14 59.252 0.094 7.4 0.92 10.16
8/16/2021 11:15:00 AM 15.23 59.414 0.094 7.41 0.88 10.17
8/16/2021 11:30:00 AM 15.31 59.558 0.092 7.39 1.71 10.17
8/16/2021 11:45:00 AM 15.43 59.774 0.094 7.46 0.87 10.19
8/16/2021 12:00:00 PM 15.5 59.9 0.093 7.46 0.85 10.18
8/16/2021 12:15:00 PM 15.52 59.936 0.093 7.42 0.85 10.07
8/16/2021 12:30:00 PM 15.53 59.954 0.093 7.4 0.87 10.01
8/16/2021 12:45:00 PM 15.55 59.99 0.094 7.36 0.87 9.91
8/16/2021 1:00:00 PM 15.58 60.044 0.093 7.35 0.87 9.9
8/16/2021 1:15:00 PM 15.62 60.116 0.088 7.34 1.85 9.91
8/16/2021 1:30:00 PM 15.62 60.116 0.093 7.35 0.89 9.87
8/16/2021 1:45:00 PM 15.64 60.152 0.093 7.34 0.85 9.86
8/16/2021 2:00:00 PM 15.66 60.188 0.093 7.35 0.84 9.82
8/16/2021 2:15:00 PM 15.65 60.17 0.093 7.31 0.79 9.74
8/16/2021 2:30:00 PM 15.66 60.188 0.087 7.26 1.72 9.7
8/16/2021 2:45:00 PM 15.66 60.188 0.087 7.25 1.83 9.67
8/16/2021 3:00:00 PM 15.67 60.206 0.094 7.27 0.81 9.64
8/16/2021 3:15:00 PM 15.68 60.224 0.093 7.25 0.92 9.6
8/16/2021 3:30:00 PM 15.67 60.206 0.093 7.24 0.91 9.58
8/16/2021 3:45:00 PM 15.68 60.224 0.093 7.24 0.83 9.61
8/16/2021 4:00:00 PM 15.7 60.26 0.091 7.22 1.84 9.62
8/16/2021 4:15:00 PM 15.72 60.296 0.091 7.23 1.78 9.66
8/16/2021 4:30:00 PM 15.74 60.332 0.088 7.23 1.79 9.67
8/16/2021 4:45:00 PM 15.76 60.368 0.09 7.22 1.8 9.67
8/16/2021 5:00:00 PM 15.78 60.404 0.093 7.26 0.9 9.67
8/16/2021 5:15:00 PM 15.8 60.44 0.093 7.25 0.89 9.65
8/16/2021 5:30:00 PM 15.81 60.458 0.088 7.21 1.81 9.61
8/16/2021 5:45:00 PM 15.82 60.476 0.093 7.23 0.96 9.56
8/16/2021 6:00:00 PM 15.82 60.476 0.093 7.22 0.9 9.52
8/16/2021 6:15:00 PM 15.83 60.494 0.088 7.19 1.7 9.52
8/16/2021 6:30:00 PM 15.83 60.494 0.094 7.21 0.9 9.49
8/16/2021 6:45:00 PM 15.84 60.512 0.089 7.17 1.81 9.46
8/16/2021 7:00:00 PM 15.82 60.476 0.094 7.18 0.96 9.39
8/16/2021 7:15:00 PM 15.82 60.476 0.094 7.16 0.85 9.35
8/16/2021 7:30:00 PM 15.81 60.458 0.094 7.15 0.9 9.31
8/16/2021 7:45:00 PM 15.79 60.422 0.094 7.15 0.9 9.29
8/16/2021 8:00:00 PM 15.78 60.404 0.092 7.1 1.89 9.26
8/16/2021 8:15:00 PM 15.76 60.368 0.094 7.11 0.93 9.24
8/16/2021 8:30:00 PM 15.75 60.35 0.094 7.09 1.05 9.23
8/16/2021 8:45:00 PM 15.74 60.332 0.094 7.1 1.04 9.22
8/16/2021 9:00:00 PM 15.73 60.314 0.094 7.1 1.09 9.21
8/16/2021 9:15:00 PM 15.72 60.296 0.094 7.09 0.98 9.21
8/16/2021 9:30:00 PM 15.7 60.26 0.095 7.05 0.9 9.21
8/16/2021 9:45:00 PM 15.69 60.242 0.095 7.07 0.93 9.21
8/16/2021 10:00:00 PM 15.68 60.224 0.095 7.06 0.9 9.21
8/16/2021 10:15:00 PM 15.67 60.206 0.095 7.06 0.84 9.21
8/16/2021 10:30:00 PM 15.65 60.17 0.095 7.05 0.88 9.21
8/16/2021 10:45:00 PM 15.64 60.152 0.09 7.02 1.73 9.21
8/16/2021 11:00:00 PM 15.63 60.134 0.095 7.03 0.84 9.22
8/16/2021 11:15:00 PM 15.63 60.134 0.089 7.04 1.79 9.22
8/16/2021 11:30:00 PM 15.62 60.116 0.095 7.06 0.81 9.22
8/16/2021 11:45:00 PM 15.61 60.098 0.095 7.06 0.82 9.22
8/17/2021 12:00:00 AM 15.6 60.08 0.095 7.06 0.76 9.22
8/17/2021 12:15:00 AM 15.59 60.062 0.095 7.06 0.77 9.23
8/17/2021 12:30:00 AM 15.58 60.044 0.089 7.03 1.71 9.22
8/17/2021 12:45:00 AM 15.57 60.026 0.095 7.05 0.8 9.23
8/17/2021 1:00:00 AM 15.56 60.008 0.09 7.03 1.64 9.23
8/17/2021 1:15:00 AM 15.56 60.008 0.095 7.05 0.87 9.23
8/17/2021 1:30:00 AM 15.57 60.026 0.095 7.05 0.9 9.23
8/17/2021 1:45:00 AM 15.55 59.99 0.095 7.05 0.83 9.22
8/17/2021 2:00:00 AM 15.54 59.972 0.095 7.03 0.88 9.22
8/17/2021 2:15:00 AM 15.53 59.954 0.095 7.04 0.92 9.23
8/17/2021 2:30:00 AM 15.52 59.936 0.095 7.03 0.85 9.23
8/17/2021 2:45:00 AM 15.51 59.918 0.095 7.04 0.8 9.23
8/17/2021 3:00:00 AM 15.5 59.9 0.095 7.04 0.88 9.24
8/17/2021 3:15:00 AM 15.49 59.882 0.095 7.04 0.87 9.24
8/17/2021 3:30:00 AM 15.49 59.882 0.095 7.04 0.84 9.24
8/17/2021 3:45:00 AM 15.48 59.864 0.095 7.03 0.87 9.25
8/17/2021 4:00:00 AM 15.48 59.864 0.095 7.03 0.9 9.25
8/17/2021 4:15:00 AM 15.47 59.846 0.095 7.03 0.9 9.25
8/17/2021 4:30:00 AM 15.46 59.828 0.095 7.02 1.01 9.24
8/17/2021 4:45:00 AM 15.45 59.81 0.095 6.96 0.86 9.25
8/17/2021 5:00:00 AM 15.44 59.792 0.09 6.99 1.78 9.25
8/17/2021 5:15:00 AM 15.43 59.774 0.095 7.01 0.9 9.26
8/17/2021 5:30:00 AM 15.42 59.756 0.095 7.01 0.97 9.27
8/17/2021 5:45:00 AM 15.41 59.738 0.095 7.01 1.05 9.27
8/17/2021 6:00:00 AM 15.4 59.72 0.095 6.95 0.99 9.27
8/17/2021 6:15:00 AM 15.39 59.702 0.09 6.99 1.88 9.27
8/17/2021 6:30:00 AM 15.38 59.684 0.095 7.01 0.99 9.28
8/17/2021 6:45:00 AM 15.37 59.666 0.095 7 1.08 9.29
8/17/2021 7:00:00 AM 15.37 59.666 0.095 6.99 1.18 9.3
8/17/2021 7:15:00 AM 15.36 59.648 0.09 6.97 2.17 9.32
8/17/2021 7:30:00 AM 15.37 59.666 0.094 7 1.13 9.33
8/17/2021 7:45:00 AM 15.37 59.666 0.092 6.97 2.11 9.35
8/17/2021 8:00:00 AM 15.37 59.666 0.094 7.01 1.22 9.37
8/17/2021 8:15:00 AM 15.37 59.666 0.094 7.02 1.05 9.39
8/17/2021 8:30:00 AM 15.38 59.684 0.094 7.03 1.01 9.43
8/17/2021 8:45:00 AM 15.4 59.72 0.094 7.05 1.05 9.48
8/17/2021 9:00:00 AM 15.42 59.756 0.094 7.07 0.86 9.53
8/17/2021 9:15:00 AM 15.44 59.792 0.094 7.09 0.9 9.57
8/17/2021 9:30:00 AM 15.47 59.846 0.094 7.05 0.94 9.6
8/17/2021 9:45:00 AM 15.49 59.882 0.088 7.08 1.72 9.59
8/17/2021 10:00:00 AM 15.51 59.918 0.094 7.1 0.96 9.57
8/17/2021 10:15:00 AM 15.54 59.972 0.094 7.13 0.88 9.63
8/17/2021 10:30:00 AM 15.58 60.044 0.094 7.16 0.92 9.69
8/17/2021 10:45:00 AM 15.63 60.134 0.094 7.18 0.91 9.76
8/17/2021 11:00:00 AM 15.68 60.224 0.093 7.2 0.92 9.79
8/17/2021 11:15:00 AM 15.74 60.332 0.093 7.23 0.94 9.83
8/17/2021 11:30:00 AM 15.8 60.44 0.087 7.21 1.93 9.84
8/17/2021 11:45:00 AM 15.9 60.62 0.093 7.28 0.95 9.88
8/17/2021 12:00:00 PM 15.97 60.746 0.088 7.27 1.91 9.88
8/17/2021 12:15:00 PM 16.15 61.07 0.093 7.35 1.1 9.94
8/17/2021 12:30:00 PM 16.18 61.124 0.093 7.33 0.89 9.9
8/17/2021 12:45:00 PM 16.32 61.376 0.091 7.35 1.81 9.93
8/17/2021 1:00:00 PM 16.37 61.466 0.091 7.33 1.76 9.84
8/17/2021 1:15:00 PM 16.44 61.592 0.093 7.36 0.83 9.84
8/17/2021 1:30:00 PM 16.5 61.7 0.093 7.37 0.87 9.84
8/17/2021 1:45:00 PM 16.55 61.79 0.093 7.35 0.82 9.76
8/17/2021 2:00:00 PM 16.59 61.862 0.09 7.31 1.74 9.74
8/17/2021 2:15:00 PM 16.63 61.934 0.092 7.33 0.83 9.71
8/17/2021 2:30:00 PM 16.71 62.078 0.092 7.36 0.92 9.73
8/17/2021 2:45:00 PM 16.75 62.15 0.087 7.32 1.77 9.72
8/17/2021 3:00:00 PM 16.78 62.204 0.092 7.36 0.9 9.69
8/17/2021 3:15:00 PM 16.79 62.222 0.087 7.28 1.74 9.59
8/17/2021 3:30:00 PM 16.79 62.222 0.092 7.27 0.9 9.49
8/17/2021 3:45:00 PM 16.8 62.24 0.092 7.25 1.2 9.44
8/17/2021 4:00:00 PM 16.79 62.222 0.092 7.2 1.17 9.48
8/17/2021 4:15:00 PM 16.77 62.186 0.092 7.24 2.18 9.51
8/17/2021 4:30:00 PM 16.75 62.15 0.09 7.2 3.2 9.48
8/17/2021 4:45:00 PM 16.74 62.132 0.092 7.22 2.15 9.42
8/17/2021 5:00:00 PM 16.75 62.15 0.086 7.17 2.75 9.35
8/17/2021 5:15:00 PM 16.74 62.132 0.091 7.17 1.99 9.31
8/17/2021 5:30:00 PM 16.71 62.078 0.088 7.12 2.86 9.28
8/17/2021 5:45:00 PM 16.7 62.06 0.088 7.13 1.87 9.26
8/17/2021 6:00:00 PM 16.71 62.078 0.087 7.12 2.09 9.23
8/17/2021 6:15:00 PM 16.72 62.096 0.085 7.09 2.9 9.21
8/17/2021 6:30:00 PM 16.73 62.114 0.082 7.06 2.81 9.22
8/17/2021 6:45:00 PM 16.72 62.096 0.088 7.09 1.87 9.22
8/17/2021 7:00:00 PM 16.72 62.096 0.088 7.07 2.02 9.2
8/17/2021 7:15:00 PM 16.71 62.078 0.084 7.03 2.98 9.19
8/17/2021 7:30:00 PM 16.71 62.078 0.083 7.04 3.18 9.17
8/17/2021 7:45:00 PM 16.7 62.06 0.089 7.05 2.16 9.15
8/17/2021 8:00:00 PM 16.69 62.042 0.089 7.04 2.26 9.13
8/17/2021 8:15:00 PM 16.68 62.024 0.083 7.02 3.14 9.11
8/17/2021 8:30:00 PM 16.67 62.006 0.089 7.03 2.24 9.11
8/17/2021 8:45:00 PM 16.65 61.97 0.089 7.02 2.17 9.09
8/17/2021 9:00:00 PM 16.63 61.934 0.083 6.98 2.62 9.09
8/17/2021 9:15:00 PM 16.62 61.916 0.089 7 1.81 9.09
8/17/2021 9:30:00 PM 16.6 61.88 0.09 7 1.77 9.1
8/17/2021 9:45:00 PM 16.57 61.826 0.09 6.99 1.76 9.1
8/17/2021 10:00:00 PM 16.55 61.79 0.086 6.97 2.57 9.1
8/17/2021 10:15:00 PM 16.53 61.754 0.091 6.98 1.58 9.11
8/17/2021 10:30:00 PM 16.51 61.718 0.091 6.97 1.55 9.11
8/17/2021 10:45:00 PM 16.49 61.682 0.085 6.95 2.56 9.11
8/17/2021 11:00:00 PM 16.46 61.628 0.091 6.97 1.62 9.12
8/17/2021 11:15:00 PM 16.44 61.592 0.087 6.93 2.28 9.12
8/17/2021 11:30:00 PM 16.42 61.556 0.092 6.96 1.42 9.12
8/17/2021 11:45:00 PM 16.41 61.538 0.086 6.93 2.23 9.12
8/18/2021 12:00:00 AM 16.39 61.502 0.092 6.96 1.4 9.13
8/18/2021 12:15:00 AM 16.38 61.484 0.092 6.97 1.4 9.14
8/18/2021 12:30:00 AM 16.37 61.466 0.093 6.98 1.49 9.14
8/18/2021 12:45:00 AM 16.4 61.52 0.092 6.98 1.52 9.15
8/18/2021 1:00:00 AM 16.42 61.556 0.091 6.99 1.66 9.15
8/18/2021 1:15:00 AM 16.59 61.862 0.087 7.01 4.12 9.16
8/18/2021 1:30:00 AM 16.6 61.88 0.088 7.01 4.57 9.13
8/18/2021 1:45:00 AM 16.59 61.862 0.086 6.98 5.2 9.12
8/18/2021 2:00:00 AM 16.54 61.772 0.089 7.01 3.58 9.11
8/18/2021 2:15:00 AM 16.49 61.682 0.09 7.01 4.1 9.12
8/18/2021 2:30:00 AM 16.45 61.61 0.09 7.02 4.57 9.12
8/18/2021 2:45:00 AM 16.41 61.538 0.091 7 5.29 9.13
8/18/2021 3:00:00 AM 16.37 61.466 0.086 6.98 6.6 9.15
8/18/2021 3:15:00 AM 16.33 61.394 0.09 6.96 8.01 9.17
8/18/2021 3:30:00 AM 16.28 61.304 0.088 6.97 7.82 9.19
8/18/2021 3:45:00 AM 16.24 61.232 0.087 6.97 6.5 9.21
8/18/2021 4:00:00 AM 16.19 61.142 0.085 6.97 5.52 9.22
8/18/2021 4:15:00 AM 16.14 61.052 0.08 6.91 6.15 9.23
8/18/2021 4:30:00 AM 16.1 60.98 0.083 6.93 5.6 9.25
8/18/2021 4:45:00 AM 16.06 60.908 0.083 6.92 10.49 9.28
8/18/2021 5:00:00 AM 16.04 60.872 0.085 6.92 12.57 9.31
8/18/2021 5:15:00 AM 16.04 60.872 0.084 6.92 10.4 9.32
8/18/2021 5:30:00 AM 16.09 60.962 0.091 6.96 8.55 9.31
8/18/2021 5:45:00 AM 16.15 61.07 0.092 6.98 7.34 9.29
8/18/2021 6:00:00 AM 16.23 61.214 0.089 6.98 7.08 9.28
8/18/2021 6:15:00 AM 16.29 61.322 0.088 6.98 6.79 9.27
8/18/2021 6:30:00 AM 16.32 61.376 0.087 6.96 6.71 9.26
8/18/2021 6:45:00 AM 16.34 61.412 0.083 6.97 7 9.25
8/18/2021 7:00:00 AM 16.36 61.448 0.082 6.97 7.32 9.25
8/18/2021 7:15:00 AM 16.37 61.466 0.087 6.99 7.98 9.26
8/18/2021 7:30:00 AM 16.36 61.448 0.085 6.98 9.17 9.28
8/18/2021 7:45:00 AM 16.35 61.43 0.079 6.95 10.97 9.3
8/18/2021 8:00:00 AM 16.32 61.376 0.082 6.93 16.18 9.33
8/18/2021 8:15:00 AM 16.27 61.286 0.079 6.88 57.32 9.35
8/18/2021 8:30:00 AM 16.47 61.646 0.083 6.96 69.38 9.32
8/18/2021 8:45:00 AM 16.72 62.096 0.082 6.99 76.48 9.28
8/18/2021 9:00:00 AM 16.83 62.294 0.074 6.9 75.73 9.27
8/18/2021 9:15:00 AM 16.92 62.456 0.075 6.93 62.16 9.25
8/18/2021 9:30:00 AM 16.98 62.564 0.072 6.93 55.96 9.24
8/18/2021 9:45:00 AM 17.02 62.636 0.07 6.87 48.73 9.24
8/18/2021 10:00:00 AM 17.03 62.654 0.069 6.81 43.46 9.24
8/18/2021 10:15:00 AM 17.04 62.672 0.068 6.87 39.86 9.25
8/18/2021 10:30:00 AM 17.05 62.69 0.068 6.87 35.17 9.26
8/18/2021 10:45:00 AM 17.04 62.672 0.068 6.88 30.86 9.26
8/18/2021 11:00:00 AM 17.03 62.654 0.069 6.9 27.76 9.26
8/18/2021 11:15:00 AM 17.01 62.618 0.069 6.91 24.13 9.26
8/18/2021 11:30:00 AM 17 62.6 0.064 6.87 21.8 9.26
8/18/2021 11:45:00 AM 16.99 62.582 0.069 6.88 20.48 9.26
8/18/2021 12:00:00 PM 16.99 62.582 0.069 6.89 16.65 9.26
8/18/2021 12:15:00 PM 16.97 62.546 0.066 6.86 16.31 9.27
8/18/2021 12:30:00 PM 16.96 62.528 0.07 6.91 16.02 9.27
8/18/2021 12:45:00 PM 16.94 62.492 0.07 6.88 13.01 9.26
8/18/2021 1:00:00 PM 16.92 62.456 0.07 6.88 12.38 9.27
8/18/2021 1:15:00 PM 16.91 62.438 0.07 6.87 11.41 9.27
8/18/2021 1:30:00 PM 16.89 62.402 0.069 6.87 11.58 9.27
8/18/2021 1:45:00 PM 16.88 62.384 0.07 6.87 12.03 9.27
8/18/2021 2:00:00 PM 16.87 62.366 0.069 6.86 13.3 9.27
8/18/2021 2:15:00 PM 16.9 62.42 0.07 6.86 14.48 9.26
8/18/2021 2:30:00 PM 16.94 62.492 0.068 6.88 17.43 9.26
8/18/2021 2:45:00 PM 16.96 62.528 0.069 6.86 20.62 9.25
8/18/2021 3:00:00 PM 16.98 62.564 0.067 6.88 25.54 9.25
8/18/2021 3:15:00 PM 17.01 62.618 0.068 6.86 34.09 9.24
8/18/2021 3:30:00 PM 17.06 62.708 0.066 6.81 44.51 9.23
8/18/2021 3:45:00 PM 17.07 62.726 0.064 6.82 54.39 9.22
8/18/2021 4:00:00 PM 17.1 62.78 0.061 6.75 78.09 9.21
8/18/2021 4:15:00 PM 17.17 62.906 0.057 6.74 100.98 9.2
8/18/2021 4:30:00 PM 17.22 62.996 0.055 6.71 118.57 9.2
8/18/2021 4:45:00 PM 17.26 63.068 0.053 6.7 139.29 9.2
8/18/2021 5:00:00 PM 17.33 63.194 0.055 6.7 180.13 9.18
8/18/2021 5:15:00 PM 17.42 63.356 0.053 6.67 240.14 9.17
8/18/2021 5:30:00 PM 17.5 63.5 0.047 6.62 238.15 9.16
8/18/2021 5:45:00 PM 17.57 63.626 0.046 6.59 270.26 9.15
8/18/2021 6:00:00 PM 17.63 63.734 0.047 6.59 233.41 9.15
8/18/2021 6:15:00 PM 17.63 63.734 0.046 6.55 220.58 9.14
8/18/2021 6:30:00 PM 17.62 63.716 0.044 6.5 208.3 9.14
8/18/2021 6:45:00 PM 17.61 63.698 0.045 6.48 229.17 9.14
8/18/2021 7:00:00 PM 17.62 63.716 0.042 6.43 278.6 9.14
8/18/2021 7:15:00 PM 17.64 63.752 0.043 6.46 292.48 9.13
8/18/2021 7:30:00 PM 17.67 63.806 0.042 6.42 321.57 9.12
8/18/2021 7:45:00 PM 17.7 63.86 0.041 6.39 342.65 9.12
8/18/2021 8:00:00 PM 17.71 63.878 0.041 6.35 357.66 9.1
8/18/2021 8:15:00 PM 17.69 63.842 0.038 6.33 333.73 9.11
8/18/2021 8:30:00 PM 17.64 63.752 0.038 6.31 284.67 9.13
8/18/2021 8:45:00 PM 17.57 63.626 0.039 6.3 235.74 9.14
8/18/2021 9:00:00 PM 17.49 63.482 0.041 6.32 211.22 9.15
8/18/2021 9:15:00 PM 17.41 63.338 0.039 6.3 196.52 9.17
8/18/2021 9:30:00 PM 17.34 63.212 0.041 6.33 188.27 9.18
8/18/2021 9:45:00 PM 17.26 63.068 0.039 6.34 177.76 9.2
8/18/2021 10:00:00 PM 17.17 62.906 0.042 6.3 172.68 9.22
8/18/2021 10:15:00 PM 17.07 62.726 0.042 6.31 156.49 9.24
8/18/2021 10:30:00 PM 16.98 62.564 0.04 6.25 147.72 9.25
8/18/2021 10:45:00 PM 16.9 62.42 0.043 6.22 130.08 9.27
8/18/2021 11:00:00 PM 16.82 62.276 0.043 6.33 124.67 9.29
8/18/2021 11:15:00 PM 16.76 62.168 0.043 6.32 119.14 9.3
8/18/2021 11:30:00 PM 16.69 62.042 0.043 6.31 117.66 9.31
8/18/2021 11:45:00 PM 16.63 61.934 0.043 6.32 114.43 9.33
8/19/2021 12:00:00 AM 16.55 61.79 0.043 6.31 127.59 9.34
8/19/2021 12:15:00 AM 16.47 61.646 0.043 6.32 104.46 9.36
8/19/2021 12:30:00 AM 16.39 61.502 0.044 6.34 99.63 9.38
8/19/2021 12:45:00 AM 16.31 61.358 0.044 6.37 91.33 9.4
8/19/2021 1:00:00 AM 16.22 61.196 0.044 6.39 90.26 9.42
8/19/2021 1:15:00 AM 16.12 61.016 0.043 6.35 80.36 9.44
8/19/2021 1:30:00 AM 16.02 60.836 0.042 6.39 76.11 9.46
8/19/2021 1:45:00 AM 15.93 60.674 0.045 6.42 75.14 9.48
8/19/2021 2:00:00 AM 15.83 60.494 0.045 6.42 72.2 9.5
8/19/2021 2:15:00 AM 15.74 60.332 0.043 6.41 65.97 9.52
8/19/2021 2:30:00 AM 15.66 60.188 0.046 6.39 68.53 9.54
8/19/2021 2:45:00 AM 15.59 60.062 0.043 6.45 62.21 9.56
8/19/2021 3:00:00 AM 15.52 59.936 0.046 6.46 67.02 9.58
8/19/2021 3:15:00 AM 15.45 59.81 0.044 6.45 58.5 9.59
8/19/2021 3:30:00 AM 15.39 59.702 0.046 6.48 60.95 9.61
8/19/2021 3:45:00 AM 15.33 59.594 0.046 6.48 55.43 9.63
8/19/2021 4:00:00 AM 15.26 59.468 0.043 6.46 53.22 9.64
8/19/2021 4:15:00 AM 15.19 59.342 0.047 6.48 51.68 9.66
8/19/2021 4:30:00 AM 15.12 59.216 0.044 6.54 49.58 9.67
8/19/2021 4:45:00 AM 15.05 59.09 0.044 6.46 55.59 9.69
8/19/2021 5:00:00 AM 14.99 58.982 0.044 6.46 44.9 9.7
8/19/2021 5:15:00 AM 14.93 58.874 0.044 6.45 46.95 9.72
8/19/2021 5:30:00 AM 14.87 58.766 0.047 6.48 45.64 9.73
8/19/2021 5:45:00 AM 14.81 58.658 0.045 6.47 47.22 9.74
8/19/2021 6:00:00 AM 14.76 58.568 0.045 6.46 41.8 9.76
8/19/2021 6:15:00 AM 14.72 58.496 0.045 6.47 46.16 9.77
8/19/2021 6:30:00 AM 14.68 58.424 0.045 6.46 38.36 9.78
8/19/2021 6:45:00 AM 14.64 58.352 0.045 6.49 38.34 9.79
8/19/2021 7:00:00 AM 14.61 58.298 0.048 6.47 44.21 9.8
8/19/2021 7:15:00 AM 14.57 58.226 0.045 6.48 38.76 9.8
8/19/2021 7:30:00 AM 14.55 58.19 0.045 6.5 42.65 9.82
8/19/2021 7:45:00 AM 14.52 58.136 0.048 6.47 50.43 9.82
8/19/2021 8:00:00 AM 14.5 58.1 0.048 6.45 45.09 9.83
8/19/2021 8:15:00 AM 14.48 58.064 0.049 6.48 41.48 9.84
8/19/2021 8:30:00 AM 14.45 58.01 0.046 6.5 37.88 9.84
8/19/2021 8:45:00 AM 14.44 57.992 0.049 6.49 42.31 9.85
8/19/2021 9:00:00 AM 14.43 57.974 0.046 6.52 35.09 9.86
8/19/2021 9:15:00 AM 14.41 57.938 0.049 6.51 43.81 9.87
8/19/2021 9:30:00 AM 14.38 57.884 0.048 6.54 33.43 9.88
8/19/2021 9:45:00 AM 14.36 57.848 0.047 6.52 35.77 9.88
8/19/2021 10:00:00 AM 14.35 57.83 0.046 6.58 32.02 9.89
8/19/2021 10:15:00 AM 14.35 57.83 0.046 6.64 34.37 9.89
8/19/2021 10:30:00 AM 14.35 57.83 0.05 6.64 33.49 9.9
8/19/2021 10:45:00 AM 14.36 57.848 0.047 6.63 28.72 9.9
8/19/2021 11:00:00 AM 14.38 57.884 0.047 6.66 28.94 9.9
8/19/2021 11:15:00 AM 14.36 57.848 0.048 6.64 27.28 9.89
8/19/2021 11:30:00 AM 14.34 57.812 0.048 6.59 24.49 9.89
8/19/2021 11:45:00 AM 14.35 57.83 0.048 6.64 27.17 9.9
8/19/2021 12:00:00 PM 14.41 57.938 0.048 6.67 26.84 9.9
8/19/2021 12:15:00 PM 14.45 58.01 0.048 6.67 27.03 9.89
8/19/2021 12:30:00 PM 14.43 57.974 0.048 6.67 21.5 9.89
8/19/2021 12:45:00 PM 14.43 57.974 0.048 6.68 19.89 9.89
8/19/2021 1:00:00 PM 14.41 57.938 0.048 6.68 24.42 9.89
8/19/2021 1:15:00 PM 14.41 57.938 0.048 6.68 19.17 9.89
8/19/2021 1:30:00 PM 14.48 58.064 0.048 6.71 29.66 9.89
8/19/2021 1:45:00 PM 14.5 58.1 0.051 6.71 40.01 9.88
8/19/2021 2:00:00 PM 14.5 58.1 0.048 6.69 299.43 9.88
8/19/2021 2:15:00 PM 14.52 58.136 0.048 6.71 26.39 9.87
8/19/2021 2:30:00 PM 14.56 58.208 0.051 6.72 23.15 9.87
8/19/2021 2:45:00 PM 14.6 58.28 0.05 6.72 33.21 9.86
8/19/2021 3:00:00 PM 14.56 58.208 0.05 6.7 24.65 9.86
8/19/2021 3:15:00 PM 14.55 58.19 0.05 6.7 22.86 9.85
8/19/2021 3:30:00 PM 14.52 58.136 0.052 6.72 20.3 9.86
8/19/2021 3:45:00 PM 14.48 58.064 0.05 6.69 41.22 9.87
8/19/2021 4:00:00 PM 14.44 57.992 0.052 6.7 20.58 9.87
8/19/2021 4:15:00 PM 14.42 57.956 0.049 6.68 20.09 9.88
8/19/2021 4:30:00 PM 14.43 57.974 0.052 6.7 20.59 9.88
8/19/2021 4:45:00 PM 14.42 57.956 0.052 6.7 21.59 9.88
8/19/2021 5:00:00 PM 14.38 57.884 0.052 6.71 24.2 9.89
8/19/2021 5:15:00 PM 14.33 57.794 0.052 6.7 17.14 9.89
8/19/2021 5:30:00 PM 14.29 57.722 0.052 6.7 19.17 9.89
8/19/2021 5:45:00 PM 14.27 57.686 0.05 6.69 18.28 9.9
8/19/2021 6:00:00 PM 14.25 57.65 0.053 6.67 20.52 9.9
8/19/2021 6:15:00 PM 14.24 57.632 0.053 6.71 19.8 9.9
8/19/2021 6:30:00 PM 14.21 57.578 0.053 6.7 18.71 9.9
8/19/2021 6:45:00 PM 14.18 57.524 0.053 6.7 17.61 9.9
8/19/2021 7:00:00 PM 14.13 57.434 0.052 6.68 17.65 9.91
8/19/2021 7:15:00 PM 14.08 57.344 0.052 6.67 17.03 9.92
8/19/2021 7:30:00 PM 14.01 57.218 0.052 6.66 16.79 9.94
8/19/2021 7:45:00 PM 13.95 57.11 0.052 6.64 17.13 9.94
8/19/2021 8:00:00 PM 13.89 57.002 0.051 6.64 17.13 9.96
8/19/2021 8:15:00 PM 13.83 56.894 0.05 6.62 16.08 9.97
8/19/2021 8:30:00 PM 13.76 56.768 0.054 6.66 16.66 9.98
8/19/2021 8:45:00 PM 13.71 56.678 0.051 6.64 15.84 9.99
8/19/2021 9:00:00 PM 13.65 56.57 0.053 6.64 16.7 10.01
8/19/2021 9:15:00 PM 13.6 56.48 0.055 6.65 15.92 10.02
8/19/2021 9:30:00 PM 13.55 56.39 0.051 6.63 15 10.03
8/19/2021 9:45:00 PM 13.5 56.3 0.051 6.64 14.43 10.04
8/19/2021 10:00:00 PM 13.46 56.228 0.055 6.65 14.67 10.05
8/19/2021 10:15:00 PM 13.41 56.138 0.052 6.64 15.77 10.06
8/19/2021 10:30:00 PM 13.37 56.066 0.052 6.63 14.87 10.07
8/19/2021 10:45:00 PM 13.33 55.994 0.052 6.64 16.25 10.08
8/19/2021 11:00:00 PM 13.3 55.94 0.055 6.65 16.07 10.09
8/19/2021 11:15:00 PM 13.26 55.868 0.052 6.63 15.6 10.1
8/19/2021 11:30:00 PM 13.23 55.814 0.052 6.63 15.92 10.1
8/19/2021 11:45:00 PM 13.2 55.76 0.052 6.63 15.23 10.12
8/20/2021 12:00:00 AM 13.17 55.706 0.052 6.63 15.67 10.13
8/20/2021 12:15:00 AM 13.14 55.652 0.052 6.63 15.72 10.13
8/20/2021 12:30:00 AM 13.11 55.598 0.056 6.65 14.53 10.14
8/20/2021 12:45:00 AM 13.08 55.544 0.056 6.66 15.08 10.15
8/20/2021 1:00:00 AM 13.06 55.508 0.054 6.64 14.74 10.15
8/20/2021 1:15:00 AM 13.03 55.454 0.056 6.66 14.97 10.15
8/20/2021 1:30:00 AM 13.01 55.418 0.056 6.66 14.24 10.16
8/20/2021 1:45:00 AM 12.99 55.382 0.056 6.68 14.69 10.16
8/20/2021 2:00:00 AM 12.97 55.346 0.053 6.65 13.99 10.16
8/20/2021 2:15:00 AM 12.95 55.31 0.054 6.66 13.93 10.17
8/20/2021 2:30:00 AM 12.93 55.274 0.056 6.68 13.35 10.17
8/20/2021 2:45:00 AM 12.91 55.238 0.056 6.69 14.07 10.18
8/20/2021 3:00:00 AM 12.89 55.202 0.053 6.66 13.09 10.18
8/20/2021 3:15:00 AM 12.87 55.166 0.056 6.7 13.03 10.18
8/20/2021 3:30:00 AM 12.85 55.13 0.056 6.7 13.52 10.19
8/20/2021 3:45:00 AM 12.83 55.094 0.056 6.7 13.03 10.2
8/20/2021 4:00:00 AM 12.81 55.058 0.056 6.72 11.66 10.2
8/20/2021 4:15:00 AM 12.79 55.022 0.057 6.71 12.5 10.2
8/20/2021 4:30:00 AM 12.77 54.986 0.057 6.7 12.15 10.21
8/20/2021 4:45:00 AM 12.74 54.932 0.057 6.71 11.2 10.22
8/20/2021 5:00:00 AM 12.73 54.914 0.057 6.71 12.13 10.22
8/20/2021 5:15:00 AM 12.71 54.878 0.057 6.68 11.5 10.21
8/20/2021 5:30:00 AM 12.68 54.824 0.057 6.7 11.19 10.23
8/20/2021 5:45:00 AM 12.66 54.788 0.057 6.71 10.67 10.23
8/20/2021 6:00:00 AM 12.64 54.752 0.057 6.72 10.36 10.24
8/20/2021 6:15:00 AM 12.63 54.734 0.057 6.71 10.53 10.24
8/20/2021 6:30:00 AM 12.61 54.698 0.057 6.69 10.55 10.24
8/20/2021 6:45:00 AM 12.6 54.68 0.057 6.7 10.29 10.25
8/20/2021 7:00:00 AM 12.59 54.662 0.057 6.71 10.42 10.25
8/20/2021 7:15:00 AM 12.57 54.626 0.057 6.72 10.32 10.25
8/20/2021 7:30:00 AM 12.55 54.59 0.057 6.74 10.66 10.26
8/20/2021 7:45:00 AM 12.54 54.572 0.057 6.73 10.34 10.27
8/20/2021 8:00:00 AM 12.53 54.554 0.057 6.74 10.77 10.27
8/20/2021 8:15:00 AM 12.52 54.536 0.054 6.72 11 10.28
8/20/2021 8:30:00 AM 12.51 54.518 0.054 6.72 10.65 10.28
8/20/2021 8:45:00 AM 12.51 54.518 0.059 6.73 10.34 10.26
8/20/2021 9:00:00 AM 12.53 54.554 0.059 6.73 9.45 10.28
8/20/2021 9:15:00 AM 12.54 54.572 0.058 6.73 9.29 10.27
8/20/2021 9:30:00 AM 12.57 54.626 0.058 6.74 9.37 10.28
8/20/2021 9:45:00 AM 12.62 54.716 0.058 6.76 8.85 10.27
8/20/2021 10:00:00 AM 12.65 54.77 0.058 6.76 8.84 10.28
8/20/2021 10:15:00 AM 12.69 54.842 0.058 6.76 9.27 10.27
8/20/2021 10:30:00 AM 12.75 54.95 0.058 6.77 9.68 10.26
8/20/2021 10:45:00 AM 12.83 55.094 0.058 6.78 9.34 10.25
8/20/2021 11:00:00 AM 12.89 55.202 0.058 6.8 8.84 10.23
8/20/2021 11:15:00 AM 12.93 55.274 0.058 6.79 8.78 10.23
8/20/2021 11:30:00 AM 12.97 55.346 0.058 6.8 8.5 10.21
8/20/2021 11:45:00 AM 13 55.4 0.058 6.79 8.49 10.21
8/20/2021 12:00:00 PM 13.05 55.49 0.058 6.81 8.43 10.2
8/20/2021 12:15:00 PM 13.13 55.634 0.058 6.81 8.69 10.18
8/20/2021 12:30:00 PM 13.21 55.778 0.058 6.8 8.29 10.16
8/20/2021 12:45:00 PM 13.28 55.904 0.058 6.8 8.52 10.13
8/20/2021 1:00:00 PM 13.42 56.156 0.058 6.82 8.33 10.11
8/20/2021 1:15:00 PM 13.47 56.246 0.058 6.8 8.81 10.1
8/20/2021 1:30:00 PM 13.52 56.336 0.058 6.8 8.44 10.09
8/20/2021 1:45:00 PM 13.54 56.372 0.058 6.79 8.23 10.08
8/20/2021 2:00:00 PM 13.57 56.426 0.058 6.79 8.51 10.07
8/20/2021 2:15:00 PM 13.66 56.588 0.059 6.83 8.2 10.05
8/20/2021 2:30:00 PM 13.75 56.75 0.059 6.81 8.21 10.03
8/20/2021 2:45:00 PM 13.81 56.858 0.055 6.78 8.67 10
8/20/2021 3:00:00 PM 13.82 56.876 0.059 6.8 7.86 9.99
8/20/2021 3:15:00 PM 13.82 56.876 0.059 6.79 7.83 9.99
8/20/2021 3:30:00 PM 13.79 56.822 0.059 6.77 8 10
8/20/2021 3:45:00 PM 13.75 56.75 0.059 6.77 7.74 10.01
8/20/2021 4:00:00 PM 13.78 56.804 0.059 6.76 7.76 10.01
8/20/2021 4:15:00 PM 13.8 56.84 0.059 6.78 8.36 10.01
8/20/2021 4:30:00 PM 13.78 56.804 0.059 6.78 8.08 10.01
8/20/2021 4:45:00 PM 13.75 56.75 0.059 6.77 8.01 10.01
8/20/2021 5:00:00 PM 13.72 56.696 0.059 6.79 8.57 10
8/20/2021 5:15:00 PM 13.73 56.714 0.059 6.8 7.83 10
8/20/2021 5:30:00 PM 13.68 56.624 0.059 6.78 8 10.01
8/20/2021 5:45:00 PM 13.64 56.552 0.055 6.77 8.67 10.01
8/20/2021 6:00:00 PM 13.63 56.534 0.059 6.78 8.05 10.01
8/20/2021 6:15:00 PM 13.61 56.498 0.058 6.76 8.27 10.01
8/20/2021 6:30:00 PM 13.57 56.426 0.06 6.78 8.24 10.02
8/20/2021 6:45:00 PM 13.53 56.354 0.06 6.78 7.76 10.02
8/20/2021 7:00:00 PM 13.5 56.3 0.06 6.78 8.27 10.03
8/20/2021 7:15:00 PM 13.45 56.21 0.06 6.77 8.05 10.03
8/20/2021 7:30:00 PM 13.4 56.12 0.06 6.77 8.32 10.04
8/20/2021 7:45:00 PM 13.36 56.048 0.06 6.77 8.41 10.05
8/20/2021 8:00:00 PM 13.31 55.958 0.06 6.74 7.91 10.06
8/20/2021 8:15:00 PM 13.27 55.886 0.06 6.76 7.59 10.07
8/20/2021 8:30:00 PM 13.22 55.796 0.06 6.75 7.66 10.08
8/20/2021 8:45:00 PM 13.17 55.706 0.06 6.75 7.37 10.09
8/20/2021 9:00:00 PM 13.13 55.634 0.056 6.71 8.15 10.1
8/20/2021 9:15:00 PM 13.1 55.58 0.06 6.71 7.56 10.11
8/20/2021 9:30:00 PM 13.07 55.526 0.06 6.74 7.22 10.11
8/20/2021 9:45:00 PM 13.05 55.49 0.058 6.73 8.19 10.12
8/20/2021 10:00:00 PM 13.03 55.454 0.057 6.72 8.03 10.13
8/20/2021 10:15:00 PM 13.01 55.418 0.06 6.75 7.17 10.14
8/20/2021 10:30:00 PM 12.98 55.364 0.057 6.73 8.06 10.14
8/20/2021 10:45:00 PM 12.95 55.31 0.06 6.74 7.07 10.15
8/20/2021 11:00:00 PM 12.93 55.274 0.06 6.75 7.09 10.15
8/20/2021 11:15:00 PM 12.91 55.238 0.057 6.72 7.76 10.16
8/20/2021 11:30:00 PM 12.92 55.256 0.06 6.77 7.62 10.16
8/20/2021 11:45:00 PM 12.88 55.184 0.06 6.78 7.22 10.17
8/21/2021 12:00:00 AM 12.85 55.13 0.06 6.78 6.91 10.17
8/21/2021 12:15:00 AM 12.82 55.076 0.06 6.78 6.98 10.18
8/21/2021 12:30:00 AM 12.8 55.04 0.06 6.78 6.76 10.19
8/21/2021 12:45:00 AM 12.78 55.004 0.059 6.75 7.38 10.19
8/21/2021 1:00:00 AM 12.76 54.968 0.061 6.77 6.91 10.2
8/21/2021 1:15:00 AM 12.74 54.932 0.061 6.75 6.36 10.2
8/21/2021 1:30:00 AM 12.72 54.896 0.061 6.76 6.44 10.2
8/21/2021 1:45:00 AM 12.7 54.86 0.061 6.77 6.43 10.21
8/21/2021 2:00:00 AM 12.69 54.842 0.061 6.76 6.71 10.21
8/21/2021 2:15:00 AM 12.67 54.806 0.061 6.76 6.22 10.21
8/21/2021 2:30:00 AM 12.65 54.77 0.061 6.76 6.18 10.22
8/21/2021 2:45:00 AM 12.63 54.734 0.061 6.75 6.27 10.22
8/21/2021 3:00:00 AM 12.62 54.716 0.061 6.76 6.06 10.23
8/21/2021 3:15:00 AM 12.6 54.68 0.061 6.74 6.51 10.23
8/21/2021 3:30:00 AM 12.58 54.644 0.061 6.75 6.45 10.22
8/21/2021 3:45:00 AM 12.56 54.608 0.061 6.75 6.67 10.23
8/21/2021 4:00:00 AM 12.55 54.59 0.059 6.73 7.24 10.24
8/21/2021 4:15:00 AM 12.54 54.572 0.061 6.74 6.59 10.24
8/21/2021 4:30:00 AM 12.52 54.536 0.061 6.74 9 10.24
8/21/2021 4:45:00 AM 12.51 54.518 0.061 6.74 8.16 10.25
8/21/2021 5:00:00 AM 12.49 54.482 0.061 6.74 6.99 10.25
8/21/2021 5:15:00 AM 12.48 54.464 0.061 6.74 6.81 10.26
8/21/2021 5:30:00 AM 12.47 54.446 0.058 6.72 7.08 10.26
8/21/2021 5:45:00 AM 12.46 54.428 0.058 6.71 7.13 10.26
8/21/2021 6:00:00 AM 12.45 54.41 0.058 6.71 6.78 10.26
8/21/2021 6:15:00 AM 12.43 54.374 0.058 6.7 6.85 10.27
8/21/2021 6:30:00 AM 12.42 54.356 0.057 6.71 6.89 10.27
8/21/2021 6:45:00 AM 12.41 54.338 0.058 6.7 7.03 10.27
8/21/2021 7:00:00 AM 12.4 54.32 0.058 6.7 6.69 10.28
8/21/2021 7:15:00 AM 12.39 54.302 0.058 6.69 7.24 10.27
8/21/2021 7:30:00 AM 12.39 54.302 0.058 6.69 6.56 10.28
8/21/2021 7:45:00 AM 12.38 54.284 0.058 6.7 7 10.28
8/21/2021 8:00:00 AM 12.39 54.302 0.058 6.7 6.74 10.29
8/21/2021 8:15:00 AM 12.4 54.32 0.058 6.7 6.5 10.29
8/21/2021 8:30:00 AM 12.41 54.338 0.059 6.71 6.2 10.3
8/21/2021 8:45:00 AM 12.43 54.374 0.058 6.73 6.35 10.29
8/21/2021 9:00:00 AM 12.46 54.428 0.058 6.74 12.68 10.29
8/21/2021 9:15:00 AM 12.49 54.482 0.059 6.75 9.45 10.29
8/21/2021 9:30:00 AM 12.52 54.536 0.058 6.72 6.24 10.28
8/21/2021 9:45:00 AM 12.57 54.626 0.058 6.74 6.31 10.27
8/21/2021 10:00:00 AM 12.61 54.698 0.058 6.74 6.21 10.27
8/21/2021 10:15:00 AM 12.66 54.788 0.062 6.79 5.44 10.26
8/21/2021 10:30:00 AM 12.76 54.968 0.059 6.78 6.05 10.25
8/21/2021 10:45:00 AM 12.85 55.13 0.062 6.81 5.62 10.23
8/21/2021 11:00:00 AM 12.9 55.22 0.059 6.78 6.37 10.21
8/21/2021 11:15:00 AM 12.98 55.364 0.061 6.81 5.84 10.2
8/21/2021 11:30:00 AM 13.08 55.544 0.062 6.82 5.27 10.19
8/21/2021 11:45:00 AM 13.17 55.706 0.059 6.81 6.05 10.17
8/21/2021 12:00:00 PM 13.27 55.886 0.062 6.86 5.5 10.14
8/21/2021 12:15:00 PM 13.33 55.994 0.062 6.86 5.3 10.13
8/21/2021 12:30:00 PM 13.42 56.156 0.061 6.83 6.32 10.12
8/21/2021 12:45:00 PM 13.49 56.282 0.059 6.85 6 10.1
8/21/2021 1:00:00 PM 13.53 56.354 0.059 6.83 6.36 10.08
8/21/2021 1:15:00 PM 13.61 56.498 0.062 6.84 5.11 10.06
8/21/2021 1:30:00 PM 13.67 56.606 0.062 6.88 5.24 10.05
8/21/2021 1:45:00 PM 13.71 56.678 0.061 6.83 5.95 10.03
8/21/2021 2:00:00 PM 13.75 56.75 0.059 6.83 6.17 10.02
8/21/2021 2:15:00 PM 13.78 56.804 0.062 6.85 5.35 10.01
8/21/2021 2:30:00 PM 13.79 56.822 0.062 6.82 5.27 10
8/21/2021 2:45:00 PM 13.82 56.876 0.061 6.81 6.34 9.99
8/21/2021 3:00:00 PM 13.84 56.912 0.062 6.83 5.17 9.98
8/21/2021 3:15:00 PM 13.87 56.966 0.061 6.79 5.75 9.98
8/21/2021 3:30:00 PM 13.95 57.11 0.059 6.8 6 9.96
8/21/2021 3:45:00 PM 13.96 57.128 0.059 6.79 6.3 9.96
8/21/2021 4:00:00 PM 14.03 57.254 0.059 6.8 6 9.95
8/21/2021 4:15:00 PM 14.02 57.236 0.059 6.78 6.01 9.94
8/21/2021 4:30:00 PM 13.99 57.182 0.059 6.77 5.93 9.93
8/21/2021 4:45:00 PM 13.96 57.128 0.059 6.77 5.67 9.93
8/21/2021 5:00:00 PM 13.93 57.074 0.059 6.76 5.68 9.94
8/21/2021 5:15:00 PM 13.91 57.038 0.059 6.75 5.76 9.94
8/21/2021 5:30:00 PM 13.84 56.912 0.059 6.74 5.46 9.94
8/21/2021 5:45:00 PM 13.81 56.858 0.063 6.77 4.58 9.95
8/21/2021 6:00:00 PM 13.76 56.768 0.063 6.78 4.55 9.96
8/21/2021 6:15:00 PM 13.71 56.678 0.059 6.76 5.68 9.97
8/21/2021 6:30:00 PM 13.67 56.606 0.059 6.76 5.58 9.99
8/21/2021 6:45:00 PM 13.63 56.534 0.059 6.77 5.78 9.98
8/21/2021 7:00:00 PM 13.57 56.426 0.059 6.74 5.29 9.99
8/21/2021 7:15:00 PM 13.53 56.354 0.063 6.84 4.44 10
8/21/2021 7:30:00 PM 13.5 56.3 0.063 6.78 4.55 10
8/21/2021 7:45:00 PM 13.46 56.228 0.06 6.76 5.48 10.01
8/21/2021 8:00:00 PM 13.42 56.156 0.059 6.74 5.27 10.01
8/21/2021 8:15:00 PM 13.39 56.102 0.059 6.72 5.31 10.02
8/21/2021 8:30:00 PM 13.35 56.03 0.06 6.72 5.49 10.02
8/21/2021 8:45:00 PM 13.31 55.958 0.06 6.72 5.32 10.03
8/21/2021 9:00:00 PM 13.27 55.886 0.06 6.71 5.41 10.04
8/21/2021 9:15:00 PM 13.24 55.832 0.06 6.7 5.49 10.05
8/21/2021 9:30:00 PM 13.2 55.76 0.06 6.71 5.84 10.06
8/21/2021 9:45:00 PM 13.19 55.742 0.06 6.72 6.83 10.07
8/21/2021 10:00:00 PM 13.16 55.688 0.06 6.72 7.05 10.08
8/21/2021 10:15:00 PM 13.12 55.616 0.063 6.73 7.86 10.08
8/21/2021 10:30:00 PM 13.15 55.67 0.064 6.75 30.64 10.07
8/21/2021 10:45:00 PM 13.21 55.778 0.065 6.77 53.8 10.05
8/21/2021 11:00:00 PM 13.26 55.868 0.06 6.74 43.71 10.03
8/21/2021 11:15:00 PM 13.27 55.886 0.059 6.72 34.39 10.04
8/21/2021 11:30:00 PM 13.26 55.868 0.06 6.7 23.38 10.04
8/21/2021 11:45:00 PM 13.23 55.814 0.059 6.72 17.43 10.05
8/22/2021 12:00:00 AM 13.19 55.742 0.063 6.73 12.92 10.06
8/22/2021 12:15:00 AM 13.16 55.688 0.063 6.73 10.62 10.07
8/22/2021 12:30:00 AM 13.13 55.634 0.062 6.71 9.3 10.08
8/22/2021 12:45:00 AM 13.1 55.58 0.063 6.73 7.76 10.08
8/22/2021 1:00:00 AM 13.08 55.544 0.059 6.71 7.75 10.09
8/22/2021 1:15:00 AM 13.06 55.508 0.06 6.71 7.41 10.09
8/22/2021 1:30:00 AM 13.03 55.454 0.06 6.71 6.88 10.1
8/22/2021 1:45:00 AM 13.01 55.418 0.061 6.72 6.88 10.1
8/22/2021 2:00:00 AM 12.99 55.382 0.06 6.74 6.99 10.11
8/22/2021 2:15:00 AM 12.97 55.346 0.063 6.76 5.47 10.11
8/22/2021 2:30:00 AM 12.95 55.31 0.063 6.73 5.29 10.12
8/22/2021 2:45:00 AM 12.93 55.274 0.06 6.72 6.68 10.12
8/22/2021 3:00:00 AM 12.9 55.22 0.059 6.71 6.78 10.12
8/22/2021 3:15:00 AM 12.88 55.184 0.063 6.74 5.22 10.14
8/22/2021 3:30:00 AM 12.87 55.166 0.062 6.72 6.18 10.14
8/22/2021 3:45:00 AM 12.85 55.13 0.06 6.75 6.32 10.14
8/22/2021 4:00:00 AM 12.83 55.094 0.06 6.73 7.15 10.15
8/22/2021 4:15:00 AM 12.81 55.058 0.06 6.74 7.01 10.15
8/22/2021 4:30:00 AM 12.8 55.04 0.06 6.74 7.67 10.16
8/22/2021 4:45:00 AM 12.78 55.004 0.06 6.75 6.16 10.16
8/22/2021 5:00:00 AM 12.76 54.968 0.06 6.74 5.71 10.17
8/22/2021 5:15:00 AM 12.74 54.932 0.06 6.75 5.84 10.17
8/22/2021 5:30:00 AM 12.71 54.878 0.06 6.75 5.79 10.17
8/22/2021 5:45:00 AM 12.68 54.824 0.06 6.73 5.84 10.18
8/22/2021 6:00:00 AM 12.66 54.788 0.06 6.74 5.82 10.2
8/22/2021 6:15:00 AM 12.64 54.752 0.06 6.75 5.78 10.2
8/22/2021 6:30:00 AM 12.62 54.716 0.06 6.73 5.73 10.19
8/22/2021 6:45:00 AM 12.6 54.68 0.06 6.75 5.62 10.21
8/22/2021 7:00:00 AM 12.59 54.662 0.06 6.74 5.65 10.21
8/22/2021 7:15:00 AM 12.58 54.644 0.064 6.76 4.53 10.22
8/22/2021 7:30:00 AM 12.57 54.626 0.064 6.77 4.37 10.23
8/22/2021 7:45:00 AM 12.58 54.644 0.064 6.78 4.41 10.24
8/22/2021 8:00:00 AM 12.58 54.644 0.062 6.76 5.34 10.24
8/22/2021 8:15:00 AM 12.58 54.644 0.064 6.79 4.14 10.24
8/22/2021 8:30:00 AM 12.59 54.662 0.064 6.78 3.97 10.24
8/22/2021 8:45:00 AM 12.59 54.662 0.061 6.74 5.02 10.23
8/22/2021 9:00:00 AM 12.61 54.698 0.063 6.78 5.09 10.23
8/22/2021 9:15:00 AM 12.64 54.752 0.064 6.77 4.03 10.23
8/22/2021 9:30:00 AM 12.72 54.896 0.064 6.81 3.88 10.23
8/22/2021 9:45:00 AM 12.77 54.986 0.064 6.77 3.85 10.22
8/22/2021 10:00:00 AM 12.8 55.04 0.064 6.77 3.86 10.22
8/22/2021 10:15:00 AM 12.9 55.22 0.064 6.76 3.79 10.2
8/22/2021 10:30:00 AM 12.99 55.382 0.064 6.77 3.69 10.19
8/22/2021 10:45:00 AM 13.06 55.508 0.064 6.8 3.71 10.17
8/22/2021 11:00:00 AM 13.18 55.724 0.06 6.8 4.52 10.15
8/22/2021 11:15:00 AM 13.36 56.048 0.064 6.91 3.85 10.12
8/22/2021 11:30:00 AM 13.47 56.246 0.061 6.83 4.67 10.1
8/22/2021 11:45:00 AM 13.61 56.498 0.064 6.93 3.85 10.06
8/22/2021 12:00:00 PM 13.76 56.768 0.06 6.9 4.67 10.04
8/22/2021 12:15:00 PM 13.89 57.002 0.064 6.94 3.83 10.01
8/22/2021 12:30:00 PM 13.92 57.056 0.064 6.91 3.95 9.99
8/22/2021 12:45:00 PM 14.11 57.398 0.063 6.91 4.72 9.96
8/22/2021 1:00:00 PM 14.22 57.596 0.064 6.93 3.6 9.93
8/22/2021 1:15:00 PM 14.27 57.686 0.064 6.91 3.77 9.91
8/22/2021 1:30:00 PM 14.3 57.74 0.063 6.87 4.67 9.9
8/22/2021 1:45:00 PM 14.31 57.758 0.064 6.88 3.53 9.9
8/22/2021 2:00:00 PM 14.31 57.758 0.064 6.88 3.75 9.89
8/22/2021 2:15:00 PM 14.28 57.704 0.064 6.86 3.71 9.88
8/22/2021 2:30:00 PM 14.26 57.668 0.064 6.85 3.92 9.88
8/22/2021 2:45:00 PM 14.26 57.668 0.064 6.86 3.82 9.87
8/22/2021 3:00:00 PM 14.23 57.614 0.062 6.78 4.6 9.87
8/22/2021 3:15:00 PM 14.19 57.542 0.062 6.78 4.73 9.87
8/22/2021 3:30:00 PM 14.15 57.47 0.064 6.79 3.74 9.88
8/22/2021 3:45:00 PM 14.12 57.416 0.064 6.78 3.69 9.88
8/22/2021 4:00:00 PM 14.07 57.326 0.064 6.78 3.63 9.88
8/22/2021 4:15:00 PM 14.03 57.254 0.063 6.75 4.78 9.89
8/22/2021 4:30:00 PM 13.99 57.182 0.064 6.76 3.6 9.9
8/22/2021 4:45:00 PM 13.95 57.11 0.064 6.74 3.61 9.91
8/22/2021 5:00:00 PM 13.91 57.038 0.064 6.75 3.56 9.91
8/22/2021 5:15:00 PM 13.87 56.966 0.064 6.74 3.75 9.92
8/22/2021 5:30:00 PM 13.84 56.912 0.064 6.74 3.51 9.94
8/22/2021 5:45:00 PM 13.82 56.876 0.06 6.71 4.45 9.94
8/22/2021 6:00:00 PM 13.79 56.822 0.064 6.74 3.47 9.94
8/22/2021 6:15:00 PM 13.75 56.75 0.064 6.74 3.5 9.94
8/22/2021 6:30:00 PM 13.72 56.696 0.065 6.73 3.41 9.95
8/22/2021 6:45:00 PM 13.69 56.642 0.065 6.73 3.41 9.94
8/22/2021 7:00:00 PM 13.68 56.624 0.065 6.75 3.37 9.95
8/22/2021 7:15:00 PM 13.65 56.57 0.065 6.77 3.24 9.95
8/22/2021 7:30:00 PM 13.61 56.498 0.061 6.73 4.31 9.95
8/22/2021 7:45:00 PM 13.57 56.426 0.065 6.76 3.32 9.96
8/22/2021 8:00:00 PM 13.54 56.372 0.065 6.76 3.28 9.97
8/22/2021 8:15:00 PM 13.5 56.3 0.065 6.75 3.25 9.97
8/22/2021 8:30:00 PM 13.45 56.21 0.065 6.74 3.42 9.98
8/22/2021 8:45:00 PM 13.42 56.156 0.061 6.69 4.53 9.99
8/22/2021 9:00:00 PM 13.4 56.12 0.06 6.69 4.55 9.99
8/22/2021 9:15:00 PM 13.37 56.066 0.065 6.72 3.53 10
8/22/2021 9:30:00 PM 13.34 56.012 0.065 6.71 3.79 10
8/22/2021 9:45:00 PM 13.32 55.976 0.065 6.72 3.5 10.01
8/22/2021 10:00:00 PM 13.29 55.922 0.065 6.71 3.47 10.01
8/22/2021 10:15:00 PM 13.27 55.886 0.065 6.66 3.49 10.02
8/22/2021 10:30:00 PM 13.24 55.832 0.065 6.71 3.47 10.02
8/22/2021 10:45:00 PM 13.21 55.778 0.065 6.71 3.66 10.03
8/22/2021 11:00:00 PM 13.19 55.742 0.065 6.68 3.74 10.03
8/22/2021 11:15:00 PM 13.17 55.706 0.061 6.67 4.93 10.03
8/22/2021 11:30:00 PM 13.17 55.706 0.065 6.7 4.29 10.04
8/22/2021 11:45:00 PM 13.17 55.706 0.065 6.7 4.4 10.03
8/23/2021 12:00:00 AM 13.17 55.706 0.065 6.7 4.38 10.03
8/23/2021 12:15:00 AM 13.17 55.706 0.066 6.71 4.44 10.03
8/23/2021 12:30:00 AM 13.17 55.706 0.066 6.71 4.27 10.03
8/23/2021 12:45:00 AM 13.17 55.706 0.066 6.72 4.04 10.03
8/23/2021 1:00:00 AM 13.18 55.724 0.066 6.72 3.89 10.03
8/23/2021 1:15:00 AM 13.18 55.724 0.066 6.74 3.55 10.03
8/23/2021 1:30:00 AM 13.18 55.724 0.066 6.74 3.51 10.03
8/23/2021 1:45:00 AM 13.18 55.724 0.066 6.75 3.56 10.03
8/23/2021 2:00:00 AM 13.17 55.706 0.066 6.7 3.41 10.03
8/23/2021 2:15:00 AM 13.15 55.67 0.066 6.74 3.36 10.04
8/23/2021 2:30:00 AM 13.13 55.634 0.066 6.74 3.27 10.04
8/23/2021 2:45:00 AM 13.12 55.616 0.062 6.7 4.22 10.04
8/23/2021 3:00:00 AM 13.1 55.58 0.066 6.73 3.18 10.05
8/23/2021 3:15:00 AM 13.09 55.562 0.066 6.72 3.28 10.05
8/23/2021 3:30:00 AM 13.07 55.526 0.066 6.72 3.24 10.05
8/23/2021 3:45:00 AM 13.06 55.508 0.066 6.72 3.53 10.05
8/23/2021 4:00:00 AM 13.06 55.508 0.066 6.72 3.49 10.06
8/23/2021 4:15:00 AM 13.05 55.49 0.066 6.72 3.58 10.06
8/23/2021 4:30:00 AM 13.05 55.49 0.066 6.72 3.5 10.06
8/23/2021 4:45:00 AM 13.05 55.49 0.061 6.69 4.43 10.06
8/23/2021 5:00:00 AM 13.04 55.472 0.066 6.73 3.38 10.06
8/23/2021 5:15:00 AM 13.03 55.454 0.062 6.69 4.51 10.06
8/23/2021 5:30:00 AM 13.03 55.454 0.065 6.73 3.51 10.06
8/23/2021 5:45:00 AM 13.04 55.472 0.065 6.73 3.51 10.06
8/23/2021 6:00:00 AM 13.04 55.472 0.065 6.72 3.44 10.06
8/23/2021 6:15:00 AM 13.04 55.472 0.066 6.72 3.38 10.06
8/23/2021 6:30:00 AM 13.04 55.472 0.066 6.72 3.34 10.06
8/23/2021 6:45:00 AM 13.04 55.472 0.066 6.72 3.45 10.06
8/23/2021 7:00:00 AM 13.04 55.472 0.066 6.71 3.38 10.07
8/23/2021 7:15:00 AM 13.05 55.49 0.066 6.68 3.35 10.06
8/23/2021 7:30:00 AM 13.05 55.49 0.061 6.73 4.4 10.06
8/23/2021 7:45:00 AM 13.06 55.508 0.062 6.71 4.49 10.07
8/23/2021 8:00:00 AM 13.07 55.526 0.066 6.73 2.98 10.07
8/23/2021 8:15:00 AM 13.09 55.562 0.066 6.74 3.07 10.07
8/23/2021 8:30:00 AM 13.12 55.616 0.066 6.73 2.99 10.07
8/23/2021 8:45:00 AM 13.15 55.67 0.066 6.74 3.06 10.07
8/23/2021 9:00:00 AM 13.17 55.706 0.066 6.76 2.98 10.07
8/23/2021 9:15:00 AM 13.19 55.742 0.066 6.77 3.07 10.07
8/23/2021 9:30:00 AM 13.2 55.76 0.066 6.77 3.01 10.06
8/23/2021 9:45:00 AM 13.21 55.778 0.066 6.78 2.97 10.06
8/23/2021 10:00:00 AM 13.22 55.796 0.063 6.77 3.96 10.06
8/23/2021 10:15:00 AM 13.22 55.796 0.066 6.77 2.76 10.05
8/23/2021 10:30:00 AM 13.24 55.832 0.066 6.77 2.75 10.05
8/23/2021 10:45:00 AM 13.27 55.886 0.066 6.77 2.81 10.04
8/23/2021 11:00:00 AM 13.35 56.03 0.066 6.79 3.14 10.04
8/23/2021 11:15:00 AM 13.41 56.138 0.066 6.79 3.26 10.03
8/23/2021 11:30:00 AM 13.49 56.282 0.066 6.82 3.45 10.03
8/23/2021 11:45:00 AM 13.6 56.48 0.066 6.84 3.43 10.02
8/23/2021 12:00:00 PM 13.75 56.75 0.065 6.84 3.79 10
8/23/2021 12:15:00 PM 13.93 57.074 0.061 6.84 5.31 9.97
8/23/2021 12:30:00 PM 14.11 57.398 0.065 6.86 3.85 9.94
8/23/2021 12:45:00 PM 14.3 57.74 0.065 6.88 3.86 9.9
8/23/2021 1:00:00 PM 14.49 58.082 0.065 6.92 3.64 9.86
8/23/2021 1:15:00 PM 14.6 58.28 0.065 6.91 4.09 9.83
8/23/2021 1:30:00 PM 14.67 58.406 0.066 6.9 4.04 9.79
8/23/2021 1:45:00 PM 14.75 58.55 0.066 6.88 4.04 9.77
8/23/2021 2:00:00 PM 14.9 58.82 0.066 6.93 3.91 9.74
8/23/2021 2:15:00 PM 15.04 59.072 0.064 6.9 4.76 9.71
8/23/2021 2:30:00 PM 15.16 59.288 0.066 6.94 3.96 9.69
8/23/2021 2:45:00 PM 15.24 59.432 0.066 6.94 3.61 9.66
8/23/2021 3:00:00 PM 15.36 59.648 0.062 6.92 4.72 9.63
8/23/2021 3:15:00 PM 15.43 59.774 0.062 6.91 4.53 9.62
8/23/2021 3:30:00 PM 15.52 59.936 0.066 6.96 3.57 9.59
8/23/2021 3:45:00 PM 15.6 60.08 0.066 6.95 3.4 9.57
8/23/2021 4:00:00 PM 15.65 60.17 0.062 6.9 4.36 9.56
8/23/2021 4:15:00 PM 15.66 60.188 0.062 6.89 4.7 9.54
8/23/2021 4:30:00 PM 15.63 60.134 0.062 6.87 4.31 9.53
8/23/2021 4:45:00 PM 15.64 60.152 0.066 6.9 3.28 9.53
8/23/2021 5:00:00 PM 15.64 60.152 0.062 6.88 4.08 9.54
8/23/2021 5:15:00 PM 15.59 60.062 0.066 6.87 3.25 9.54
8/23/2021 5:30:00 PM 15.53 59.954 0.066 6.87 3.05 9.54
8/23/2021 5:45:00 PM 15.48 59.864 0.066 6.87 2.99 9.55
8/23/2021 6:00:00 PM 15.46 59.828 0.066 6.87 3.05 9.56
8/23/2021 6:15:00 PM 15.43 59.774 0.066 6.87 3.05 9.56
8/23/2021 6:30:00 PM 15.36 59.648 0.066 6.86 3.1 9.57
8/23/2021 6:45:00 PM 15.28 59.504 0.066 6.85 3.04 9.58
8/23/2021 7:00:00 PM 15.19 59.342 0.066 6.83 2.96 9.59
8/23/2021 7:15:00 PM 15.11 59.198 0.066 6.82 3 9.6
8/23/2021 7:30:00 PM 15.02 59.036 0.063 6.81 4.24 9.62
8/23/2021 7:45:00 PM 14.94 58.892 0.066 6.8 2.85 9.63
8/23/2021 8:00:00 PM 14.85 58.73 0.066 6.79 2.85 9.65
8/23/2021 8:15:00 PM 14.77 58.586 0.064 6.77 3.99 9.66
8/23/2021 8:30:00 PM 14.7 58.46 0.062 6.76 4.27 9.68
8/23/2021 8:45:00 PM 14.63 58.334 0.066 6.78 2.94 9.7
8/23/2021 9:00:00 PM 14.56 58.208 0.066 6.77 2.79 9.71
8/23/2021 9:15:00 PM 14.48 58.064 0.067 6.77 2.91 9.73
8/23/2021 9:30:00 PM 14.41 57.938 0.062 6.77 3.95 9.75
8/23/2021 9:45:00 PM 14.35 57.83 0.067 6.78 2.96 9.76
8/23/2021 10:00:00 PM 14.28 57.704 0.067 6.77 2.91 9.78
8/23/2021 10:15:00 PM 14.21 57.578 0.067 6.78 2.98 9.79
8/23/2021 10:30:00 PM 14.15 57.47 0.067 6.76 2.95 9.81
8/23/2021 10:45:00 PM 14.09 57.362 0.067 6.77 2.9 9.82
8/23/2021 11:00:00 PM 14.03 57.254 0.067 6.77 2.9 9.84
8/23/2021 11:15:00 PM 13.97 57.146 0.063 6.76 3.97 9.85
8/23/2021 11:30:00 PM 13.92 57.056 0.067 6.78 2.81 9.87
8/23/2021 11:45:00 PM 13.87 56.966 0.067 6.78 2.77 9.88
8/24/2021 12:00:00 AM 13.82 56.876 0.067 6.78 3.14 9.89
8/24/2021 12:15:00 AM 13.77 56.786 0.067 6.78 2.81 9.9
8/24/2021 12:30:00 AM 13.73 56.714 0.067 6.78 2.88 9.91
8/24/2021 12:45:00 AM 13.68 56.624 0.067 6.79 3.07 9.93
8/24/2021 1:00:00 AM 13.64 56.552 0.067 6.78 3.06 9.94
8/24/2021 1:15:00 AM 13.6 56.48 0.067 6.78 2.95 9.94
8/24/2021 1:30:00 AM 13.56 56.408 0.067 6.78 4.28 9.95
8/24/2021 1:45:00 AM 13.52 56.336 0.063 6.77 6.22 9.96
8/24/2021 2:00:00 AM 13.48 56.264 0.067 6.79 3.69 9.97
8/24/2021 2:15:00 AM 13.45 56.21 0.067 6.79 3.2 9.98
8/24/2021 2:30:00 AM 13.42 56.156 0.067 6.79 2.89 9.99
8/24/2021 2:45:00 AM 13.39 56.102 0.067 6.76 3.1 10
8/24/2021 3:00:00 AM 13.36 56.048 0.067 6.8 2.91 10
8/24/2021 3:15:00 AM 13.33 55.994 0.067 6.79 2.95 10.01
8/24/2021 3:30:00 AM 13.3 55.94 0.067 6.74 3.37 10.02
8/24/2021 3:45:00 AM 13.28 55.904 0.067 6.79 3.14 10.03
8/24/2021 4:00:00 AM 13.25 55.85 0.067 6.78 3.07 10.03
8/24/2021 4:15:00 AM 13.24 55.832 0.063 6.78 4.08 10.04
8/24/2021 4:30:00 AM 13.22 55.796 0.067 6.79 2.97 10.04
8/24/2021 4:45:00 AM 13.19 55.742 0.063 6.77 4.4 10.05
8/24/2021 5:00:00 AM 13.17 55.706 0.067 6.79 3.79 10.05
8/24/2021 5:15:00 AM 13.14 55.652 0.067 6.78 3.25 10.06
8/24/2021 5:30:00 AM 13.12 55.616 0.067 6.79 5.82 10.06
8/24/2021 5:45:00 AM 13.1 55.58 0.067 6.79 6.04 10.07
8/24/2021 6:00:00 AM 13.08 55.544 0.067 6.78 4.13 10.07
8/24/2021 6:15:00 AM 13.06 55.508 0.067 6.78 3.29 10.08
8/24/2021 6:30:00 AM 13.04 55.472 0.067 6.78 3.1 10.09
8/24/2021 6:45:00 AM 13.02 55.436 0.067 6.78 2.95 10.09
8/24/2021 7:00:00 AM 13 55.4 0.067 6.78 3 10.1
8/24/2021 7:15:00 AM 12.99 55.382 0.067 6.78 2.81 10.11
8/24/2021 7:30:00 AM 12.98 55.364 0.067 6.78 2.85 10.12
8/24/2021 7:45:00 AM 12.98 55.364 0.066 6.78 3.91 10.13
8/24/2021 8:00:00 AM 12.98 55.364 0.067 6.8 2.66 10.13
8/24/2021 8:15:00 AM 12.98 55.364 0.067 6.79 2.65 10.14
8/24/2021 8:30:00 AM 13 55.4 0.067 6.8 2.55 10.14
8/24/2021 8:45:00 AM 13.03 55.454 0.067 6.8 2.47 10.15
8/24/2021 9:00:00 AM 13.08 55.544 0.068 6.81 2.44 10.14
8/24/2021 9:15:00 AM 13.14 55.652 0.068 6.82 2.4 10.14
8/24/2021 9:30:00 AM 13.2 55.76 0.068 6.84 2.46 10.13
8/24/2021 9:45:00 AM 13.29 55.922 0.067 6.88 2.29 10.12
8/24/2021 10:00:00 AM 13.39 56.102 0.067 6.89 2.28 10.1
8/24/2021 10:15:00 AM 13.49 56.282 0.067 6.9 2.36 10.09
8/24/2021 10:30:00 AM 13.6 56.48 0.067 6.91 2.36 10.07
8/24/2021 10:45:00 AM 13.72 56.696 0.067 6.92 2.4 10.05
8/24/2021 11:00:00 AM 13.84 56.912 0.067 6.89 2.42 10.03
8/24/2021 11:15:00 AM 13.96 57.128 0.067 6.93 2.35 10
8/24/2021 11:30:00 AM 14.09 57.362 0.067 6.94 2.37 9.99
8/24/2021 11:45:00 AM 14.24 57.632 0.063 6.91 3.63 9.95
8/24/2021 12:00:00 PM 14.38 57.884 0.067 6.95 2.44 9.92
8/24/2021 12:15:00 PM 14.54 58.172 0.067 6.95 2.42 9.89
8/24/2021 12:30:00 PM 14.69 58.442 0.067 6.95 2.32 9.86
8/24/2021 12:45:00 PM 14.83 58.694 0.067 6.95 2.47 9.82
8/24/2021 1:00:00 PM 14.96 58.928 0.065 6.94 3.58 9.8
8/24/2021 1:15:00 PM 15.08 59.144 0.063 6.93 3.5 9.77
8/24/2021 1:30:00 PM 15.2 59.36 0.067 6.95 2.49 9.74
8/24/2021 1:45:00 PM 15.31 59.558 0.063 6.92 3.55 9.71
8/24/2021 2:00:00 PM 15.42 59.756 0.067 6.95 2.39 9.69
8/24/2021 2:15:00 PM 15.51 59.918 0.067 6.95 2.57 9.66
8/24/2021 2:30:00 PM 15.59 60.062 0.066 6.91 3.5 9.63
8/24/2021 2:45:00 PM 15.67 60.206 0.066 6.91 3.7 9.61
8/24/2021 3:00:00 PM 15.74 60.332 0.066 6.9 3.55 9.6
8/24/2021 3:15:00 PM 15.82 60.476 0.067 6.93 2.53 9.57
8/24/2021 3:30:00 PM 15.88 60.584 0.067 6.93 2.67 9.56
8/24/2021 3:45:00 PM 15.93 60.674 0.064 6.91 3.71 9.54
8/24/2021 4:00:00 PM 15.97 60.746 0.066 6.9 3.86 9.53
8/24/2021 4:15:00 PM 16 60.8 0.067 6.87 2.87 9.52
8/24/2021 4:30:00 PM 16 60.8 0.064 6.9 3.76 9.51
8/24/2021 4:45:00 PM 15.99 60.782 0.068 6.9 2.67 9.51
8/24/2021 5:00:00 PM 15.99 60.782 0.068 6.91 2.69 9.5
8/24/2021 5:15:00 PM 15.95 60.71 0.068 6.89 2.74 9.5
8/24/2021 5:30:00 PM 15.87 60.566 0.068 6.87 2.74 9.51
8/24/2021 5:45:00 PM 15.78 60.404 0.068 6.86 2.64 9.52
8/24/2021 6:00:00 PM 15.71 60.278 0.068 6.81 2.59 9.53
8/24/2021 6:15:00 PM 15.65 60.17 0.068 6.83 2.79 9.54
8/24/2021 6:30:00 PM 15.57 60.026 0.064 6.83 3.85 9.55
8/24/2021 6:45:00 PM 15.48 59.864 0.064 6.81 3.66 9.56
8/24/2021 7:00:00 PM 15.38 59.684 0.068 6.82 2.71 9.58
8/24/2021 7:15:00 PM 15.28 59.504 0.068 6.81 2.65 9.6
8/24/2021 7:30:00 PM 15.18 59.324 0.064 6.79 3.64 9.61
8/24/2021 7:45:00 PM 15.1 59.18 0.068 6.8 2.54 9.63
8/24/2021 8:00:00 PM 15.01 59.018 0.064 6.78 3.5 9.64
8/24/2021 8:15:00 PM 14.93 58.874 0.068 6.8 2.72 9.65
8/24/2021 8:30:00 PM 14.85 58.73 0.068 6.79 2.66 9.67
8/24/2021 8:45:00 PM 14.78 58.604 0.068 6.78 2.67 9.68
8/24/2021 9:00:00 PM 14.72 58.496 0.068 6.78 2.73 9.7
8/24/2021 9:15:00 PM 14.66 58.388 0.069 6.78 2.68 9.71
8/24/2021 9:30:00 PM 14.6 58.28 0.069 6.78 2.62 9.72
8/24/2021 9:45:00 PM 14.54 58.172 0.069 6.78 2.64 9.74
8/24/2021 10:00:00 PM 14.48 58.064 0.065 6.76 3.76 9.76
8/24/2021 10:15:00 PM 14.42 57.956 0.067 6.78 3.88 9.77
8/24/2021 10:30:00 PM 14.36 57.848 0.069 6.78 2.82 9.78
8/24/2021 10:45:00 PM 14.31 57.758 0.069 6.78 2.68 9.79
8/24/2021 11:00:00 PM 14.26 57.668 0.065 6.77 3.76 9.81
8/24/2021 11:15:00 PM 14.2 57.56 0.069 6.79 2.6 9.82
8/24/2021 11:30:00 PM 14.15 57.47 0.069 6.79 2.54 9.84
8/24/2021 11:45:00 PM 14.1 57.38 0.069 6.79 2.58 9.84
8/25/2021 12:00:00 AM 14.05 57.29 0.065 6.78 3.68 9.86
8/25/2021 12:15:00 AM 14 57.2 0.069 6.79 2.68 9.87
8/25/2021 12:30:00 AM 13.96 57.128 0.069 6.8 2.62 9.89
8/25/2021 12:45:00 AM 13.91 57.038 0.069 6.8 2.53 9.89
8/25/2021 1:00:00 AM 13.86 56.948 0.069 6.8 2.59 9.9
8/25/2021 1:15:00 AM 13.82 56.876 0.069 6.79 2.59 9.91
8/25/2021 1:30:00 AM 13.78 56.804 0.069 6.8 2.64 9.93
8/25/2021 1:45:00 AM 13.74 56.732 0.069 6.8 2.53 9.94
8/25/2021 2:00:00 AM 13.7 56.66 0.069 6.8 2.43 9.95
8/25/2021 2:15:00 AM 13.66 56.588 0.069 6.79 2.36 9.96
8/25/2021 2:30:00 AM 13.62 56.516 0.069 6.8 2.33 9.97
8/25/2021 2:45:00 AM 13.58 56.444 0.069 6.81 2.45 9.98
8/25/2021 3:00:00 AM 13.55 56.39 0.069 6.8 2.37 9.98
8/25/2021 3:15:00 AM 13.51 56.318 0.069 6.8 2.31 9.99
8/25/2021 3:30:00 AM 13.48 56.264 0.069 6.79 2.45 10
8/25/2021 3:45:00 AM 13.44 56.192 0.065 6.8 3.66 10.01
8/25/2021 4:00:00 AM 13.41 56.138 0.069 6.8 2.39 10.02
8/25/2021 4:15:00 AM 13.38 56.084 0.069 6.8 2.64 10.03
8/25/2021 4:30:00 AM 13.35 56.03 0.069 6.8 2.36 10.03
8/25/2021 4:45:00 AM 13.31 55.958 0.069 6.8 2.32 10.04
8/25/2021 5:00:00 AM 13.29 55.922 0.069 6.8 2.26 10.05
8/25/2021 5:15:00 AM 13.26 55.868 0.069 6.8 2.3 10.06
8/25/2021 5:30:00 AM 13.24 55.832 0.065 6.79 3.45 10.06
8/25/2021 5:45:00 AM 13.22 55.796 0.069 6.81 2.44 10.07
8/25/2021 6:00:00 AM 13.2 55.76 0.069 6.8 2.34 10.07
8/25/2021 6:15:00 AM 13.18 55.724 0.069 6.81 2.25 10.08
8/25/2021 6:30:00 AM 13.16 55.688 0.069 6.8 2.29 10.09
8/25/2021 6:45:00 AM 13.15 55.67 0.069 6.81 2.31 10.09
8/25/2021 7:00:00 AM 13.13 55.634 0.07 6.76 2.31 10.1
8/25/2021 7:15:00 AM 13.13 55.634 0.07 6.82 2.4 10.11
8/25/2021 7:30:00 AM 13.13 55.634 0.07 6.84 2.26 10.12
8/25/2021 7:45:00 AM 13.14 55.652 0.066 6.84 3.62 10.13
8/25/2021 8:00:00 AM 13.14 55.652 0.07 6.85 2.12 10.14
8/25/2021 8:15:00 AM 13.15 55.67 0.07 6.85 2.23 10.15
8/25/2021 8:30:00 AM 13.16 55.688 0.07 6.86 2.19 10.15
8/25/2021 8:45:00 AM 13.18 55.724 0.07 6.86 2.1 10.16
8/25/2021 9:00:00 AM 13.21 55.778 0.07 6.87 2.12 10.16
8/25/2021 9:15:00 AM 13.24 55.832 0.069 6.87 2.19 10.16
8/25/2021 9:30:00 AM 13.27 55.886 0.069 6.87 2.16 10.16
8/25/2021 9:45:00 AM 13.33 55.994 0.07 6.87 2.25 10.16
8/25/2021 10:00:00 AM 13.41 56.138 0.07 6.88 2.18 10.15
8/25/2021 10:15:00 AM 13.51 56.318 0.07 6.89 2.1 10.14
8/25/2021 10:30:00 AM 13.61 56.498 0.07 6.89 2.12 10.12
8/25/2021 10:45:00 AM 13.71 56.678 0.07 6.92 2.07 10.1
8/25/2021 11:00:00 AM 13.82 56.876 0.07 6.93 2.07 10.09
8/25/2021 11:15:00 AM 13.97 57.146 0.069 6.95 2.09 10.06
8/25/2021 11:30:00 AM 14.13 57.434 0.069 6.97 2.01 10.02
8/25/2021 11:45:00 AM 14.29 57.722 0.069 6.99 1.98 9.99
8/25/2021 12:00:00 PM 14.43 57.974 0.069 6.99 2.05 9.96
8/25/2021 12:15:00 PM 14.57 58.226 0.069 7 2.09 9.92
8/25/2021 12:30:00 PM 14.8 58.64 0.069 6.98 2.19 9.89
8/25/2021 12:45:00 PM 14.96 58.928 0.069 7 2.03 9.85
8/25/2021 1:00:00 PM 15.1 59.18 0.069 7.01 1.98 9.82
8/25/2021 1:15:00 PM 15.17 59.306 0.069 6.99 2.11 9.79
8/25/2021 1:30:00 PM 15.29 59.522 0.069 7.01 2.06 9.76
8/25/2021 1:45:00 PM 15.45 59.81 0.069 7.02 2.26 9.73
8/25/2021 2:00:00 PM 15.58 60.044 0.069 7.01 2.17 9.7
8/25/2021 2:15:00 PM 15.67 60.206 0.069 6.99 2.15 9.67
8/25/2021 2:30:00 PM 15.79 60.422 0.069 7 2.17 9.64
8/25/2021 2:45:00 PM 15.89 60.602 0.069 6.99 2.15 9.61
8/25/2021 3:00:00 PM 16.01 60.818 0.065 6.98 3.29 9.59
8/25/2021 3:15:00 PM 16.09 60.962 0.069 7 2.14 9.57
8/25/2021 3:30:00 PM 16.15 61.07 0.065 6.96 3.28 9.55
8/25/2021 3:45:00 PM 16.18 61.124 0.065 6.94 3.28 9.54
8/25/2021 4:00:00 PM 16.15 61.07 0.069 6.96 1.99 9.54
8/25/2021 4:15:00 PM 16.11 60.998 0.065 6.93 3.23 9.54
8/25/2021 4:30:00 PM 16.08 60.944 0.069 6.94 2.09 9.54
8/25/2021 4:45:00 PM 16.08 60.944 0.065 6.93 3.29 9.53
8/25/2021 5:00:00 PM 16.11 60.998 0.069 6.95 2.07 9.52
8/25/2021 5:15:00 PM 16.17 61.106 0.069 6.97 2.12 9.51
8/25/2021 5:30:00 PM 16.16 61.088 0.069 6.94 2.09 9.5
8/25/2021 5:45:00 PM 16.12 61.016 0.069 6.93 2.06 9.52
8/25/2021 6:00:00 PM 16.03 60.854 0.066 6.91 3.23 9.53
8/25/2021 6:15:00 PM 15.94 60.692 0.07 6.91 2.01 9.54
8/25/2021 6:30:00 PM 15.82 60.476 0.068 6.89 3.04 9.55
8/25/2021 6:45:00 PM 15.72 60.296 0.068 6.87 3.2 9.55
8/25/2021 7:00:00 PM 15.63 60.134 0.07 6.87 1.93 9.55
8/25/2021 7:15:00 PM 15.55 59.99 0.07 6.86 1.95 9.56
8/25/2021 7:30:00 PM 15.48 59.864 0.07 6.85 2.02 9.56
8/25/2021 7:45:00 PM 15.43 59.774 0.07 6.84 2.05 9.57
8/25/2021 8:00:00 PM 15.37 59.666 0.07 6.83 1.98 9.57
8/25/2021 8:15:00 PM 15.3 59.54 0.066 6.83 3.22 9.57
8/25/2021 8:30:00 PM 15.24 59.432 0.068 6.82 3.34 9.59
8/25/2021 8:45:00 PM 15.17 59.306 0.066 6.81 3.15 9.6
8/25/2021 9:00:00 PM 15.11 59.198 0.07 6.8 2.04 9.61
8/25/2021 9:15:00 PM 15.06 59.108 0.07 6.81 2 9.62
8/25/2021 9:30:00 PM 15 59 0.07 6.81 2.02 9.63
8/25/2021 9:45:00 PM 14.95 58.91 0.068 6.8 3.31 9.64
8/25/2021 10:00:00 PM 14.89 58.802 0.071 6.81 2 9.66
8/25/2021 10:15:00 PM 14.84 58.712 0.071 6.81 2.07 9.67
8/25/2021 10:30:00 PM 14.79 58.622 0.071 6.79 2.05 9.68
8/25/2021 10:45:00 PM 14.74 58.532 0.071 6.82 1.99 9.69
8/25/2021 11:00:00 PM 14.69 58.442 0.071 6.81 2.01 9.7
8/25/2021 11:15:00 PM 14.64 58.352 0.067 6.8 3.16 9.71
8/25/2021 11:30:00 PM 14.59 58.262 0.071 6.82 2.07 9.73
8/25/2021 11:45:00 PM 14.55 58.19 0.067 6.81 3.23 9.74
8/26/2021 12:00:00 AM 14.5 58.1 0.071 6.82 2.1 9.75
8/26/2021 12:15:00 AM 14.45 58.01 0.067 6.81 3.27 9.76
8/26/2021 12:30:00 AM 14.41 57.938 0.071 6.82 2.18 9.77
8/26/2021 12:45:00 AM 14.37 57.866 0.071 6.82 2 9.78
8/26/2021 1:00:00 AM 14.33 57.794 0.071 6.83 2.02 9.79
8/26/2021 1:15:00 AM 14.29 57.722 0.071 6.78 1.97 9.8
8/26/2021 1:30:00 AM 14.25 57.65 0.067 6.82 3.21 9.81
8/26/2021 1:45:00 AM 14.22 57.596 0.071 6.82 1.99 9.82
8/26/2021 2:00:00 AM 14.18 57.524 0.071 6.78 1.83 9.83
8/26/2021 2:15:00 AM 14.15 57.47 0.071 6.82 1.94 9.83
8/26/2021 2:30:00 AM 14.11 57.398 0.071 6.82 1.9 9.84
8/26/2021 2:45:00 AM 14.08 57.344 0.071 6.82 1.94 9.85
8/26/2021 3:00:00 AM 14.05 57.29 0.071 6.82 1.9 9.85
8/26/2021 3:15:00 AM 14.02 57.236 0.071 6.83 1.91 9.86
8/26/2021 3:30:00 AM 13.99 57.182 0.071 6.83 1.99 9.88
8/26/2021 3:45:00 AM 13.96 57.128 0.071 6.82 2.04 9.88
8/26/2021 4:00:00 AM 13.93 57.074 0.071 6.83 1.93 9.89
8/26/2021 4:15:00 AM 13.9 57.02 0.071 6.83 1.98 9.89
8/26/2021 4:30:00 AM 13.87 56.966 0.067 6.81 3.14 9.9
8/26/2021 4:45:00 AM 13.84 56.912 0.069 6.82 3.01 9.91
8/26/2021 5:00:00 AM 13.82 56.876 0.071 6.83 1.89 9.91
8/26/2021 5:15:00 AM 13.8 56.84 0.071 6.83 1.92 9.92
8/26/2021 5:30:00 AM 13.77 56.786 0.071 6.82 1.79 9.92
8/26/2021 5:45:00 AM 13.75 56.75 0.071 6.84 1.84 9.93
8/26/2021 6:00:00 AM 13.73 56.714 0.071 6.84 1.9 9.94
8/26/2021 6:15:00 AM 13.71 56.678 0.071 6.81 1.91 9.94
8/26/2021 6:30:00 AM 13.7 56.66 0.071 6.84 1.96 9.95
8/26/2021 6:45:00 AM 13.68 56.624 0.071 6.84 1.84 9.95
8/26/2021 7:00:00 AM 13.66 56.588 0.071 6.8 1.8 9.96
8/26/2021 7:15:00 AM 13.65 56.57 0.071 6.85 1.83 9.97
8/26/2021 7:30:00 AM 13.65 56.57 0.071 6.85 1.77 9.98
8/26/2021 7:45:00 AM 13.64 56.552 0.071 6.85 1.83 9.99
8/26/2021 8:00:00 AM 13.65 56.57 0.071 6.86 1.81 10
8/26/2021 8:15:00 AM 13.66 56.588 0.07 6.86 2.9 10.02
8/26/2021 8:30:00 AM 13.7 56.66 0.071 6.89 1.82 10.03
8/26/2021 8:45:00 AM 13.72 56.696 0.071 6.89 1.74 10.04
8/26/2021 9:00:00 AM 13.75 56.75 0.071 6.9 1.71 10.05
8/26/2021 9:15:00 AM 13.82 56.876 0.071 6.91 1.81 10.05
8/26/2021 9:30:00 AM 13.83 56.894 0.071 6.9 1.77 10.05
8/26/2021 9:45:00 AM 13.86 56.948 0.071 6.89 1.8 10.05
8/26/2021 10:00:00 AM 13.88 56.984 0.071 6.89 1.78 10.04
8/26/2021 10:15:00 AM 13.95 57.11 0.071 6.91 1.75 10.05
8/26/2021 10:30:00 AM 14.03 57.254 0.071 6.93 1.82 10.04
8/26/2021 10:45:00 AM 14.11 57.398 0.071 6.9 1.76 10.03
8/26/2021 11:00:00 AM 14.19 57.542 0.071 6.96 1.7 10.02
8/26/2021 11:15:00 AM 14.37 57.866 0.071 6.94 1.75 10
8/26/2021 11:30:00 AM 14.51 58.118 0.071 6.98 1.72 9.98
8/26/2021 11:45:00 AM 14.55 58.19 0.071 6.98 1.82 9.96
8/26/2021 12:00:00 PM 14.58 58.244 0.071 6.96 1.71 9.93
8/26/2021 12:15:00 PM 14.59 58.262 0.071 6.97 1.72 9.92
8/26/2021 12:30:00 PM 14.64 58.352 0.071 6.97 1.74 9.91
8/26/2021 12:45:00 PM 14.73 58.514 0.071 6.99 1.71 9.9
8/26/2021 1:00:00 PM 14.81 58.658 0.071 7.01 1.76 9.89
8/26/2021 1:15:00 PM 14.91 58.838 0.067 6.99 2.64 9.87
8/26/2021 1:30:00 PM 14.97 58.946 0.067 6.99 2.74 9.86
8/26/2021 1:45:00 PM 15.12 59.216 0.071 7.03 1.69 9.84
8/26/2021 2:00:00 PM 15.25 59.45 0.067 7.01 2.92 9.81
8/26/2021 2:15:00 PM 15.37 59.666 0.071 7.04 1.64 9.79
8/26/2021 2:30:00 PM 15.44 59.792 0.071 7.03 1.74 9.76
8/26/2021 2:45:00 PM 15.53 59.954 0.071 7.03 1.76 9.73
8/26/2021 3:00:00 PM 15.58 60.044 0.071 7.02 1.77 9.72
8/26/2021 3:15:00 PM 15.65 60.17 0.067 6.99 2.99 9.7
8/26/2021 3:30:00 PM 15.72 60.296 0.071 7.02 1.74 9.67
8/26/2021 3:45:00 PM 15.74 60.332 0.071 7 1.73 9.66
8/26/2021 4:00:00 PM 15.74 60.332 0.067 6.96 3.04 9.65
8/26/2021 4:15:00 PM 15.74 60.332 0.066 6.95 2.88 9.64
8/26/2021 4:30:00 PM 15.72 60.296 0.067 6.94 2.81 9.63
8/26/2021 4:45:00 PM 15.7 60.26 0.071 6.97 1.78 9.63
8/26/2021 5:00:00 PM 15.68 60.224 0.067 6.94 2.88 9.62
8/26/2021 5:15:00 PM 15.65 60.17 0.071 6.95 1.8 9.62
8/26/2021 5:30:00 PM 15.63 60.134 0.067 6.92 2.77 9.62
8/26/2021 5:45:00 PM 15.6 60.08 0.067 6.92 2.84 9.62
8/26/2021 6:00:00 PM 15.57 60.026 0.067 6.91 2.69 9.62
8/26/2021 6:15:00 PM 15.53 59.954 0.071 6.88 1.78 9.62
8/26/2021 6:30:00 PM 15.49 59.882 0.071 6.93 1.7 9.62
8/26/2021 6:45:00 PM 15.45 59.81 0.071 6.89 1.67 9.62
8/26/2021 7:00:00 PM 15.41 59.738 0.071 6.91 1.67 9.62
8/26/2021 7:15:00 PM 15.37 59.666 0.071 6.9 1.75 9.61
8/26/2021 7:30:00 PM 15.32 59.576 0.072 6.9 1.86 9.61
8/26/2021 7:45:00 PM 15.27 59.486 0.072 6.88 1.71 9.6
8/26/2021 8:00:00 PM 15.23 59.414 0.072 6.86 1.8 9.6
8/26/2021 8:15:00 PM 15.18 59.324 0.072 6.88 1.77 9.6
8/26/2021 8:30:00 PM 15.14 59.252 0.07 6.86 2.94 9.61
8/26/2021 8:45:00 PM 15.09 59.162 0.072 6.85 1.78 9.62
8/26/2021 9:00:00 PM 15.05 59.09 0.07 6.84 2.93 9.63
8/26/2021 9:15:00 PM 15.01 59.018 0.072 6.84 1.7 9.63
8/26/2021 9:30:00 PM 14.96 58.928 0.07 6.82 2.85 9.64
8/26/2021 9:45:00 PM 14.92 58.856 0.072 6.82 1.72 9.65
8/26/2021 10:00:00 PM 14.89 58.802 0.072 6.84 1.77 9.66
8/26/2021 10:15:00 PM 14.85 58.73 0.072 6.81 1.73 9.67
8/26/2021 10:30:00 PM 14.82 58.676 0.072 6.85 1.8 9.67
8/26/2021 10:45:00 PM 14.8 58.64 0.072 6.85 1.69 9.68
8/26/2021 11:00:00 PM 14.77 58.586 0.072 6.85 1.75 9.69
8/26/2021 11:15:00 PM 14.74 58.532 0.072 6.84 1.69 9.69
8/26/2021 11:30:00 PM 14.71 58.478 0.068 6.89 2.9 9.7
8/26/2021 11:45:00 PM 14.68 58.424 0.073 6.91 1.7 9.71
8/27/2021 12:00:00 AM 14.64 58.352 0.068 6.89 2.91 9.72
8/27/2021 12:15:00 AM 14.6 58.28 0.073 6.9 1.78 9.73
8/27/2021 12:30:00 AM 14.58 58.244 0.073 6.9 1.76 9.73
8/27/2021 12:45:00 AM 14.57 58.226 0.073 6.92 1.75 9.74
8/27/2021 1:00:00 AM 14.55 58.19 0.072 6.92 1.81 9.74
8/27/2021 1:15:00 AM 14.52 58.136 0.068 6.92 2.8 9.75
8/27/2021 1:30:00 AM 14.49 58.082 0.072 6.92 1.71 9.75
8/27/2021 1:45:00 AM 14.46 58.028 0.071 6.91 2.87 9.76
8/27/2021 2:00:00 AM 14.42 57.956 0.072 6.92 1.72 9.76
8/27/2021 2:15:00 AM 14.39 57.902 0.072 6.92 1.64 9.77
8/27/2021 2:30:00 AM 14.36 57.848 0.072 6.92 1.62 9.78
8/27/2021 2:45:00 AM 14.33 57.794 0.072 6.91 1.65 9.78
8/27/2021 3:00:00 AM 14.31 57.758 0.072 6.91 1.62 9.78
8/27/2021 3:15:00 AM 14.29 57.722 0.068 6.88 2.59 9.78
8/27/2021 3:30:00 AM 14.27 57.686 0.073 6.91 1.78 9.79
8/27/2021 3:45:00 AM 14.25 57.65 0.073 6.91 1.7 9.79
8/27/2021 4:00:00 AM 14.22 57.596 0.073 6.91 1.64 9.8
8/27/2021 4:15:00 AM 14.2 57.56 0.073 6.92 1.6 9.8
8/27/2021 4:30:00 AM 14.18 57.524 0.071 6.89 2.73 9.81
8/27/2021 4:45:00 AM 14.16 57.488 0.073 6.91 1.53 9.82
8/27/2021 5:00:00 AM 14.13 57.434 0.073 6.9 1.51 9.82
8/27/2021 5:15:00 AM 14.11 57.398 0.073 6.9 1.55 9.83
8/27/2021 5:30:00 AM 14.08 57.344 0.073 6.91 1.53 9.83
8/27/2021 5:45:00 AM 14.06 57.308 0.073 6.91 1.58 9.84
8/27/2021 6:00:00 AM 14.04 57.272 0.073 6.92 1.58 9.84
8/27/2021 6:15:00 AM 14.02 57.236 0.073 6.92 1.6 9.85
8/27/2021 6:30:00 AM 14 57.2 0.073 6.92 1.65 9.86
8/27/2021 6:45:00 AM 13.99 57.182 0.073 6.92 1.68 9.86
8/27/2021 7:00:00 AM 13.97 57.146 0.068 6.89 2.74 9.87
8/27/2021 7:15:00 AM 13.96 57.128 0.073 6.93 1.64 9.88
8/27/2021 7:30:00 AM 13.95 57.11 0.073 6.93 1.58 9.89
8/27/2021 7:45:00 AM 13.95 57.11 0.073 6.94 1.52 9.91
8/27/2021 8:00:00 AM 13.95 57.11 0.073 6.95 1.52 9.93
8/27/2021 8:15:00 AM 13.95 57.11 0.071 6.94 2.63 9.95
8/27/2021 8:30:00 AM 13.96 57.128 0.073 6.93 1.45 9.95
8/27/2021 8:45:00 AM 13.97 57.146 0.073 6.97 1.53 9.96
8/27/2021 9:00:00 AM 14 57.2 0.073 6.98 1.51 9.98
8/27/2021 9:15:00 AM 14.03 57.254 0.073 6.98 1.49 9.99
8/27/2021 9:30:00 AM 14.07 57.326 0.073 6.97 1.54 10
8/27/2021 9:45:00 AM 14.12 57.416 0.073 7 1.45 10.01
8/27/2021 10:00:00 AM 14.17 57.506 0.073 7 1.47 10.01
8/27/2021 10:15:00 AM 14.24 57.632 0.073 7.01 1.42 10
8/27/2021 10:30:00 AM 14.27 57.686 0.073 7.01 1.46 10
8/27/2021 10:45:00 AM 14.38 57.884 0.073 7.03 1.49 9.99
8/27/2021 11:00:00 AM 14.47 58.046 0.073 7.03 1.51 9.98
8/27/2021 11:15:00 AM 14.59 58.262 0.073 7.04 1.49 9.96
8/27/2021 11:30:00 AM 14.73 58.514 0.068 7.01 2.66 9.94
8/27/2021 11:45:00 AM 14.91 58.838 0.073 7.08 1.49 9.91
8/27/2021 12:00:00 PM 15.09 59.162 0.069 7.05 2.64 9.86
8/27/2021 12:15:00 PM 15.33 59.594 0.073 7.1 1.42 9.82
8/27/2021 12:30:00 PM 15.54 59.972 0.073 7.1 1.58 9.77
8/27/2021 12:45:00 PM 15.72 60.296 0.071 7.05 2.68 9.72
8/27/2021 1:00:00 PM 15.94 60.692 0.073 7.11 1.5 9.68
8/27/2021 1:15:00 PM 16.09 60.962 0.072 7.1 1.46 9.64
8/27/2021 1:30:00 PM 16.27 61.286 0.071 7.07 2.6 9.6
8/27/2021 1:45:00 PM 16.36 61.448 0.072 7.08 1.48 9.57
8/27/2021 2:00:00 PM 16.49 61.682 0.072 7.07 1.49 9.54
8/27/2021 2:15:00 PM 16.49 61.682 0.072 7.04 1.61 9.53
8/27/2021 2:30:00 PM 16.49 61.682 0.072 7.04 1.63 9.49
8/27/2021 2:45:00 PM 16.49 61.682 0.07 7.05 2.97 9.45
8/27/2021 3:00:00 PM 16.55 61.79 0.07 7.04 4.71 9.42
8/27/2021 3:15:00 PM 16.55 61.79 0.068 6.97 5.43 9.38
8/27/2021 3:30:00 PM 16.5 61.7 0.065 6.94 5.6 9.38
8/27/2021 3:45:00 PM 16.47 61.646 0.064 6.94 9.85 9.41
8/27/2021 4:00:00 PM 16.43 61.574 0.063 6.92 23.62 9.43
8/27/2021 4:15:00 PM 16.45 61.61 0.059 6.9 35.27 9.41
8/27/2021 4:30:00 PM 16.6 61.88 0.059 6.83 45 9.35
8/27/2021 4:45:00 PM 16.67 62.006 0.053 6.83 70.26 9.34
8/27/2021 5:00:00 PM 16.71 62.078 0.065 6.91 56.06 9.33
8/27/2021 5:15:00 PM 16.87 62.366 0.066 6.94 53.26 9.29
8/27/2021 5:30:00 PM 16.9 62.42 0.063 6.9 64.76 9.28
8/27/2021 5:45:00 PM 16.97 62.546 0.062 6.91 104.78 9.26
8/27/2021 6:00:00 PM 17.05 62.69 0.063 6.93 126.6 9.24
8/27/2021 6:15:00 PM 17.08 62.744 0.059 6.87 133.23 9.23
8/27/2021 6:30:00 PM 17.06 62.708 0.062 6.86 106.34 9.22
8/27/2021 6:45:00 PM 17.02 62.636 0.062 6.87 79.59 9.22
8/27/2021 7:00:00 PM 16.97 62.546 0.062 6.84 61.93 9.24
8/27/2021 7:15:00 PM 16.91 62.438 0.062 6.84 48.38 9.24
8/27/2021 7:30:00 PM 16.84 62.312 0.059 6.84 36.77 9.26
8/27/2021 7:45:00 PM 16.77 62.186 0.063 6.81 30.16 9.26
8/27/2021 8:00:00 PM 16.7 62.06 0.064 6.84 24.9 9.28
8/27/2021 8:15:00 PM 16.62 61.916 0.064 6.85 20.96 9.29
8/27/2021 8:30:00 PM 16.55 61.79 0.065 6.83 17.12 9.3
8/27/2021 8:45:00 PM 16.48 61.664 0.065 6.83 14.95 9.31
8/27/2021 9:00:00 PM 16.41 61.538 0.066 6.83 12.91 9.33
8/27/2021 9:15:00 PM 16.34 61.412 0.066 6.82 11.68 9.34
8/27/2021 9:30:00 PM 16.28 61.304 0.066 6.85 11.29 9.36
8/27/2021 9:45:00 PM 16.22 61.196 0.067 6.84 11.44 9.37
8/27/2021 10:00:00 PM 16.16 61.088 0.067 6.85 10.41 9.39
8/27/2021 10:15:00 PM 16.1 60.98 0.067 6.82 10.06 9.4
8/27/2021 10:30:00 PM 16.04 60.872 0.067 6.85 8.94 9.41
8/27/2021 10:45:00 PM 15.98 60.764 0.068 6.84 8.64 9.43
8/27/2021 11:00:00 PM 15.91 60.638 0.066 6.82 8.77 9.43
8/27/2021 11:15:00 PM 15.86 60.548 0.068 6.8 7.4 9.45
8/27/2021 11:30:00 PM 15.81 60.458 0.068 6.82 7.01 9.46
8/27/2021 11:45:00 PM 15.75 60.35 0.068 6.78 6.47 9.47
8/28/2021 12:00:00 AM 15.7 60.26 0.069 6.8 6.04 9.48
8/28/2021 12:15:00 AM 15.65 60.17 0.069 6.79 5.66 9.49
8/28/2021 12:30:00 AM 15.6 60.08 0.069 6.78 5.34 9.5
8/28/2021 12:45:00 AM 15.56 60.008 0.069 6.79 5.16 9.51
8/28/2021 1:00:00 AM 15.51 59.918 0.069 6.78 4.84 9.52
8/28/2021 1:15:00 AM 15.47 59.846 0.069 6.78 4.64 9.53
8/28/2021 1:30:00 AM 15.44 59.792 0.069 6.79 4.52 9.54
8/28/2021 1:45:00 AM 15.4 59.72 0.07 6.78 4.39 9.55
8/28/2021 2:00:00 AM 15.36 59.648 0.07 6.78 4.19 9.55
8/28/2021 2:15:00 AM 15.33 59.594 0.07 6.77 4.03 9.56
8/28/2021 2:30:00 AM 15.29 59.522 0.07 6.77 3.98 9.56
8/28/2021 2:45:00 AM 15.25 59.45 0.068 6.77 5.13 9.57
8/28/2021 3:00:00 AM 15.22 59.396 0.07 6.76 3.82 9.58
8/28/2021 3:15:00 AM 15.19 59.342 0.07 6.77 3.67 9.58
8/28/2021 3:30:00 AM 15.15 59.27 0.07 6.77 3.56 9.59
8/28/2021 3:45:00 AM 15.13 59.234 0.071 6.76 3.44 9.59
8/28/2021 4:00:00 AM 15.1 59.18 0.067 6.74 4.74 9.6
8/28/2021 4:15:00 AM 15.07 59.126 0.066 6.74 4.6 9.61
8/28/2021 4:30:00 AM 15.04 59.072 0.071 6.75 3.26 9.61
8/28/2021 4:45:00 AM 15.01 59.018 0.071 6.74 3.19 9.62
8/28/2021 5:00:00 AM 14.99 58.982 0.067 6.75 4.55 9.62
8/28/2021 5:15:00 AM 14.97 58.946 0.071 6.76 3.11 9.63
8/28/2021 5:30:00 AM 14.95 58.91 0.071 6.76 3.13 9.63
8/28/2021 5:45:00 AM 14.92 58.856 0.071 6.76 3.1 9.64
8/28/2021 6:00:00 AM 14.9 58.82 0.071 6.75 3.17 9.65
8/28/2021 6:15:00 AM 14.88 58.784 0.071 6.75 3.03 9.65
8/28/2021 6:30:00 AM 14.86 58.748 0.072 6.75 3.1 9.66
8/28/2021 6:45:00 AM 14.84 58.712 0.072 6.75 2.93 9.67
8/28/2021 7:00:00 AM 14.83 58.694 0.072 6.75 3.01 9.67
8/28/2021 7:15:00 AM 14.81 58.658 0.067 6.74 4.14 9.68
8/28/2021 7:30:00 AM 14.8 58.64 0.072 6.75 2.94 9.69
8/28/2021 7:45:00 AM 14.79 58.622 0.068 6.75 4.32 9.7
8/28/2021 8:00:00 AM 14.78 58.604 0.072 6.76 2.87 9.72
8/28/2021 8:15:00 AM 14.78 58.604 0.072 6.74 2.77 9.73
8/28/2021 8:30:00 AM 14.78 58.604 0.072 6.78 2.68 9.74
8/28/2021 8:45:00 AM 14.78 58.604 0.07 6.78 4.1 9.75
8/28/2021 9:00:00 AM 14.79 58.622 0.072 6.82 2.6 9.76
8/28/2021 9:15:00 AM 14.8 58.64 0.071 6.84 2.58 9.78
8/28/2021 9:30:00 AM 14.81 58.658 0.067 6.85 4.05 9.8
8/28/2021 9:45:00 AM 14.86 58.748 0.071 6.9 2.55 9.82
8/28/2021 10:00:00 AM 14.94 58.892 0.071 6.94 2.47 9.83
8/28/2021 10:15:00 AM 15.02 59.036 0.067 6.93 3.88 9.84
8/28/2021 10:30:00 AM 15.02 59.036 0.071 6.94 2.43 9.83
8/28/2021 10:45:00 AM 15.13 59.234 0.067 6.94 3.78 9.83
8/28/2021 11:00:00 AM 15.29 59.522 0.067 6.97 3.89 9.82
8/28/2021 11:15:00 AM 15.4 59.72 0.071 6.95 2.42 9.8
8/28/2021 11:30:00 AM 15.47 59.846 0.071 6.97 2.33 9.78
8/28/2021 11:45:00 AM 15.53 59.954 0.071 6.99 2.43 9.76
8/28/2021 12:00:00 PM 15.59 60.062 0.071 7 2.44 9.75
8/28/2021 12:15:00 PM 15.78 60.404 0.066 6.99 3.72 9.72
8/28/2021 12:30:00 PM 15.95 60.71 0.071 7.02 2.31 9.69
8/28/2021 12:45:00 PM 16 60.8 0.071 7.01 2.35 9.64
8/28/2021 1:00:00 PM 16.11 60.998 0.07 7.02 2.31 9.64
8/28/2021 1:15:00 PM 16.11 60.998 0.066 6.97 3.54 9.61
8/28/2021 1:30:00 PM 16.16 61.088 0.07 7 2.35 9.61
8/28/2021 1:45:00 PM 16.29 61.322 0.07 7.04 2.29 9.6
8/28/2021 2:00:00 PM 16.44 61.592 0.07 7.04 2.27 9.58
8/28/2021 2:15:00 PM 16.51 61.718 0.066 6.99 3.56 9.56
8/28/2021 2:30:00 PM 16.46 61.628 0.066 6.98 3.8 9.53
8/28/2021 2:45:00 PM 16.36 61.448 0.067 6.97 3.58 9.52
8/28/2021 3:00:00 PM 16.45 61.61 0.07 7.01 2.28 9.52
8/28/2021 3:15:00 PM 16.65 61.97 0.07 7.04 2.33 9.49
8/28/2021 3:30:00 PM 16.75 62.15 0.07 7.02 2.32 9.47
8/28/2021 3:45:00 PM 16.85 62.33 0.07 7.03 2.34 9.46
8/28/2021 4:00:00 PM 16.9 62.42 0.07 7.02 2.29 9.44
8/28/2021 4:15:00 PM 16.85 62.33 0.07 6.98 2.32 9.42
8/28/2021 4:30:00 PM 16.82 62.276 0.065 6.97 3.54 9.4
8/28/2021 4:45:00 PM 16.84 62.312 0.069 6.97 2.51 9.37
8/28/2021 5:00:00 PM 16.83 62.294 0.065 6.94 4.1 9.36
8/28/2021 5:15:00 PM 16.82 62.276 0.069 6.96 2.8 9.37
8/28/2021 5:30:00 PM 16.81 62.258 0.069 6.94 3.23 9.38
8/28/2021 5:45:00 PM 16.78 62.204 0.068 6.94 4.17 9.37
8/28/2021 6:00:00 PM 16.71 62.078 0.068 6.92 5.31 9.37
8/28/2021 6:15:00 PM 16.62 61.916 0.067 6.91 4.51 9.37
8/28/2021 6:30:00 PM 16.52 61.736 0.067 6.89 4.31 9.38
8/28/2021 6:45:00 PM 16.43 61.574 0.067 6.88 4.04 9.38
8/28/2021 7:00:00 PM 16.36 61.448 0.068 6.85 3.62 9.4
8/28/2021 7:15:00 PM 16.28 61.304 0.068 6.87 3.3 9.41
8/28/2021 7:30:00 PM 16.21 61.178 0.065 6.87 4.44 9.41
8/28/2021 7:45:00 PM 16.13 61.034 0.065 6.85 4.45 9.42
8/28/2021 8:00:00 PM 16.04 60.872 0.065 6.84 4.47 9.42
8/28/2021 8:15:00 PM 15.96 60.728 0.07 6.81 2.98 9.43
8/28/2021 8:30:00 PM 15.89 60.602 0.07 6.81 3.05 9.44
8/28/2021 8:45:00 PM 15.82 60.476 0.068 6.85 4.13 9.45
8/28/2021 9:00:00 PM 15.75 60.35 0.07 6.81 2.87 9.47
8/28/2021 9:15:00 PM 15.68 60.224 0.066 6.84 4.22 9.49
8/28/2021 9:30:00 PM 15.61 60.098 0.066 6.85 4.04 9.5
8/28/2021 9:45:00 PM 15.55 59.99 0.071 6.85 2.55 9.52
8/28/2021 10:00:00 PM 15.49 59.882 0.071 6.85 2.53 9.53
8/28/2021 10:15:00 PM 15.43 59.774 0.066 6.83 3.82 9.54
8/28/2021 10:30:00 PM 15.37 59.666 0.071 6.84 2.49 9.56
8/28/2021 10:45:00 PM 15.31 59.558 0.067 6.84 3.9 9.57
8/28/2021 11:00:00 PM 15.26 59.468 0.066 6.85 3.74 9.58
8/28/2021 11:15:00 PM 15.21 59.378 0.066 6.85 3.81 9.59
8/28/2021 11:30:00 PM 15.16 59.288 0.066 6.84 3.83 9.6
8/28/2021 11:45:00 PM 15.12 59.216 0.071 6.86 2.32 9.62
8/29/2021 12:00:00 AM 15.08 59.144 0.066 6.85 3.66 9.63
8/29/2021 12:15:00 AM 15.04 59.072 0.071 6.86 2.26 9.63
8/29/2021 12:30:00 AM 15.01 59.018 0.071 6.87 2.21 9.64
8/29/2021 12:45:00 AM 14.97 58.946 0.071 6.86 2.26 9.65
8/29/2021 1:00:00 AM 14.94 58.892 0.071 6.87 2.3 9.66
8/29/2021 1:15:00 AM 14.91 58.838 0.071 6.86 2.22 9.66
8/29/2021 1:30:00 AM 14.88 58.784 0.07 6.83 2.29 9.67
8/29/2021 1:45:00 AM 14.86 58.748 0.07 6.86 2.2 9.68
8/29/2021 2:00:00 AM 14.85 58.73 0.07 6.83 2.16 9.68
8/29/2021 2:15:00 AM 14.86 58.748 0.07 6.89 2.17 9.68
8/29/2021 2:30:00 AM 14.86 58.748 0.07 6.9 2.2 9.68
8/29/2021 2:45:00 AM 14.84 58.712 0.07 6.9 2.15 9.68
8/29/2021 3:00:00 AM 14.81 58.658 0.07 6.85 2.13 9.69
8/29/2021 3:15:00 AM 14.79 58.622 0.07 6.9 2.14 9.69
8/29/2021 3:30:00 AM 14.76 58.568 0.07 6.89 2.17 9.69
8/29/2021 3:45:00 AM 14.74 58.532 0.07 6.89 2.16 9.7
8/29/2021 4:00:00 AM 14.72 58.496 0.07 6.89 2.21 9.7
8/29/2021 4:15:00 AM 14.71 58.478 0.066 6.87 3.55 9.7
8/29/2021 4:30:00 AM 14.69 58.442 0.07 6.88 2.1 9.71
8/29/2021 4:45:00 AM 14.69 58.442 0.066 6.87 3.57 9.71
8/29/2021 5:00:00 AM 14.67 58.406 0.07 6.89 2.11 9.71
8/29/2021 5:15:00 AM 14.66 58.388 0.07 6.88 2.08 9.71
8/29/2021 5:30:00 AM 14.65 58.37 0.07 6.88 2.06 9.72
8/29/2021 5:45:00 AM 14.63 58.334 0.066 6.87 3.63 9.72
8/29/2021 6:00:00 AM 14.61 58.298 0.07 6.88 2.15 9.73
8/29/2021 6:15:00 AM 14.6 58.28 0.07 6.89 2.21 9.73
8/29/2021 6:30:00 AM 14.57 58.226 0.066 6.85 3.51 9.74
8/29/2021 6:45:00 AM 14.53 58.154 0.07 6.85 2.16 9.75
8/29/2021 7:00:00 AM 14.51 58.118 0.07 6.83 2.19 9.75
8/29/2021 7:15:00 AM 14.49 58.082 0.07 6.82 2.12 9.76
8/29/2021 7:30:00 AM 14.47 58.046 0.07 6.86 2.11 9.78
8/29/2021 7:45:00 AM 14.47 58.046 0.066 6.84 3.6 9.79
8/29/2021 8:00:00 AM 14.46 58.028 0.065 6.85 3.62 9.8
8/29/2021 8:15:00 AM 14.47 58.046 0.066 6.85 3.44 9.82
8/29/2021 8:30:00 AM 14.48 58.064 0.07 6.88 1.87 9.82
8/29/2021 8:45:00 AM 14.49 58.082 0.07 6.9 1.87 9.83
8/29/2021 9:00:00 AM 14.49 58.082 0.07 6.91 1.9 9.85
8/29/2021 9:15:00 AM 14.5 58.1 0.07 6.92 1.95 9.85
8/29/2021 9:30:00 AM 14.51 58.118 0.07 6.92 1.81 9.86
8/29/2021 9:45:00 AM 14.52 58.136 0.07 6.92 1.87 9.86
8/29/2021 10:00:00 AM 14.54 58.172 0.07 6.94 1.82 9.87
8/29/2021 10:15:00 AM 14.55 58.19 0.07 6.95 1.91 9.88
8/29/2021 10:30:00 AM 14.58 58.244 0.07 6.95 1.82 9.89
8/29/2021 10:45:00 AM 14.62 58.316 0.07 6.97 1.83 9.9
8/29/2021 11:00:00 AM 14.66 58.388 0.069 6.98 1.8 9.9
8/29/2021 11:15:00 AM 14.67 58.406 0.068 6.96 3.34 9.9
8/29/2021 11:30:00 AM 14.71 58.478 0.069 6.98 1.74 9.9
8/29/2021 11:45:00 AM 14.73 58.514 0.069 6.98 1.77 9.89
8/29/2021 12:00:00 PM 14.77 58.586 0.069 6.97 1.81 9.89
8/29/2021 12:15:00 PM 14.83 58.694 0.069 6.99 1.77 9.9
8/29/2021 12:30:00 PM 14.9 58.82 0.067 6.99 3.13 9.89
8/29/2021 12:45:00 PM 14.93 58.874 0.069 7 1.77 9.87
8/29/2021 1:00:00 PM 14.97 58.946 0.069 7 1.82 9.87
8/29/2021 1:15:00 PM 15.01 59.018 0.067 6.99 3.16 9.87
8/29/2021 1:30:00 PM 15.04 59.072 0.067 6.99 3.32 9.86
8/29/2021 1:45:00 PM 15.1 59.18 0.067 6.98 3.16 9.85
8/29/2021 2:00:00 PM 15.16 59.288 0.069 7.01 1.77 9.85
8/29/2021 2:15:00 PM 15.2 59.36 0.069 7.01 1.81 9.83
8/29/2021 2:30:00 PM 15.23 59.414 0.065 6.98 3.17 9.82
8/29/2021 2:45:00 PM 15.24 59.432 0.069 7 1.86 9.79
8/29/2021 3:00:00 PM 15.26 59.468 0.065 6.98 3.1 9.79
8/29/2021 3:15:00 PM 15.28 59.504 0.069 7 1.84 9.78
8/29/2021 3:30:00 PM 15.32 59.576 0.069 7 1.74 9.78
8/29/2021 3:45:00 PM 15.39 59.702 0.069 7.01 1.77 9.77
8/29/2021 4:00:00 PM 15.47 59.846 0.069 6.99 1.78 9.77
8/29/2021 4:15:00 PM 15.53 59.954 0.069 7.02 1.8 9.76
8/29/2021 4:30:00 PM 15.59 60.062 0.067 7.01 3.09 9.75
8/29/2021 4:45:00 PM 15.63 60.134 0.069 7.03 1.83 9.73
8/29/2021 5:00:00 PM 15.65 60.17 0.069 7.02 1.82 9.72
8/29/2021 5:15:00 PM 15.67 60.206 0.067 7 3.14 9.71
8/29/2021 5:30:00 PM 15.64 60.152 0.069 6.99 1.77 9.67
8/29/2021 5:45:00 PM 15.62 60.116 0.069 6.97 1.81 9.63
8/29/2021 6:00:00 PM 15.61 60.098 0.069 6.96 1.8 9.6
8/29/2021 6:15:00 PM 15.6 60.08 0.069 6.94 1.8 9.58
8/29/2021 6:30:00 PM 15.58 60.044 0.069 6.9 1.92 9.56
8/29/2021 6:45:00 PM 15.53 59.954 0.067 6.91 3.07 9.55
8/29/2021 7:00:00 PM 15.48 59.864 0.069 6.9 1.76 9.55
8/29/2021 7:15:00 PM 15.42 59.756 0.065 6.88 3.17 9.55
8/29/2021 7:30:00 PM 15.36 59.648 0.065 6.86 3.12 9.55
8/29/2021 7:45:00 PM 15.32 59.576 0.069 6.87 1.76 9.55
8/29/2021 8:00:00 PM 15.27 59.486 0.069 6.86 1.72 9.55
8/29/2021 8:15:00 PM 15.23 59.414 0.069 6.85 1.8 9.55
8/29/2021 8:30:00 PM 15.19 59.342 0.069 6.83 1.79 9.56
8/29/2021 8:45:00 PM 15.15 59.27 0.068 6.83 3.26 9.57
8/29/2021 9:00:00 PM 15.1 59.18 0.07 6.84 1.88 9.57
8/29/2021 9:15:00 PM 15.06 59.108 0.066 6.83 3.48 9.58
8/29/2021 9:30:00 PM 15.01 59.018 0.07 6.84 1.8 9.59
8/29/2021 9:45:00 PM 14.97 58.946 0.07 6.84 1.84 9.6
8/29/2021 10:00:00 PM 14.92 58.856 0.07 6.83 1.84 9.61
8/29/2021 10:15:00 PM 14.88 58.784 0.07 6.84 1.88 9.62
8/29/2021 10:30:00 PM 14.85 58.73 0.07 6.84 1.75 9.63
8/29/2021 10:45:00 PM 14.82 58.676 0.066 6.83 3.27 9.63
8/29/2021 11:00:00 PM 14.78 58.604 0.07 6.85 1.77 9.64
8/29/2021 11:15:00 PM 14.75 58.55 0.07 6.85 1.84 9.65
8/29/2021 11:30:00 PM 14.71 58.478 0.07 6.84 1.89 9.65
8/29/2021 11:45:00 PM 14.67 58.406 0.07 6.84 1.78 9.66
8/30/2021 12:00:00 AM 14.63 58.334 0.07 6.83 1.77 9.66
8/30/2021 12:15:00 AM 14.59 58.262 0.07 6.84 1.83 9.67
8/30/2021 12:30:00 AM 14.56 58.208 0.07 6.82 1.8 9.68
8/30/2021 12:45:00 AM 14.53 58.154 0.07 6.86 1.74 9.69
8/30/2021 1:00:00 AM 14.5 58.1 0.066 6.84 3.1 9.69
8/30/2021 1:15:00 AM 14.46 58.028 0.07 6.85 1.72 9.7
8/30/2021 1:30:00 AM 14.43 57.974 0.07 6.86 1.79 9.71
8/30/2021 1:45:00 AM 14.41 57.938 0.066 6.85 3.06 9.72
8/30/2021 2:00:00 AM 14.37 57.866 0.07 6.86 1.8 9.73
8/30/2021 2:15:00 AM 14.34 57.812 0.07 6.87 1.72 9.73
8/30/2021 2:30:00 AM 14.31 57.758 0.066 6.85 3.09 9.73
8/30/2021 2:45:00 AM 14.29 57.722 0.07 6.87 1.78 9.74
8/30/2021 3:00:00 AM 14.26 57.668 0.07 6.87 1.74 9.75
8/30/2021 3:15:00 AM 14.24 57.632 0.07 6.82 1.8 9.75
8/30/2021 3:30:00 AM 14.22 57.596 0.066 6.86 3.07 9.76
8/30/2021 3:45:00 AM 14.21 57.578 0.07 6.87 1.69 9.76
8/30/2021 4:00:00 AM 14.19 57.542 0.07 6.87 1.74 9.76
8/30/2021 4:15:00 AM 14.17 57.506 0.07 6.88 1.74 9.76
8/30/2021 4:30:00 AM 14.15 57.47 0.07 6.87 1.75 9.77
8/30/2021 4:45:00 AM 14.13 57.434 0.07 6.83 1.72 9.77
8/30/2021 5:00:00 AM 14.11 57.398 0.07 6.87 1.76 9.77
8/30/2021 5:15:00 AM 14.09 57.362 0.07 6.87 1.69 9.78
8/30/2021 5:30:00 AM 14.07 57.326 0.07 6.86 1.69 9.78
8/30/2021 5:45:00 AM 14.05 57.29 0.07 6.86 1.73 9.78
8/30/2021 6:00:00 AM 14.04 57.272 0.07 6.86 1.75 9.78
8/30/2021 6:15:00 AM 14.02 57.236 0.07 6.86 1.72 9.78
8/30/2021 6:30:00 AM 14.01 57.218 0.07 6.86 1.77 9.79
8/30/2021 6:45:00 AM 13.99 57.182 0.07 6.86 1.71 9.79
8/30/2021 7:00:00 AM 13.98 57.164 0.066 6.85 3.23 9.8
8/30/2021 7:15:00 AM 13.97 57.146 0.07 6.86 1.72 9.82
8/30/2021 7:30:00 AM 13.97 57.146 0.068 6.86 3.04 9.84
8/30/2021 7:45:00 AM 13.97 57.146 0.07 6.88 1.71 9.85
8/30/2021 8:00:00 AM 13.98 57.164 0.07 6.88 1.62 9.88
8/30/2021 8:15:00 AM 13.99 57.182 0.07 6.9 1.69 9.89
8/30/2021 8:30:00 AM 13.99 57.182 0.068 6.88 2.98 9.88
8/30/2021 8:45:00 AM 14 57.2 0.07 6.89 1.64 9.88
8/30/2021 9:00:00 AM 14 57.2 0.07 6.89 1.58 9.88
8/30/2021 9:15:00 AM 14.02 57.236 0.07 6.9 1.65 9.89
8/30/2021 9:30:00 AM 14.04 57.272 0.07 6.9 1.52 9.89
8/30/2021 9:45:00 AM 14.06 57.308 0.07 6.92 1.64 9.91
8/30/2021 10:00:00 AM 14.09 57.362 0.07 6.92 1.61 9.93
8/30/2021 10:15:00 AM 14.12 57.416 0.065 6.93 3.07 9.95
8/30/2021 10:30:00 AM 14.18 57.524 0.07 6.96 1.53 9.96
8/30/2021 10:45:00 AM 14.24 57.632 0.07 6.99 1.56 9.98
8/30/2021 11:00:00 AM 14.3 57.74 0.066 6.97 3.05 9.97
8/30/2021 11:15:00 AM 14.34 57.812 0.07 6.99 1.49 9.95
8/30/2021 11:30:00 AM 14.41 57.938 0.065 6.99 2.87 9.96
8/30/2021 11:45:00 AM 14.47 58.046 0.07 7.01 1.5 9.96
8/30/2021 12:00:00 PM 14.57 58.226 0.07 7.03 1.57 9.95
8/30/2021 12:15:00 PM 14.62 58.316 0.07 7.04 1.62 9.93
8/30/2021 12:30:00 PM 14.69 58.442 0.065 7.01 2.93 9.92
8/30/2021 12:45:00 PM 14.76 58.568 0.069 7.04 1.52 9.92
8/30/2021 1:00:00 PM 14.9 58.82 0.069 7.07 1.51 9.9
8/30/2021 1:15:00 PM 15.11 59.198 0.069 7.09 1.56 9.87
8/30/2021 1:30:00 PM 15.21 59.378 0.069 7.05 1.56 9.84
8/30/2021 1:45:00 PM 15.31 59.558 0.069 7.08 1.5 9.82
8/30/2021 2:00:00 PM 15.48 59.864 0.065 7.05 2.88 9.8
8/30/2021 2:15:00 PM 15.61 60.098 0.065 7.05 2.96 9.75
8/30/2021 2:30:00 PM 15.68 60.224 0.065 7.03 2.82 9.73
8/30/2021 2:45:00 PM 15.78 60.404 0.069 7.07 1.49 9.69
8/30/2021 3:00:00 PM 15.89 60.602 0.069 7.08 1.56 9.66
8/30/2021 3:15:00 PM 15.91 60.638 0.069 7.02 1.43 9.61
8/30/2021 3:30:00 PM 15.93 60.674 0.065 7.01 2.88 9.6
8/30/2021 3:45:00 PM 16.05 60.89 0.069 7.06 1.54 9.57
8/30/2021 4:00:00 PM 16.12 61.016 0.069 7.05 1.49 9.55
8/30/2021 4:15:00 PM 16.17 61.106 0.065 7.01 2.95 9.53
8/30/2021 4:30:00 PM 16.21 61.178 0.065 7.01 2.89 9.51
8/30/2021 4:45:00 PM 16.25 61.25 0.069 7.03 1.53 9.52
8/30/2021 5:00:00 PM 16.19 61.142 0.066 7.01 2.87 9.5
8/30/2021 5:15:00 PM 16.14 61.052 0.069 7 1.57 9.47
8/30/2021 5:30:00 PM 16.11 60.998 0.07 6.99 1.53 9.48
8/30/2021 5:45:00 PM 16.06 60.908 0.07 6.96 1.5 9.49
8/30/2021 6:00:00 PM 16.04 60.872 0.068 6.98 2.98 9.49
8/30/2021 6:15:00 PM 16.01 60.818 0.07 6.98 1.47 9.47
8/30/2021 6:30:00 PM 15.94 60.692 0.07 6.95 1.52 9.46
8/30/2021 6:45:00 PM 15.85 60.53 0.066 6.94 2.92 9.45
8/30/2021 7:00:00 PM 15.76 60.368 0.065 6.91 2.92 9.45
8/30/2021 7:15:00 PM 15.67 60.206 0.07 6.92 1.59 9.45
8/30/2021 7:30:00 PM 15.59 60.062 0.07 6.91 1.6 9.45
8/30/2021 7:45:00 PM 15.51 59.918 0.07 6.91 1.63 9.45
8/30/2021 8:00:00 PM 15.43 59.774 0.066 6.9 2.94 9.45
8/30/2021 8:15:00 PM 15.35 59.63 0.07 6.91 1.62 9.46
8/30/2021 8:30:00 PM 15.27 59.486 0.07 6.9 1.65 9.47
8/30/2021 8:45:00 PM 15.2 59.36 0.07 6.9 1.66 9.49
8/30/2021 9:00:00 PM 15.12 59.216 0.07 6.9 1.64 9.5
8/30/2021 9:15:00 PM 15.05 59.09 0.07 6.88 1.63 9.52
8/30/2021 9:30:00 PM 14.98 58.964 0.07 6.89 1.68 9.53
8/30/2021 9:45:00 PM 14.91 58.838 0.07 6.84 1.72 9.55
8/30/2021 10:00:00 PM 14.84 58.712 0.07 6.9 1.57 9.56
8/30/2021 10:15:00 PM 14.77 58.586 0.066 6.88 2.95 9.58
8/30/2021 10:30:00 PM 14.71 58.478 0.071 6.89 1.57 9.59
8/30/2021 10:45:00 PM 14.65 58.37 0.071 6.9 1.54 9.6
8/30/2021 11:00:00 PM 14.59 58.262 0.071 6.89 1.59 9.62
8/30/2021 11:15:00 PM 14.53 58.154 0.067 6.9 3.03 9.63
8/30/2021 11:30:00 PM 14.47 58.046 0.071 6.9 1.63 9.64
8/30/2021 11:45:00 PM 14.41 57.938 0.071 6.9 1.57 9.66
8/31/2021 12:00:00 AM 14.36 57.848 0.071 6.9 1.56 9.67
8/31/2021 12:15:00 AM 14.3 57.74 0.071 6.91 1.62 9.68
8/31/2021 12:30:00 AM 14.25 57.65 0.071 6.9 1.59 9.69
8/31/2021 12:45:00 AM 14.2 57.56 0.071 6.89 1.68 9.71
8/31/2021 1:00:00 AM 14.14 57.452 0.071 6.91 1.57 9.71
8/31/2021 1:15:00 AM 14.09 57.362 0.071 6.9 1.65 9.73
8/31/2021 1:30:00 AM 14.04 57.272 0.071 6.92 1.53 9.74
8/31/2021 1:45:00 AM 13.99 57.182 0.071 6.91 1.63 9.76
8/31/2021 2:00:00 AM 13.94 57.092 0.071 6.9 1.57 9.76
8/31/2021 2:15:00 AM 13.89 57.002 0.071 6.91 1.57 9.78
8/31/2021 2:30:00 AM 13.85 56.93 0.071 6.9 1.56 9.79
8/31/2021 2:45:00 AM 13.8 56.84 0.066 6.89 2.85 9.8
8/31/2021 3:00:00 AM 13.76 56.768 0.066 6.9 2.96 9.81
8/31/2021 3:15:00 AM 13.71 56.678 0.071 6.9 1.48 9.81
8/31/2021 3:30:00 AM 13.67 56.606 0.071 6.91 1.51 9.83
8/31/2021 3:45:00 AM 13.63 56.534 0.071 6.9 1.53 9.83
8/31/2021 4:00:00 AM 13.59 56.462 0.071 6.91 1.53 9.84
8/31/2021 4:15:00 AM 13.54 56.372 0.071 6.91 1.58 9.85
8/31/2021 4:30:00 AM 13.51 56.318 0.071 6.87 1.52 9.86
8/31/2021 4:45:00 AM 13.48 56.264 0.071 6.91 1.48 9.87
8/31/2021 5:00:00 AM 13.45 56.21 0.071 6.91 1.42 9.88
8/31/2021 5:15:00 AM 13.42 56.156 0.071 6.91 1.49 9.88
8/31/2021 5:30:00 AM 13.39 56.102 0.071 6.9 1.49 9.89
8/31/2021 5:45:00 AM 13.36 56.048 0.067 6.88 2.76 9.9
8/31/2021 6:00:00 AM 13.32 55.976 0.071 6.9 1.49 9.9
8/31/2021 6:15:00 AM 13.3 55.94 0.071 6.9 1.52 9.91
8/31/2021 6:30:00 AM 13.27 55.886 0.071 6.91 1.52 9.92
8/31/2021 6:45:00 AM 13.24 55.832 0.071 6.91 2.64 9.92
8/31/2021 7:00:00 AM 13.22 55.796 0.071 6.91 3.09 9.94
8/31/2021 7:15:00 AM 13.2 55.76 0.069 6.9 3 9.97
8/31/2021 7:30:00 AM 13.19 55.742 0.069 6.91 3.09 9.99
8/31/2021 7:45:00 AM 13.18 55.724 0.071 6.93 1.6 10.02
8/31/2021 8:00:00 AM 13.18 55.724 0.071 6.95 1.51 10.06
8/31/2021 8:15:00 AM 13.19 55.742 0.071 6.95 1.49 10.09
8/31/2021 8:30:00 AM 13.2 55.76 0.071 6.96 1.42 10.12
8/31/2021 8:45:00 AM 13.22 55.796 0.071 6.99 1.41 10.14
8/31/2021 9:00:00 AM 13.24 55.832 0.071 6.99 1.37 10.15
8/31/2021 9:15:00 AM 13.27 55.886 0.071 7.01 1.32 10.17
8/31/2021 9:30:00 AM 13.3 55.94 0.071 7.01 1.36 10.18
8/31/2021 9:45:00 AM 13.35 56.03 0.066 7.01 2.79 10.19
8/31/2021 10:00:00 AM 13.38 56.084 0.066 7 2.77 10.17
8/31/2021 10:15:00 AM 13.46 56.228 0.071 7.04 1.34 10.18
8/31/2021 10:30:00 AM 13.51 56.318 0.071 7.05 1.36 10.19
8/31/2021 10:45:00 AM 13.57 56.426 0.071 7.06 1.33 10.19
8/31/2021 11:00:00 AM 13.69 56.642 0.071 7.07 1.35 10.19
8/31/2021 11:15:00 AM 13.71 56.678 0.071 7.05 1.38 10.16
8/31/2021 11:30:00 AM 13.78 56.804 0.071 7.05 1.38 10.14
8/31/2021 11:45:00 AM 13.84 56.912 0.07 7.05 1.37 10.13
8/31/2021 12:00:00 PM 14.04 57.272 0.066 7.09 2.7 10.11
8/31/2021 12:15:00 PM 14.22 57.596 0.07 7.12 1.27 10.09
8/31/2021 12:30:00 PM 14.34 57.812 0.07 7.12 1.37 10.06
8/31/2021 12:45:00 PM 14.56 58.208 0.07 7.11 1.3 10.03
8/31/2021 1:00:00 PM 14.73 58.514 0.07 7.16 1.31 9.99
8/31/2021 1:15:00 PM 14.88 58.784 0.07 7.15 1.3 9.95
8/31/2021 1:30:00 PM 14.94 58.892 0.07 7.11 1.28 9.9
8/31/2021 1:45:00 PM 14.96 58.928 0.07 7.1 1.29 9.88
8/31/2021 2:00:00 PM 14.95 58.91 0.066 7.07 2.67 9.87
8/31/2021 2:15:00 PM 15.01 59.018 0.07 7.11 1.33 9.86
8/31/2021 2:30:00 PM 15.08 59.144 0.07 7.11 1.27 9.86
8/31/2021 2:45:00 PM 15.19 59.342 0.07 7.12 1.34 9.84
8/31/2021 3:00:00 PM 15.23 59.414 0.07 7.1 1.33 9.8
8/31/2021 3:15:00 PM 15.23 59.414 0.066 7.06 2.67 9.79
8/31/2021 3:30:00 PM 15.28 59.504 0.066 7.07 2.56 9.77
8/31/2021 3:45:00 PM 15.3 59.54 0.07 7.08 1.31 9.77
8/31/2021 4:00:00 PM 15.29 59.522 0.07 7.06 1.42 9.75
8/31/2021 4:15:00 PM 15.3 59.54 0.07 7.07 1.39 9.75
8/31/2021 4:30:00 PM 15.32 59.576 0.07 7.06 1.36 9.72
8/31/2021 4:45:00 PM 15.36 59.648 0.069 7.04 2.67 9.7
8/31/2021 5:00:00 PM 15.38 59.684 0.07 7.05 1.3 9.69
8/31/2021 5:15:00 PM 15.39 59.702 0.07 7.05 1.35 9.7
8/31/2021 5:30:00 PM 15.4 59.72 0.069 7.03 2.62 9.69
8/31/2021 5:45:00 PM 15.4 59.72 0.071 7.04 1.4 9.69
8/31/2021 6:00:00 PM 15.36 59.648 0.071 7.03 1.63 9.67
8/31/2021 6:15:00 PM 15.31 59.558 0.071 7.02 1.42 9.65
8/31/2021 6:30:00 PM 15.25 59.45 0.071 7 1.68 9.62
8/31/2021 6:45:00 PM 15.19 59.342 0.071 6.97 2.39 9.6
8/31/2021 7:00:00 PM 15.13 59.234 0.071 6.96 1.92 9.57
8/31/2021 7:15:00 PM 15.07 59.126 0.071 6.95 1.54 9.56
8/31/2021 7:30:00 PM 15.01 59.018 0.071 6.94 1.54 9.55
8/31/2021 7:45:00 PM 14.95 58.91 0.071 6.92 1.5 9.55
8/31/2021 8:00:00 PM 14.89 58.802 0.071 6.92 1.44 9.55
8/31/2021 8:15:00 PM 14.83 58.694 0.071 6.91 1.43 9.55
8/31/2021 8:30:00 PM 14.77 58.586 0.072 6.91 1.44 9.56
8/31/2021 8:45:00 PM 14.72 58.496 0.072 6.9 1.4 9.57
8/31/2021 9:00:00 PM 14.66 58.388 0.072 6.89 1.5 9.57
8/31/2021 9:15:00 PM 14.65 58.37 0.076 6.89 1.95 9.54
8/31/2021 9:30:00 PM 14.62 58.316 0.078 6.86 1.96 9.53
8/31/2021 9:45:00 PM 14.55 58.19 0.073 6.84 3.05 9.56
8/31/2021 10:00:00 PM 14.49 58.082 0.077 6.86 1.5 9.58
8/31/2021 10:15:00 PM 14.44 57.992 0.071 6.86 2.82 9.6
8/31/2021 10:30:00 PM 14.39 57.902 0.074 6.86 1.45 9.61
8/31/2021 10:45:00 PM 14.35 57.83 0.074 6.87 1.41 9.63
8/31/2021 11:00:00 PM 14.31 57.758 0.073 6.88 1.41 9.64
8/31/2021 11:15:00 PM 14.27 57.686 0.071 6.87 2.78 9.65
8/31/2021 11:30:00 PM 14.23 57.614 0.073 6.89 1.3 9.66
8/31/2021 11:45:00 PM 14.19 57.542 0.073 6.89 1.39 9.68
9/1/2021 12:00:00 AM 14.16 57.488 0.072 6.89 1.32 9.68
9/1/2021 12:15:00 AM 14.12 57.416 0.072 6.89 1.39 9.69
9/1/2021 12:30:00 AM 14.09 57.362 0.072 6.89 1.37 9.7
9/1/2021 12:45:00 AM 14.06 57.308 0.072 6.91 1.32 9.71
9/1/2021 1:00:00 AM 14.03 57.254 0.072 6.89 1.34 9.72
9/1/2021 1:15:00 AM 13.99 57.182 0.072 6.9 1.34 9.72
9/1/2021 1:30:00 AM 13.96 57.128 0.072 6.9 1.42 9.73
9/1/2021 1:45:00 AM 13.93 57.074 0.072 6.89 1.29 9.74
9/1/2021 2:00:00 AM 13.9 57.02 0.068 6.88 2.66 9.74
9/1/2021 2:15:00 AM 13.87 56.966 0.072 6.9 1.34 9.75
9/1/2021 2:30:00 AM 13.84 56.912 0.072 6.9 1.3 9.75
9/1/2021 2:45:00 AM 13.81 56.858 0.072 6.86 1.27 9.76
9/1/2021 3:00:00 AM 13.79 56.822 0.072 6.94 1.31 9.77
9/1/2021 3:15:00 AM 13.76 56.768 0.068 6.92 2.68 9.77
9/1/2021 3:30:00 AM 13.74 56.732 0.072 6.93 1.29 9.78
9/1/2021 3:45:00 AM 13.71 56.678 0.07 6.92 2.62 9.78
9/1/2021 4:00:00 AM 13.69 56.642 0.072 6.94 1.27 9.79
9/1/2021 4:15:00 AM 13.66 56.588 0.072 6.93 1.26 9.79
9/1/2021 4:30:00 AM 13.64 56.552 0.072 6.93 1.28 9.8
9/1/2021 4:45:00 AM 13.63 56.534 0.072 6.93 1.28 9.8
9/1/2021 5:00:00 AM 13.61 56.498 0.07 6.93 2.69 9.81
9/1/2021 5:15:00 AM 13.59 56.462 0.072 6.93 1.25 9.81
9/1/2021 5:30:00 AM 13.57 56.426 0.072 6.94 1.23 9.81
9/1/2021 5:45:00 AM 13.55 56.39 0.072 6.94 1.26 9.82
9/1/2021 6:00:00 AM 13.53 56.354 0.072 6.94 1.24 9.82
9/1/2021 6:15:00 AM 13.52 56.336 0.072 6.93 1.23 9.83
9/1/2021 6:30:00 AM 13.5 56.3 0.072 6.93 1.33 9.83
9/1/2021 6:45:00 AM 13.48 56.264 0.072 6.93 1.32 9.83
9/1/2021 7:00:00 AM 13.47 56.246 0.072 6.93 1.37 9.84
9/1/2021 7:15:00 AM 13.46 56.228 0.072 6.93 3.71 9.85
9/1/2021 7:30:00 AM 13.45 56.21 0.072 6.93 2.58 9.87
9/1/2021 7:45:00 AM 13.44 56.192 0.072 6.95 1.44 9.88
9/1/2021 8:00:00 AM 13.44 56.192 0.072 6.95 1.39 9.89
9/1/2021 8:15:00 AM 13.43 56.174 0.072 6.94 1.23 9.91
9/1/2021 8:30:00 AM 13.43 56.174 0.072 6.97 1.25 9.93
9/1/2021 8:45:00 AM 13.51 56.318 0.086 6.83 5.77 9.77
9/1/2021 9:00:00 AM 13.43 56.174 0.088 6.78 3.26 9.79
9/1/2021 9:15:00 AM 13.42 56.156 0.085 6.81 1.96 9.84
9/1/2021 9:30:00 AM 13.43 56.174 0.082 6.85 1.66 9.89
9/1/2021 9:45:00 AM 13.45 56.21 0.08 6.89 1.54 9.94
9/1/2021 10:00:00 AM 13.47 56.246 0.078 6.9 1.51 9.99
9/1/2021 10:15:00 AM 13.49 56.282 0.077 6.92 1.32 10.01
9/1/2021 10:30:00 AM 13.5 56.3 0.076 6.96 1.37 10.04
9/1/2021 10:45:00 AM 13.51 56.318 0.075 6.99 1.26 10.03
9/1/2021 11:00:00 AM 13.53 56.354 0.075 6.95 1.28 10.07
9/1/2021 11:15:00 AM 13.54 56.372 0.074 7.02 1.31 10.06
9/1/2021 11:30:00 AM 13.56 56.408 0.074 7.02 1.23 10.07
9/1/2021 11:45:00 AM 13.59 56.462 0.073 7.03 1.3 10.08
9/1/2021 12:00:00 PM 13.59 56.462 0.073 7.03 1.23 10.06
9/1/2021 12:15:00 PM 13.59 56.462 0.073 7.03 1.26 10.04
9/1/2021 12:30:00 PM 13.6 56.48 0.073 7.03 1.2 10.02
9/1/2021 12:45:00 PM 13.61 56.498 0.073 7.04 1.22 10.05
9/1/2021 1:00:00 PM 13.63 56.534 0.072 7.04 1.2 10.06
9/1/2021 1:15:00 PM 13.64 56.552 0.072 7.04 1.3 10.06
9/1/2021 1:30:00 PM 13.65 56.57 0.068 7.03 2.58 10.05
9/1/2021 1:45:00 PM 13.66 56.588 0.072 7.07 1.25 10.06
9/1/2021 2:00:00 PM 13.67 56.606 0.072 7.07 1.26 10.05
9/1/2021 2:15:00 PM 13.67 56.606 0.072 7.06 1.2 10
9/1/2021 2:30:00 PM 13.68 56.624 0.072 7.06 1.2 9.98
9/1/2021 2:45:00 PM 13.68 56.624 0.072 7.05 1.24 9.97
9/1/2021 3:00:00 PM 13.69 56.642 0.072 7.07 1.26 9.99
9/1/2021 3:15:00 PM 13.7 56.66 0.071 7.09 1.37 10.01
9/1/2021 3:30:00 PM 13.7 56.66 0.071 7.08 1.3 10
9/1/2021 3:45:00 PM 13.7 56.66 0.067 7.05 2.8 9.97
9/1/2021 4:00:00 PM 13.69 56.642 0.071 7.06 1.39 9.94
9/1/2021 4:15:00 PM 13.67 56.606 0.071 7.05 1.57 9.91
9/1/2021 4:30:00 PM 13.66 56.588 0.069 7.01 2.97 9.9
9/1/2021 4:45:00 PM 13.66 56.588 0.071 7.04 1.59 9.89
9/1/2021 5:00:00 PM 13.65 56.57 0.071 7.03 1.59 9.9
9/1/2021 5:15:00 PM 13.65 56.57 0.071 7.03 1.57 9.94
9/1/2021 5:30:00 PM 13.66 56.588 0.071 7.05 1.55 9.95
9/1/2021 5:45:00 PM 13.66 56.588 0.071 7.06 1.5 9.96
9/1/2021 6:00:00 PM 13.67 56.606 0.071 7.07 1.48 9.98
9/1/2021 6:15:00 PM 13.67 56.606 0.071 7.07 1.57 9.98
9/1/2021 6:30:00 PM 13.67 56.606 0.072 7.06 1.44 9.96
9/1/2021 6:45:00 PM 13.66 56.588 0.072 7.05 1.51 9.94
9/1/2021 7:00:00 PM 13.65 56.57 0.072 7.04 1.54 9.92
9/1/2021 7:15:00 PM 13.64 56.552 0.072 7.04 1.71 9.9
9/1/2021 7:30:00 PM 13.62 56.516 0.068 7.01 3.11 9.88
9/1/2021 7:45:00 PM 13.61 56.498 0.072 7.02 1.69 9.86
9/1/2021 8:00:00 PM 13.59 56.462 0.072 7.01 1.92 9.85
9/1/2021 8:15:00 PM 13.57 56.426 0.072 7.01 1.71 9.84
9/1/2021 8:30:00 PM 13.55 56.39 0.068 6.99 2.91 9.83
9/1/2021 8:45:00 PM 13.52 56.336 0.073 7 1.61 9.84
9/1/2021 9:00:00 PM 13.48 56.264 0.073 6.99 1.58 9.84
9/1/2021 9:15:00 PM 13.44 56.192 0.073 6.99 1.58 9.85
9/1/2021 9:30:00 PM 13.4 56.12 0.073 6.99 1.55 9.85
9/1/2021 9:45:00 PM 13.36 56.048 0.073 6.99 1.46 9.86
9/1/2021 10:00:00 PM 13.32 55.976 0.073 6.99 1.48 9.87
9/1/2021 10:15:00 PM 13.28 55.904 0.073 6.97 1.49 9.88
9/1/2021 10:30:00 PM 13.23 55.814 0.073 6.99 1.41 9.89
9/1/2021 10:45:00 PM 13.19 55.742 0.073 6.98 1.39 9.9
9/1/2021 11:00:00 PM 13.14 55.652 0.073 6.95 1.45 9.91
9/1/2021 11:15:00 PM 13.09 55.562 0.073 6.99 1.43 9.93
9/1/2021 11:30:00 PM 13.04 55.472 0.071 6.97 2.75 9.94
9/1/2021 11:45:00 PM 12.99 55.382 0.073 6.96 1.39 9.95
9/2/2021 12:00:00 AM 12.94 55.292 0.073 6.98 1.45 9.96
9/2/2021 12:15:00 AM 12.89 55.202 0.073 6.98 1.45 9.98
9/2/2021 12:30:00 AM 12.84 55.112 0.073 6.98 1.4 10
9/2/2021 12:45:00 AM 12.78 55.004 0.073 6.98 1.35 10
9/2/2021 1:00:00 AM 12.73 54.914 0.073 6.98 1.32 10.02
9/2/2021 1:15:00 AM 12.67 54.806 0.073 6.97 1.32 10.03
9/2/2021 1:30:00 AM 12.62 54.716 0.073 6.97 1.25 10.05
9/2/2021 1:45:00 AM 12.56 54.608 0.073 6.98 1.31 10.05
9/2/2021 2:00:00 AM 12.51 54.518 0.073 6.93 1.32 10.07
9/2/2021 2:15:00 AM 12.46 54.428 0.073 6.98 1.3 10.09
9/2/2021 2:30:00 AM 12.41 54.338 0.073 6.98 1.27 10.09
9/2/2021 2:45:00 AM 12.36 54.248 0.073 6.96 1.26 10.11
9/2/2021 3:00:00 AM 12.31 54.158 0.073 6.98 1.25 10.13
9/2/2021 3:15:00 AM 12.26 54.068 0.073 6.98 1.25 10.14
9/2/2021 3:30:00 AM 12.21 53.978 0.073 6.97 1.23 10.15
9/2/2021 3:45:00 AM 12.16 53.888 0.069 6.96 2.66 10.17
9/2/2021 4:00:00 AM 12.11 53.798 0.073 6.96 1.3 10.18
9/2/2021 4:15:00 AM 12.06 53.708 0.073 6.94 1.32 10.19
9/2/2021 4:30:00 AM 12.01 53.618 0.073 6.98 1.21 10.2
9/2/2021 4:45:00 AM 11.97 53.546 0.073 6.98 1.24 10.22
9/2/2021 5:00:00 AM 11.92 53.456 0.073 6.97 1.16 10.23
9/2/2021 5:15:00 AM 11.87 53.366 0.073 6.96 1.2 10.25
9/2/2021 5:30:00 AM 11.83 53.294 0.073 6.98 1.24 10.26
9/2/2021 5:45:00 AM 11.78 53.204 0.073 6.98 1.15 10.26
9/2/2021 6:00:00 AM 11.73 53.114 0.073 6.98 1.18 10.28
9/2/2021 6:15:00 AM 11.68 53.024 0.073 6.97 2.34 10.29
9/2/2021 6:30:00 AM 11.64 52.952 0.073 6.97 4.82 10.31
9/2/2021 6:45:00 AM 11.6 52.88 0.073 6.97 1.93 10.32
9/2/2021 7:00:00 AM 11.56 52.808 0.073 6.98 1.39 10.35
9/2/2021 7:15:00 AM 11.52 52.736 0.073 6.98 1.24 10.37
9/2/2021 7:30:00 AM 11.49 52.682 0.073 7 1.26 10.4
9/2/2021 7:45:00 AM 11.46 52.628 0.073 7 1.16 10.44
9/2/2021 8:00:00 AM 11.45 52.61 0.073 7.01 1.32 10.47
9/2/2021 8:15:00 AM 11.45 52.61 0.073 7.02 1.2 10.49
9/2/2021 8:30:00 AM 11.45 52.61 0.073 7.03 1.08 10.52
9/2/2021 8:45:00 AM 11.47 52.646 0.073 7.03 1.09 10.54
9/2/2021 9:00:00 AM 11.49 52.682 0.073 7.05 1.09 10.56
9/2/2021 9:15:00 AM 11.53 52.754 0.073 7.06 1.14 10.57
9/2/2021 9:30:00 AM 11.58 52.844 0.073 7.07 1.12 10.59
9/2/2021 9:45:00 AM 11.65 52.97 0.073 7.09 1.04 10.59
9/2/2021 10:00:00 AM 11.74 53.132 0.073 7.09 1.07 10.6
9/2/2021 10:15:00 AM 11.84